Zarling — WDD7883 — position and weather

sailwx.info

Track history (hours):
 
Tides and Currents Weather Stations Pressure Air Temp Water Temp Dewpoint Dewpoint Depression Visibility Wind Speed Wind Dir Waves Ship Positions

Zarling

Owner: Clean Rivers Co-op, Portland, OR. More information available from US FCC via Universal Licensing System.

Last reported at 2017-Jun-23 13:30 UTC. Time now 2017-Jun-23 13:50 UTC.
Position N 45°33' W 122°42'.

Length 12 m.

Type: Pollution control. MMSI: 3699126.

Date/timePositionNaut miles runAvg speedWind from/ knotsBaromVisibWave heightAir tempDewpointWater temp
2017-Jun-23 13:30N 45°33' W 122°42'4020591.2
2017-Jun-23 13:30N 46°10' W 123°03'71859.1
2017-Jun-23 13:29N 46°05' W 122°56'143256.5
2017-Jun-23 13:29N 45°52' W 122°48'3211526.0
2017-Jun-23 13:29N 46°12' W 123°23'0 0.0
2017-Jun-23 12:59N 46°12' W 123°23'14785.0
2017-Jun-23 12:58N 46°10' W 123°03'041.5
2017-Jun-23 12:57N 46°10' W 123°03'21551.1
2017-Jun-23 12:55N 45°52' W 122°48'19366.3
2017-Jun-23 12:52N 45°33' W 122°42'49126.8
2017-Jun-23 12:29N 46°12' W 123°23'492824.3
2017-Jun-23 12:28N 45°33' W 122°42'4048052.8
2017-Jun-23 12:28N 46°10' W 123°03'211913.9
2017-Jun-23 12:27N 45°52' W 122°48'211822.3
2017-Jun-23 12:26N 46°10' W 123°03'2147.9
2017-Jun-23 12:00N 45°52' W 122°48'213826.9
2017-Jun-23 11:59N 46°10' W 123°03'141477.9
2017-Jun-23 11:59N 46°12' W 123°23'492216.6
2017-Jun-23 11:58N 45°33' W 122°42'4016015.4
2017-Jun-23 11:57N 46°10' W 123°03'1429.4
2017-Jun-23 11:29N 46°12' W 123°23'492824.3
2017-Jun-23 11:28N 45°33' W 122°42'4020594.1
2017-Jun-23 11:28N 46°10' W 123°03'0 1.4
2017-Jun-23 11:28N 46°10' W 123°03'213644.6
2017-Jun-23 11:27N 45°52' W 122°48'2147.4
2017-Jun-23 11:00N 46°10' W 123°03'2112756.2
2017-Jun-23 11:00N 45°52' W 122°48'328866.1
2017-Jun-23 11:00N 46°12' W 123°23'14401.9
2017-Jun-23 10:58N 46°10' W 123°03'40209.8
2017-Jun-23 10:46N 45°33' W 122°42'1971.5
2017-Jun-23 10:30N 45°52' W 122°48'21344.7
2017-Jun-23 10:26N 46°10' W 123°03'141395.7
2017-Jun-23 10:26N 46°12' W 123°23'14318.0
2017-Jun-23 10:23N 46°10' W 123°03'40556.6
2017-Jun-23 10:19N 45°33' W 122°42'49145.8
2017-Jun-23 09:59N 46°12' W 123°23'141395.6
2017-Jun-23 09:58N 46°10' W 123°03'405544.6
2017-Jun-23 09:58N 45°33' W 122°42'191698.1
2017-Jun-23 09:57N 45°52' W 122°48'21344.7
2017-Jun-23 09:53N 46°10' W 123°03'2154.7
2017-Jun-23 09:30N 45°52' W 122°48'211779.9
2017-Jun-23 09:29N 46°10' W 123°03'141522.6
2017-Jun-23 09:29N 46°12' W 123°23'146280.4
2017-Jun-23 09:29N 46°10' W 123°03'402719.6
2017-Jun-23 09:28N 45°33' W 122°42'1942.3
2017-Jun-23 09:00N 45°52' W 122°48'211159.7
2017-Jun-23 08:59N 46°10' W 123°03'142955.7
2017-Jun-23 08:59N 46°12' W 123°23'492694.0
2017-Jun-23 08:58N 45°33' W 122°42'4011089.1
2017-Jun-23 08:58N 46°10' W 123°03'0 0.0
2017-Jun-23 08:29N 46°10' W 123°03'141570.2
2017-Jun-23 08:29N 46°12' W 123°23'3238419.9
2017-Jun-23 08:29N 45°52' W 122°48'21349.6
2017-Jun-23 08:25N 46°10' W 123°03'40720.8
2017-Jun-23 08:22N 45°33' W 122°42'40107.2
2017-Jun-23 07:59N 46°10' W 123°03'141522.6
2017-Jun-23 07:59N 46°12' W 123°23'492779.5
2017-Jun-23 07:58N 45°33' W 122°42'40792.1
2017-Jun-23 07:55N 46°10' W 123°03'21359.4
2017-Jun-23 07:51N 45°52' W 122°48'2161.4
2017-Jun-23 07:30N 46°10' W 123°03'214784.7
2017-Jun-23 07:30N 45°52' W 122°48'211628.5
2017-Jun-23 07:29N 46°10' W 123°03'141477.8
2017-Jun-23 07:29N 46°12' W 123°23'494489.9
2017-Jun-23 07:28N 45°33' W 122°42'4085.0
2017-Jun-23 07:00N 46°10' W 123°03'0 0.7
2017-Jun-23 06:59N 46°10' W 123°03'401092.0
2017-Jun-23 06:57N 45°33' W 122°42'1913920.3
2017-Jun-23 06:57N 45°52' W 122°48'32922.1
2017-Jun-23 06:55N 46°12' W 123°23'1432.7
2017-Jun-23 06:29N 46°10' W 123°03'141358.0
2017-Jun-23 06:29N 46°12' W 123°23'492870.6
2017-Jun-23 06:28N 45°33' W 122°42'4072079.3
2017-Jun-23 06:28N 46°10' W 123°03'21205.8
2017-Jun-23 06:22N 45°52' W 122°48'0 0.0
2017-Jun-23 06:00N 45°52' W 122°48'191512.6
2017-Jun-23 05:59N 45°33' W 122°42'495002.6
2017-Jun-23 05:59N 46°12' W 123°23'14728.2
2017-Jun-23 05:58N 46°10' W 123°03'4086.8
2017-Jun-23 05:30N 45°33' W 122°42'404367.2
2017-Jun-23 05:29N 46°10' W 123°03'141358.0
2017-Jun-23 05:29N 46°12' W 123°23'14837.4
2017-Jun-23 05:28N 46°10' W 123°03'211822.8
2017-Jun-23 05:27N 45°52' W 122°48'2146.9
2017-Jun-23 05:00N 46°10' W 123°03'401172.0
2017-Jun-23 04:58N 45°33' W 122°42'401601.5
2017-Jun-23 04:56N 46°10' W 123°03'141674.9
2017-Jun-23 04:56N 46°12' W 123°23'321130.0
2017-Jun-23 04:54N 45°52' W 122°48'2151.6
2017-Jun-23 04:30N 46°10' W 123°03'141322.3
2017-Jun-23 04:29N 46°12' W 123°23'14810.4
2017-Jun-23 04:28N 46°10' W 123°03'211963.0
2017-Jun-23 04:27N 45°52' W 122°48'19219.6
2017-Jun-23 04:22N 45°33' W 122°42'1953.4
2017-Jun-23 04:00N 45°52' W 122°48'211779.9
2017-Jun-23 03:59N 46°10' W 123°03'141435.6
2017-Jun-23 03:59N 46°12' W 123°23'492870.3
2017-Jun-23 03:58N 45°33' W 122°42'4072069.2
2017-Jun-23 03:58N 46°10' W 123°03'0 0.0
2017-Jun-23 03:29N 46°10' W 123°03'141477.8
2017-Jun-23 03:29N 46°12' W 123°23'14785.0
2017-Jun-23 03:28N 46°10' W 123°03'211913.9
2017-Jun-23 03:27N 45°52' W 122°48'19217.5
2017-Jun-23 03:22N 45°33' W 122°42'1953.7
2017-Jun-23 03:00N 45°52' W 122°48'192676.2
2017-Jun-23 03:00N 45°33' W 122°42'4072069.2
2017-Jun-23 03:00N 46°10' W 123°03'0 1.2
2017-Jun-23 02:59N 46°10' W 123°03'141674.9
2017-Jun-23 02:59N 46°12' W 123°23'3266.8
2017-Jun-23 02:30N 45°52' W 122°48'211530.4
2017-Jun-23 02:29N 46°10' W 123°03'141794.5
2017-Jun-23 02:29N 46°12' W 123°23'14201.0
2017-Jun-23 02:25N 46°10' W 123°03'40449.1
2017-Jun-23 02:19N 45°33' W 122°42'49152.3
2017-Jun-23 02:00N 46°12' W 123°23'3257629.9
2017-Jun-23 02:00N 45°52' W 122°48'211913.4
2017-Jun-23 01:59N 46°10' W 123°03'0 2.0
2017-Jun-23 01:59N 46°10' W 123°03'401695.7
2017-Jun-23 01:58N 45°33' W 122°42'1941.7
2017-Jun-23 01:30N 45°52' W 122°48'3212806.6
2017-Jun-23 01:30N 46°12' W 123°23'492109.7
2017-Jun-23 01:29N 45°33' W 122°42'40144158.5
2017-Jun-23 01:29N 46°10' W 123°03'0 0.2
2017-Jun-23 01:27N 46°10' W 123°03'0 0.0
2017-Jun-23 00:59N 46°10' W 123°03'401549.9
2017-Jun-23 00:58N 45°33' W 122°42'491447.2
2017-Jun-23 00:56N 46°12' W 123°23'14207.6
2017-Jun-23 00:52N 46°10' W 123°03'21263.1
2017-Jun-23 00:47N 45°52' W 122°48'1966.6
2017-Jun-23 00:30N 45°33' W 122°42'4016013.1
2017-Jun-23 00:29N 46°10' W 123°03'141395.7
2017-Jun-23 00:29N 46°12' W 123°23'32512.3
2017-Jun-23 00:25N 45°52' W 122°48'215103.7
2017-Jun-23 00:25N 46°10' W 123°03'2151.6
2017-Jun-23 00:00N 45°52' W 122°48'211664.3
2017-Jun-22 23:59N 46°10' W 123°03'40144158.5
2017-Jun-22 23:59N 45°33' W 122°42'495648.6
2017-Jun-22 23:59N 46°12' W 123°23'141674.9
2017-Jun-22 23:58N 46°10' W 123°03'1428.5
2017-Jun-22 23:29N 46°12' W 123°23'14823.7
2017-Jun-22 23:28N 46°10' W 123°03'4036034.6
2017-Jun-22 23:28N 45°33' W 122°42'191697.1
2017-Jun-22 23:27N 45°52' W 122°48'212014.1
2017-Jun-22 23:27N 46°10' W 123°03'1432.0
2017-Jun-22 23:00N 46°12' W 123°23'14913.6
2017-Jun-22 22:59N 46°10' W 123°03'0 0.2
2017-Jun-22 22:58N 46°10' W 123°03'4036039.6
2017-Jun-22 22:58N 45°33' W 122°42'19316.4
2017-Jun-22 22:54N 45°52' W 122°48'3281.1
2017-Jun-22 22:31N 46°12' W 123°23'325488.6
2017-Jun-22 22:30N 45°52' W 122°48'21567.1
2017-Jun-22 22:28N 46°10' W 123°03'4036039.6
2017-Jun-22 22:28N 45°33' W 122°42'401676.0
2017-Jun-22 22:26N 46°10' W 123°03'1430.4
2017-Jun-22 21:59N 46°12' W 123°23'141256.2
2017-Jun-22 21:58N 46°10' W 123°03'407205.9
2017-Jun-22 21:58N 45°33' W 122°42'403203.1
2017-Jun-22 21:57N 46°10' W 123°03'212251.6
2017-Jun-22 21:57N 45°52' W 122°48'0 0.0
2017-Jun-22 21:30N 45°52' W 122°48'211628.5
2017-Jun-22 21:29N 46°10' W 123°03'141570.2
2017-Jun-22 21:29N 46°12' W 123°23'492870.6
2017-Jun-22 21:28N 45°33' W 122°42'40848.0
2017-Jun-22 21:25N 46°10' W 123°03'0 0.0
2017-Jun-22 20:59N 46°10' W 123°03'0 0.9
2017-Jun-22 20:59N 46°10' W 123°03'14401.9
2017-Jun-22 20:57N 46°12' W 123°23'492736.1
2017-Jun-22 20:56N 45°33' W 122°42'19669.2
2017-Jun-22 20:54N 45°52' W 122°48'0 0.0
2017-Jun-22 20:30N 45°52' W 122°48'211779.9
2017-Jun-22 20:29N 46°10' W 123°03'141732.6
2017-Jun-22 20:29N 46°12' W 123°23'14207.6
2017-Jun-22 20:25N 46°10' W 123°03'4036034.6
2017-Jun-22 20:25N 45°33' W 122°42'4096.0
2017-Jun-22 20:00N 46°10' W 123°03'0 0.9
2017-Jun-22 19:59N 46°10' W 123°03'216957.9
2017-Jun-22 19:59N 45°52' W 122°48'325239.1
2017-Jun-22 19:59N 46°12' W 123°23'492824.3
2017-Jun-22 19:58N 45°33' W 122°42'4082.0
2017-Jun-22 19:29N 46°10' W 123°03'141395.7
2017-Jun-22 19:28N 46°12' W 123°23'1450243.2
2017-Jun-22 19:28N 46°10' W 123°03'211701.2
2017-Jun-22 19:27N 45°52' W 122°48'193480.1
2017-Jun-22 19:27N 45°33' W 122°42'1943.5
2017-Jun-22 19:00N 45°52' W 122°48'321405.6
2017-Jun-22 18:59N 46°12' W 123°23'14930.4
2017-Jun-22 18:58N 46°10' W 123°03'4024026.4
2017-Jun-22 18:58N 45°33' W 122°42'401736.6
2017-Jun-22 18:56N 46°10' W 123°03'0 0.0
2017-Jun-22 18:29N 46°10' W 123°03'141732.6
2017-Jun-22 18:29N 46°12' W 123°23'14797.5
2017-Jun-22 18:28N 46°10' W 123°03'4048059.5
2017-Jun-22 18:28N 45°33' W 122°42'191657.2
2017-Jun-22 18:27N 45°52' W 122°48'0 0.0
2017-Jun-22 18:00N 45°52' W 122°48'3216465.7
2017-Jun-22 18:00N 46°12' W 123°23'493501.8
2017-Jun-22 17:59N 45°33' W 122°42'401801.7
2017-Jun-22 17:58N 46°10' W 123°03'0 0.2
2017-Jun-22 17:56N 46°10' W 123°03'0 0.0
2017-Jun-22 17:29N 46°10' W 123°03'141477.8
2017-Jun-22 17:29N 46°12' W 123°23'14930.4
2017-Jun-22 17:28N 46°10' W 123°03'211562.4
2017-Jun-22 17:27N 45°52' W 122°48'192577.0
2017-Jun-22 17:27N 45°33' W 122°42'4083.6
2017-Jun-22 16:58N 46°10' W 123°03'211701.2
2017-Jun-22 16:57N 45°52' W 122°48'211663.9
2017-Jun-22 16:56N 46°10' W 123°03'141861.0
2017-Jun-22 16:56N 46°12' W 123°23'492652.9
2017-Jun-22 16:55N 45°33' W 122°42'1947.2
2017-Jun-22 16:30N 45°52' W 122°48'213061.5
2017-Jun-22 16:30N 46°10' W 123°03'141732.6
2017-Jun-22 16:29N 46°12' W 123°23'141225.4
2017-Jun-22 16:29N 46°10' W 123°03'404970.3
2017-Jun-22 16:28N 45°33' W 122°42'4086.4
2017-Jun-22 16:00N 46°10' W 123°03'214501.1
2017-Jun-22 16:00N 45°52' W 122°48'325762.3
2017-Jun-22 16:00N 46°12' W 123°23'492967.6
2017-Jun-22 15:59N 45°33' W 122°42'40929.9
2017-Jun-22 15:56N 46°10' W 123°03'0 0.0
2017-Jun-22 15:30N 46°10' W 123°03'214028.3
2017-Jun-22 15:30N 45°52' W 122°48'323842.0
2017-Jun-22 15:30N 46°12' W 123°23'14540.2
2017-Jun-22 15:28N 46°10' W 123°03'4011089.1
2017-Jun-22 15:28N 45°33' W 122°42'4087.0
2017-Jun-22 15:00N 46°10' W 123°03'219569.5
2017-Jun-22 15:00N 45°52' W 122°48'211822.3
2017-Jun-22 14:59N 46°10' W 123°03'141435.6
2017-Jun-22 14:59N 46°12' W 123°23'492918.2
2017-Jun-22 14:58N 45°33' W 122°42'1940.5
2017-Jun-22 14:29N 45°52' W 122°48'322174.7
2017-Jun-22 14:28N 46°12' W 123°23'141004.9
2017-Jun-22 14:28N 46°10' W 123°03'40239.4
2017-Jun-22 14:17N 45°33' W 122°42'4088.9
2017-Jun-22 13:50N 46°10' W 123°03'2162.8
2017-Jun-22 13:30N 45°52' W 122°48'211739.5
2017-Jun-22 13:29N 46°10' W 123°03'141358.0
2017-Jun-22 13:29N 46°12' W 123°23'141004.9
2017-Jun-22 13:28N 46°10' W 123°03'402030.4
2017-Jun-22 13:27N 45°33' W 122°42'4087.9
2017-Jun-22 12:59N 46°10' W 123°03'0 0.4
2017-Jun-22 12:59N 46°10' W 123°03'403203.5
2017-Jun-22 12:58N 45°33' W 122°42'491423.6
2017-Jun-22 12:56N 46°12' W 123°23'321188.2
2017-Jun-22 12:54N 45°52' W 122°48'3280.4
2017-Jun-22 12:30N 46°12' W 123°23'142644.4
2017-Jun-22 12:30N 46°10' W 123°03'0 0.7
2017-Jun-22 12:29N 46°10' W 123°03'401486.0
2017-Jun-22 12:28N 45°33' W 122°42'19312.1
2017-Jun-22 12:24N 45°52' W 122°48'0 0.0
2017-Jun-22 12:00N 45°52' W 122°48'212391.8
2017-Jun-22 12:00N 46°10' W 123°03'141092.4
2017-Jun-22 11:59N 46°12' W 123°23'142184.6
2017-Jun-22 11:58N 46°10' W 123°03'402402.6
2017-Jun-22 11:57N 45°33' W 122°42'1942.4
2017-Jun-22 11:30N 45°52' W 122°48'211391.6
2017-Jun-22 11:29N 46°10' W 123°03'142644.6
2017-Jun-22 11:29N 46°12' W 123°23'142009.7
2017-Jun-22 11:28N 46°10' W 123°03'40364.0
2017-Jun-22 11:22N 45°33' W 122°42'1953.5
2017-Jun-22 11:00N 45°52' W 122°48'211594.1
2017-Jun-22 10:59N 46°10' W 123°03'141732.6
2017-Jun-22 10:59N 46°12' W 123°23'14242.7
2017-Jun-22 10:55N 46°10' W 123°03'404118.8
2017-Jun-22 10:55N 45°33' W 122°42'4094.5
2017-Jun-22 10:29N 46°10' W 123°03'141395.7
2017-Jun-22 10:29N 46°12' W 123°23'141025.4
2017-Jun-22 10:28N 46°10' W 123°03'4011089.1
2017-Jun-22 10:28N 45°33' W 122°42'1991.5
2017-Jun-22 10:15N 45°52' W 122°48'2181.5
2017-Jun-22 09:59N 46°10' W 123°03'141395.7
2017-Jun-22 09:59N 46°12' W 123°23'14948.0
2017-Jun-22 09:58N 46°10' W 123°03'4014415.9
2017-Jun-22 09:58N 45°33' W 122°42'191740.6
2017-Jun-22 09:57N 45°52' W 122°48'2146.3
2017-Jun-22 09:30N 46°10' W 123°03'0 2.7
2017-Jun-22 09:29N 46°10' W 123°03'211594.5
2017-Jun-22 09:29N 45°52' W 122°48'191449.6
2017-Jun-22 09:28N 45°33' W 122°42'49703.2
2017-Jun-22 09:24N 46°12' W 123°23'1436.0
2017-Jun-22 09:00N 46°10' W 123°03'142392.7
2017-Jun-22 09:00N 46°12' W 123°23'141168.5
2017-Jun-22 08:59N 46°10' W 123°03'212551.2
2017-Jun-22 08:59N 45°52' W 122°48'191104.8
2017-Jun-22 08:58N 45°33' W 122°42'49105.8
2017-Jun-22 08:30N 46°12' W 123°23'3223051.9
2017-Jun-22 08:30N 45°52' W 122°48'211867.2
2017-Jun-22 08:30N 46°10' W 123°03'0 7.2
2017-Jun-22 08:29N 46°10' W 123°03'4012009.9
2017-Jun-22 08:29N 45°33' W 122°42'1940.0
2017-Jun-22 08:00N 45°52' W 122°48'215888.9
2017-Jun-22 08:00N 46°10' W 123°03'0 0.7
2017-Jun-22 08:00N 46°10' W 123°03'141395.7
2017-Jun-22 07:59N 46°12' W 123°23'49768.0
2017-Jun-22 07:55N 45°33' W 122°42'4093.8
2017-Jun-22 07:30N 46°10' W 123°03'141322.3
2017-Jun-22 07:29N 46°12' W 123°23'3238415.3
2017-Jun-22 07:29N 45°52' W 122°48'211594.5
2017-Jun-22 07:28N 46°10' W 123°03'40762.7
2017-Jun-22 07:25N 45°33' W 122°42'4094.6
2017-Jun-22 06:59N 46°10' W 123°03'405543.8
2017-Jun-22 06:59N 45°33' W 122°42'4912507.7
2017-Jun-22 06:59N 46°12' W 123°23'141046.7
2017-Jun-22 06:58N 46°10' W 123°03'211472.2
2017-Jun-22 06:57N 45°52' W 122°48'0 0.0
2017-Jun-22 06:30N 45°52' W 122°48'211821.9
2017-Jun-22 06:30N 46°10' W 123°03'141256.2
2017-Jun-22 06:29N 46°12' W 123°23'49416.9
2017-Jun-22 06:22N 45°33' W 122°42'40853.0
2017-Jun-22 06:19N 46°10' W 123°03'1441.6
2017-Jun-22 05:59N 46°12' W 123°23'143588.8
2017-Jun-22 05:59N 46°10' W 123°03'4012011.5
2017-Jun-22 05:58N 45°33' W 122°42'191242.5
2017-Jun-22 05:58N 45°52' W 122°48'211254.7
2017-Jun-22 05:57N 46°10' W 123°03'2148.4
2017-Jun-22 05:30N 45°52' W 122°48'211866.8
2017-Jun-22 05:29N 46°10' W 123°03'4013103.5
2017-Jun-22 05:29N 45°33' W 122°42'496734.2
2017-Jun-22 05:29N 46°12' W 123°23'14153.7
2017-Jun-22 05:23N 46°10' W 123°03'2155.0
2017-Jun-22 05:00N 45°52' W 122°48'216379.7
2017-Jun-22 05:00N 46°10' W 123°03'4012011.5
2017-Jun-22 05:00N 45°33' W 122°42'406550.8
2017-Jun-22 04:59N 46°10' W 123°03'141477.8
2017-Jun-22 04:59N 46°12' W 123°23'3267.0
2017-Jun-22 04:30N 45°52' W 122°48'211663.9
2017-Jun-22 04:29N 46°10' W 123°03'141570.2
2017-Jun-22 04:29N 46°12' W 123°23'49723.5
2017-Jun-22 04:25N 45°33' W 122°42'40858.0
2017-Jun-22 04:22N 46°10' W 123°03'0 0.0
2017-Jun-22 04:00N 46°10' W 123°03'4011089.1
2017-Jun-22 04:00N 45°33' W 122°42'405765.5
2017-Jun-22 03:59N 46°10' W 123°03'213189.1
2017-Jun-22 03:59N 45°52' W 122°48'3219210.0
2017-Jun-22 03:59N 46°12' W 123°23'3266.6
2017-Jun-22 03:30N 45°52' W 122°48'211779.9
2017-Jun-22 03:29N 46°10' W 123°03'141674.9
2017-Jun-22 03:29N 46°12' W 123°23'14215.6
2017-Jun-22 03:25N 46°10' W 123°03'40762.7
2017-Jun-22 03:22N 45°33' W 122°42'40112.2
2017-Jun-22 03:00N 46°10' W 123°03'14507.5
2017-Jun-22 02:59N 46°12' W 123°23'493019.1
2017-Jun-22 02:58N 45°33' W 122°42'19155.4
2017-Jun-22 02:50N 45°52' W 122°48'211417.4
2017-Jun-22 02:49N 46°10' W 123°03'2166.0
2017-Jun-22 02:30N 45°52' W 122°48'211821.9
2017-Jun-22 02:29N 46°10' W 123°03'141395.8
2017-Jun-22 02:29N 46°12' W 123°23'141046.8
2017-Jun-22 02:28N 46°10' W 123°03'4010295.6
2017-Jun-22 02:28N 45°33' W 122°42'1941.9
2017-Jun-22 02:00N 45°52' W 122°48'321477.7
2017-Jun-22 01:59N 46°12' W 123°23'492967.9
2017-Jun-22 01:58N 45°33' W 122°42'40987.2
2017-Jun-22 01:55N 46°10' W 123°03'0 1.0
2017-Jun-22 01:55N 46°10' W 123°03'2151.4
2017-Jun-22 01:30N 45°52' W 122°48'321340.2
2017-Jun-22 01:29N 46°12' W 123°23'141025.4
2017-Jun-22 01:28N 46°10' W 123°03'4016015.4
2017-Jun-22 01:28N 45°33' W 122°42'401286.8
2017-Jun-22 01:26N 46°10' W 123°03'2149.4
2017-Jun-22 01:00N 45°52' W 122°48'321477.7
2017-Jun-22 00:59N 46°12' W 123°23'142955.5
2017-Jun-22 00:59N 46°10' W 123°03'4016017.6
2017-Jun-22 00:58N 45°33' W 122°42'401201.2
2017-Jun-22 00:56N 46°10' W 123°03'2148.5
2017-Jun-22 00:30N 45°52' W 122°48'325239.1
2017-Jun-22 00:30N 46°12' W 123°23'142512.3
2017-Jun-22 00:29N 46°10' W 123°03'0 0.0
2017-Jun-22 00:21N 46°10' W 123°03'40294.2
2017-Jun-22 00:13N 45°33' W 122°42'40190.9
2017-Jun-22 00:00N 46°10' W 123°03'2112759.3
2017-Jun-22 00:00N 45°52' W 122°48'193163.7
2017-Jun-22 00:00N 45°33' W 122°42'493126.9
2017-Jun-21 23:59N 46°12' W 123°23'14353.8
2017-Jun-21 23:56N 46°10' W 123°03'2148.5
2017-Jun-21 23:30N 45°52' W 122°48'211822.3
2017-Jun-21 23:29N 46°10' W 123°03'141477.8
2017-Jun-21 23:29N 46°12' W 123°23'14223.3
2017-Jun-21 23:25N 46°10' W 123°03'40724.4
2017-Jun-21 23:22N 45°33' W 122°42'49127.0
2017-Jun-21 22:59N 46°12' W 123°23'1416748.9
2017-Jun-21 22:59N 46°10' W 123°03'21789.0
2017-Jun-21 22:57N 45°52' W 122°48'192676.2
2017-Jun-21 22:57N 45°33' W 122°42'40514.8
2017-Jun-21 22:52N 46°10' W 123°03'2158.1
2017-Jun-21 22:30N 45°52' W 122°48'211779.9
2017-Jun-21 22:29N 46°10' W 123°03'4010294.2
2017-Jun-21 22:29N 45°33' W 122°42'4910943.1
2017-Jun-21 22:29N 46°12' W 123°23'14221.3
2017-Jun-21 22:25N 46°10' W 123°03'2151.1
2017-Jun-21 22:00N 45°52' W 122°48'32835.2
2017-Jun-21 21:58N 46°12' W 123°23'492501.5
2017-Jun-21 21:57N 45°33' W 122°42'409008.7
2017-Jun-21 21:56N 46°10' W 123°03'0 0.1
2017-Jun-21 21:51N 46°10' W 123°03'2162.0
2017-Jun-21 21:30N 45°52' W 122°48'3219210.0
2017-Jun-21 21:30N 46°12' W 123°23'491471.5
2017-Jun-21 21:28N 45°33' W 122°42'401455.9
2017-Jun-21 21:26N 46°10' W 123°03'0 0.7
2017-Jun-21 21:26N 46°10' W 123°03'0 0.0
2017-Jun-21 21:00N 46°10' W 123°03'409610.6
2017-Jun-21 21:00N 45°33' W 122°42'404367.8
2017-Jun-21 20:59N 46°10' W 123°03'141570.2
2017-Jun-21 20:59N 46°12' W 123°23'321152.6
2017-Jun-21 20:57N 45°52' W 122°48'2146.4
2017-Jun-21 20:30N 46°10' W 123°03'141069.1
2017-Jun-21 20:29N 46°12' W 123°23'141116.5
2017-Jun-21 20:28N 46°10' W 123°03'407586.2
2017-Jun-21 20:28N 45°33' W 122°42'191512.6
2017-Jun-21 20:27N 45°52' W 122°48'2250.0
2017-Jun-21 20:00N 46°10' W 123°06'225328.1
2017-Jun-21 20:00N 45°52' W 122°48'197733.5
2017-Jun-21 20:00N 45°33' W 122°42'49403.5
2017-Jun-21 19:53N 46°12' W 123°23'0 0.0
2017-Jun-21 19:29N 46°12' W 123°23'0 0.0
2017-Jun-21 18:47N 46°12' W 123°23'0 0.0
2017-Jun-21 18:26N 46°12' W 123°23'0 0.0
2017-Jun-21 17:59N 46°12' W 123°23'0 0.0
2017-Jun-21 17:26N 46°12' W 123°23'0 0.0
2017-Jun-21 16:56N 46°12' W 123°23'0 0.0
2017-Jun-21 16:29N 46°12' W 123°23'0 0.0
2017-Jun-21 15:50N 46°12' W 123°23'0 0.0
2017-Jun-21 15:14N 46°12' W 123°23'0 0.0
2017-Jun-21 14:50N 46°12' W 123°23'0 0.0
2017-Jun-21 14:26N 46°12' W 123°23'0 0.0
2017-Jun-21 13:29N 46°12' W 123°23'0 0.0
2017-Jun-21 12:44N 46°12' W 123°23'0 0.0
2017-Jun-21 12:29N 46°12' W 123°23'0 0.0
2017-Jun-21 11:50N 46°12' W 123°23'0 0.0
2017-Jun-21 10:02N 46°12' W 123°23'0 0.0
2017-Jun-21 09:59N 46°12' W 123°23'0 0.0
2017-Jun-21 09:29N 46°12' W 123°23'0 0.0
2017-Jun-21 08:35N 46°12' W 123°23'0 0.0
2017-Jun-21 08:29N 46°12' W 123°23'0 0.0
2017-Jun-21 07:53N 46°12' W 123°23'0 0.0
2017-Jun-21 07:17N 46°12' W 123°23'0 0.0
2017-Jun-21 06:53N 46°12' W 123°23'0 0.0
2017-Jun-21 06:23N 46°12' W 123°23'0 0.0
2017-Jun-21 04:50N 46°12' W 123°23'0 0.0
2017-Jun-21 04:29N 46°12' W 123°23'0 0.0
2017-Jun-21 03:47N 46°12' W 123°23'0 0.0
2017-Jun-21 02:53N 46°12' W 123°23'0 0.0
2017-Jun-21 02:29N 46°12' W 123°23'0 0.0
2017-Jun-21 01:56N 46°12' W 123°23'0 0.0
2017-Jun-21 00:41N 46°12' W 123°23'0 0.0
2017-Jun-21 00:17N 46°12' W 123°23'0 0.0
2017-Jun-20 23:56N 46°12' W 123°23'0 0.0
2017-Jun-20 23:20N 46°12' W 123°23'0 0.0
2017-Jun-20 21:56N 46°12' W 123°23'0 0.0
2017-Jun-20 21:29N 46°12' W 123°23'0 0.0
2017-Jun-20 20:53N 46°12' W 123°23'0 0.0
2017-Jun-20 20:29N 46°12' W 123°23'0 0.0
2017-Jun-20 19:59N 46°12' W 123°23'14239.3
2017-Jun-20 19:55N 46°10' W 123°03'0 0.2
2017-Jun-20 19:54N 46°10' W 123°03'21229.2
2017-Jun-20 19:48N 45°52' W 122°48'2159.4
2017-Jun-20 19:27N 46°10' W 123°03'0 0.3
2017-Jun-20 19:25N 46°10' W 123°03'1441.1
2017-Jun-20 19:05N 46°12' W 123°23'32396.0
2017-Jun-20 19:00N 45°52' W 122°48'212638.6
2017-Jun-20 19:00N 46°10' W 123°03'141046.8
2017-Jun-20 18:59N 46°12' W 123°23'14243.9
2017-Jun-20 18:55N 46°10' W 123°03'2150.5
2017-Jun-20 18:30N 45°52' W 122°48'212639.2
2017-Jun-20 18:30N 46°10' W 123°03'141046.8
2017-Jun-20 18:29N 46°12' W 123°23'1454.0
2017-Jun-20 18:13N 46°10' W 123°03'0 0.0
2017-Jun-20 18:00N 46°10' W 123°03'0 0.3
2017-Jun-20 17:58N 46°10' W 123°03'211034.5
2017-Jun-20 17:57N 45°52' W 122°48'32452.0
2017-Jun-20 17:53N 46°12' W 123°23'3284.4
2017-Jun-20 17:30N 45°52' W 122°48'213061.5
2017-Jun-20 17:30N 46°10' W 123°03'0 0.3
2017-Jun-20 17:28N 46°10' W 123°03'14151.3
2017-Jun-20 17:23N 46°12' W 123°23'1436.2
2017-Jun-20 17:00N 46°10' W 123°03'0 0.3
2017-Jun-20 16:58N 46°10' W 123°03'211020.7
2017-Jun-20 16:57N 45°52' W 122°48'32264.4
2017-Jun-20 16:50N 46°12' W 123°23'0 0.0
2017-Jun-20 16:29N 46°12' W 123°23'141794.4
2017-Jun-20 16:28N 46°10' W 123°03'0 0.2
2017-Jun-20 16:27N 46°10' W 123°03'21500.2
2017-Jun-20 16:24N 45°52' W 122°48'0 0.0
2017-Jun-20 16:00N 45°52' W 122°48'212468.9
2017-Jun-20 16:00N 46°10' W 123°03'141046.8
2017-Jun-20 15:59N 46°12' W 123°23'142009.7
2017-Jun-20 15:58N 46°10' W 123°03'0 0.0
2017-Jun-20 15:30N 46°10' W 123°03'141025.4
2017-Jun-20 15:29N 46°12' W 123°23'141620.7
2017-Jun-20 15:28N 46°10' W 123°03'21176.8
2017-Jun-20 15:21N 45°52' W 122°48'0 0.0
2017-Jun-20 15:00N 45°52' W 122°48'212319.3
2017-Jun-20 15:00N 46°10' W 123°03'0 0.3
2017-Jun-20 14:58N 46°10' W 123°03'14202.6
2017-Jun-20 14:54N 46°12' W 123°23'1432.4
2017-Jun-20 14:28N 46°10' W 123°03'0 0.2
2017-Jun-20 14:27N 46°10' W 123°03'2148.0
2017-Jun-20 14:00N 45°52' W 122°48'32678.0
2017-Jun-20 13:57N 46°12' W 123°23'3270.8
2017-Jun-20 13:30N 45°52' W 122°48'212733.5
2017-Jun-20 13:30N 46°10' W 123°03'14351.4
2017-Jun-20 13:27N 46°12' W 123°23'14465.2
2017-Jun-20 13:25N 46°10' W 123°03'2150.3
2017-Jun-20 13:00N 45°52' W 122°48'32682.0
2017-Jun-20 12:57N 46°12' W 123°23'141358.0
2017-Jun-20 12:57N 46°10' W 123°03'0 0.1
2017-Jun-20 12:52N 46°10' W 123°03'2157.4
2017-Jun-20 12:30N 45°52' W 122°48'212733.5
2017-Jun-20 12:30N 46°10' W 123°03'14351.4
2017-Jun-20 12:27N 46°12' W 123°23'14106.2
2017-Jun-20 12:19N 46°10' W 123°03'2166.3
2017-Jun-20 12:00N 45°52' W 122°48'21722.2
2017-Jun-20 11:58N 46°10' W 123°03'14761.3
2017-Jun-20 11:57N 46°12' W 123°23'14125.9
2017-Jun-20 11:51N 46°10' W 123°03'2162.2
2017-Jun-20 11:30N 45°52' W 122°48'212551.2
2017-Jun-20 11:30N 46°10' W 123°03'0 0.3
2017-Jun-20 11:28N 46°10' W 123°03'14785.0
2017-Jun-20 11:27N 46°12' W 123°23'3270.7
2017-Jun-20 11:00N 45°52' W 122°48'212391.2
2017-Jun-20 11:00N 46°10' W 123°03'0 0.3
2017-Jun-20 10:58N 46°10' W 123°03'14749.9
2017-Jun-20 10:57N 46°12' W 123°23'3270.8
2017-Jun-20 10:30N 45°52' W 122°48'21750.5
2017-Jun-20 10:28N 46°10' W 123°03'14117.1
2017-Jun-20 10:21N 46°12' W 123°23'141522.6
2017-Jun-20 10:21N 46°10' W 123°03'2162.0
2017-Jun-20 10:00N 45°52' W 122°48'21270.4
2017-Jun-20 09:55N 46°10' W 123°03'0 0.1
2017-Jun-20 09:51N 46°10' W 123°03'14155.1
2017-Jun-20 09:45N 46°12' W 123°23'1453.5
2017-Jun-20 09:30N 46°10' W 123°03'14366.8
2017-Jun-20 09:27N 46°12' W 123°23'328232.8
2017-Jun-20 09:27N 45°52' W 122°48'21758.0
2017-Jun-20 09:25N 46°10' W 123°03'2150.4
2017-Jun-20 09:00N 45°52' W 122°48'21750.5
2017-Jun-20 08:58N 46°10' W 123°03'0 0.2
2017-Jun-20 08:57N 46°10' W 123°03'14155.6
2017-Jun-20 08:51N 46°12' W 123°23'3290.8
2017-Jun-20 08:30N 45°52' W 122°48'21369.7
2017-Jun-20 08:27N 46°10' W 123°03'0 0.1
2017-Jun-20 08:19N 46°10' W 123°03'14203.4
2017-Jun-20 08:15N 46°12' W 123°23'32126.7
2017-Jun-20 08:00N 45°52' W 122°48'213644.6
2017-Jun-20 08:00N 46°10' W 123°03'14332.8
2017-Jun-20 07:57N 46°12' W 123°23'14497.5
2017-Jun-20 07:56N 46°10' W 123°03'2150.3
2017-Jun-20 07:30N 45°52' W 122°48'21270.5
2017-Jun-20 07:26N 46°10' W 123°03'14198.6
2017-Jun-20 07:21N 46°12' W 123°23'141288.4
2017-Jun-20 07:21N 46°10' W 123°03'2162.3
2017-Jun-20 07:00N 45°52' W 122°48'32674.0
2017-Jun-20 06:57N 46°12' W 123°23'14452.6
2017-Jun-20 06:55N 46°10' W 123°03'0 0.2
2017-Jun-20 06:54N 46°10' W 123°03'2153.9
2017-Jun-20 06:30N 45°52' W 122°48'21271.4
2017-Jun-20 06:25N 46°10' W 123°03'0 0.1
2017-Jun-20 06:21N 46°10' W 123°03'14156.0
2017-Jun-20 06:15N 46°12' W 123°23'32127.1
2017-Jun-20 06:00N 45°52' W 122°48'212551.2
2017-Jun-20 06:00N 46°10' W 123°03'14356.4
2017-Jun-20 05:57N 46°12' W 123°23'1476.7
2017-Jun-20 05:46N 46°10' W 123°03'0 0.1
2017-Jun-20 05:29N 46°10' W 123°03'21955.8
2017-Jun-20 05:27N 45°52' W 122°48'21360.9
2017-Jun-20 05:24N 46°10' W 123°03'14356.4
2017-Jun-20 05:21N 46°12' W 123°23'1439.0
2017-Jun-20 05:00N 46°10' W 123°03'0 0.2
2017-Jun-20 04:58N 46°10' W 123°03'141256.1
2017-Jun-20 04:57N 46°12' W 123°23'32600.3
2017-Jun-20 04:54N 45°52' W 122°48'0 0.0
2017-Jun-20 04:30N 45°52' W 122°48'21361.0
2017-Jun-20 04:27N 46°10' W 123°03'0 0.2
2017-Jun-20 04:25N 46°10' W 123°03'1466.5
2017-Jun-20 04:12N 46°12' W 123°23'0 0.0
2017-Jun-20 04:00N 46°12' W 123°23'3211526.0
2017-Jun-20 04:00N 45°52' W 122°48'21584.4
2017-Jun-20 03:58N 46°10' W 123°03'0 0.3
2017-Jun-20 03:57N 46°10' W 123°03'2148.1
2017-Jun-20 03:30N 45°52' W 122°48'212551.2
2017-Jun-20 03:30N 46°10' W 123°03'14356.4
2017-Jun-20 03:27N 46°12' W 123°23'14155.6
2017-Jun-20 03:22N 46°10' W 123°03'2158.4
2017-Jun-20 03:00N 45°52' W 122°48'212551.2
2017-Jun-20 03:00N 46°10' W 123°03'0 0.2
2017-Jun-20 02:58N 46°10' W 123°03'141256.1
2017-Jun-20 02:57N 46°12' W 123°23'1426.0
2017-Jun-20 02:25N 46°10' W 123°03'0 0.3
2017-Jun-20 02:24N 46°10' W 123°03'0 0.0
2017-Jun-20 02:00N 46°10' W 123°03'0 0.2
2017-Jun-20 01:58N 46°10' W 123°03'211530.7
2017-Jun-20 01:57N 45°52' W 122°48'32161.0
2017-Jun-20 01:45N 46°12' W 123°23'1448.4
2017-Jun-20 01:28N 46°10' W 123°03'211531.1
2017-Jun-20 01:27N 45°52' W 122°48'21362.7
2017-Jun-20 01:24N 46°10' W 123°03'1458.6
2017-Jun-20 01:09N 46°12' W 123°23'0 0.0
2017-Jun-20 01:00N 46°12' W 123°23'3210478.2
2017-Jun-20 01:00N 45°52' W 122°48'21158.5
2017-Jun-20 00:52N 46°10' W 123°03'0 0.3
2017-Jun-20 00:51N 46°10' W 123°03'0 0.0
2017-Jun-20 00:30N 46°10' W 123°03'0 0.2
2017-Jun-20 00:28N 46°10' W 123°03'2167.3
2017-Jun-20 00:09N 45°52' W 122°48'32336.0
2017-Jun-20 00:03N 46°12' W 123°23'32603.5
2017-Jun-20 00:00N 45°52' W 122°48'21584.4
2017-Jun-19 23:58N 46°10' W 123°03'141225.4
2017-Jun-19 23:57N 46°12' W 123°23'14124.7
2017-Jun-19 23:51N 46°10' W 123°03'2162.3
2017-Jun-19 23:30N 45°52' W 122°48'212551.2
2017-Jun-19 23:30N 46°10' W 123°03'0 0.1
2017-Jun-19 23:25N 46°10' W 123°03'2151.7
2017-Jun-19 23:00N 45°52' W 122°48'212551.2
2017-Jun-19 23:00N 46°10' W 123°03'0 0.2
2017-Jun-19 22:58N 46°10' W 123°03'1433.9
2017-Jun-19 22:33N 46°12' W 123°23'32600.3
2017-Jun-19 22:30N 45°52' W 122°48'212551.2
2017-Jun-19 22:30N 46°10' W 123°03'14356.4
2017-Jun-19 22:27N 46°12' W 123°23'14161.0
2017-Jun-19 22:22N 46°10' W 123°03'0 0.0
2017-Jun-19 22:00N 46°10' W 123°03'21506.9
2017-Jun-19 21:57N 45°52' W 122°48'21584.4
2017-Jun-19 21:55N 46°10' W 123°03'14227.3
2017-Jun-19 21:51N 46°12' W 123°23'3290.8
2017-Jun-19 21:30N 45°52' W 122°48'212551.2
2017-Jun-19 21:30N 46°10' W 123°03'0 0.3
2017-Jun-19 21:29N 46°10' W 123°03'14707.7
2017-Jun-19 21:27N 46°12' W 123°23'3270.7
2017-Jun-19 21:00N 45°52' W 122°48'212468.9
2017-Jun-19 21:00N 46°10' W 123°03'14358.9
2017-Jun-19 20:57N 46°12' W 123°23'14177.5
2017-Jun-19 20:53N 46°10' W 123°03'2156.8
2017-Jun-19 20:30N 45°52' W 122°48'213644.6
2017-Jun-19 20:30N 46°10' W 123°03'0 0.3
2017-Jun-19 20:29N 46°10' W 123°03'2145.0
2017-Jun-19 20:00N 45°52' W 122°48'212551.2
2017-Jun-19 20:00N 46°10' W 123°03'0 0.0
2017-Jun-19 19:50N 46°10' W 123°03'1443.7
2017-Jun-19 19:30N 46°12' W 123°23'141288.4
2017-Jun-19 19:30N 46°10' W 123°03'0 0.2
2017-Jun-19 19:28N 46°10' W 123°03'211275.9
2017-Jun-19 19:27N 45°52' W 122°48'0 0.0
2017-Jun-19 19:00N 45°52' W 122°48'212551.2
2017-Jun-19 19:00N 46°10' W 123°03'0 0.2
2017-Jun-19 18:58N 46°10' W 123°03'1427.2
2017-Jun-19 18:27N 46°12' W 123°23'328866.1
2017-Jun-19 18:27N 45°52' W 122°48'21251.0
2017-Jun-19 18:22N 46°10' W 123°03'0 0.3
2017-Jun-19 18:21N 46°10' W 123°03'0 0.0
2017-Jun-19 18:00N 46°10' W 123°03'21506.9
2017-Jun-19 17:57N 45°52' W 122°48'32332.2
2017-Jun-19 17:51N 46°12' W 123°23'14369.4
2017-Jun-19 17:49N 46°10' W 123°03'2167.6
2017-Jun-19 17:30N 45°52' W 122°48'212319.3
2017-Jun-19 17:30N 46°10' W 123°03'0 0.2
2017-Jun-19 17:28N 46°10' W 123°03'141069.0
2017-Jun-19 17:27N 46°12' W 123°23'0 0.0
2017-Jun-19 17:00N 46°12' W 123°23'3211526.0
2017-Jun-19 17:00N 45°52' W 122°48'21369.7
2017-Jun-19 16:57N 46°10' W 123°03'0 0.1
2017-Jun-19 16:52N 46°10' W 123°03'0 0.0
2017-Jun-19 16:28N 46°10' W 123°03'0 0.1
2017-Jun-19 16:24N 46°10' W 123°03'21149.5
2017-Jun-19 16:15N 45°52' W 122°48'32686.0
2017-Jun-19 16:12N 46°12' W 123°23'0 0.0
2017-Jun-19 15:57N 46°12' W 123°23'141477.8
2017-Jun-19 15:57N 46°10' W 123°03'0 0.2
2017-Jun-19 15:55N 46°10' W 123°03'211319.9
2017-Jun-19 15:54N 45°52' W 122°48'0 0.0
2017-Jun-19 15:30N 45°52' W 122°48'212732.8
2017-Jun-19 15:30N 46°10' W 123°03'0 0.2
2017-Jun-19 15:28N 46°10' W 123°03'1453.2
2017-Jun-19 15:12N 46°12' W 123°23'32157.9
2017-Jun-19 15:00N 45°52' W 122°48'212391.8
2017-Jun-19 15:00N 46°10' W 123°03'14356.4
2017-Jun-19 14:57N 46°12' W 123°23'14161.6
2017-Jun-19 14:52N 46°10' W 123°03'2158.0
2017-Jun-19 14:30N 45°52' W 122°48'32686.1
2017-Jun-19 14:27N 46°12' W 123°23'14161.0
2017-Jun-19 14:22N 46°10' W 123°03'0 0.0
2017-Jun-19 13:57N 46°10' W 123°03'0 0.0
2017-Jun-19 13:30N 46°10' W 123°03'14353.8
2017-Jun-19 13:27N 46°12' W 123°23'3212806.6
2017-Jun-19 13:27N 45°52' W 122°48'21254.3
2017-Jun-19 13:22N 46°10' W 123°03'1438.6
2017-Jun-19 13:00N 46°12' W 123°23'328232.8
2017-Jun-19 13:00N 45°52' W 122°48'212551.2
2017-Jun-19 13:00N 46°10' W 123°03'0 0.0
2017-Jun-19 12:46N 46°10' W 123°03'1453.3
2017-Jun-19 12:30N 46°12' W 123°23'327684.0
2017-Jun-19 12:30N 45°52' W 122°48'212551.2
2017-Jun-19 12:30N 46°10' W 123°03'0 0.2
2017-Jun-19 12:28N 46°10' W 123°03'1430.1
2017-Jun-19 12:00N 46°12' W 123°23'141225.5
2017-Jun-19 12:00N 46°10' W 123°03'0 0.2
2017-Jun-19 11:58N 46°10' W 123°03'211255.0
2017-Jun-19 11:57N 45°52' W 122°48'1981.1
2017-Jun-19 11:43N 45°33' W 122°42'49233.1
2017-Jun-19 11:30N 46°12' W 123°23'3210476.9
2017-Jun-19 11:30N 45°52' W 122°48'212732.8
2017-Jun-19 11:30N 46°10' W 123°03'0 0.2
2017-Jun-19 11:28N 46°10' W 123°03'2145.5
2017-Jun-19 11:00N 45°52' W 122°48'21637.8
2017-Jun-19 10:58N 46°10' W 123°03'0 0.2
2017-Jun-19 10:57N 46°10' W 123°03'1473.8
2017-Jun-19 10:45N 46°12' W 123°23'0 0.0
2017-Jun-19 10:30N 46°12' W 123°23'329605.0
2017-Jun-19 10:30N 45°52' W 122°48'21648.8
2017-Jun-19 10:28N 46°10' W 123°03'0 0.0
2017-Jun-19 10:15N 46°10' W 123°03'2187.7
2017-Jun-19 10:00N 45°52' W 122°48'21643.2
2017-Jun-19 09:58N 46°10' W 123°03'14966.2
2017-Jun-19 09:57N 46°12' W 123°23'14392.6
2017-Jun-19 09:55N 46°10' W 123°03'1433.7
2017-Jun-19 09:30N 46°12' W 123°23'3216467.6
2017-Jun-19 09:30N 45°52' W 122°48'21622.4
2017-Jun-19 09:28N 46°10' W 123°03'021.6
2017-Jun-19 09:28N 46°10' W 123°03'40258.8
2017-Jun-19 09:19N 45°33' W 122°42'1962.0
2017-Jun-19 09:00N 45°52' W 122°48'21654.2
2017-Jun-19 08:58N 46°10' W 123°03'141004.9
2017-Jun-19 08:57N 46°12' W 123°23'14389.5
2017-Jun-19 08:55N 46°10' W 123°03'2150.9
2017-Jun-19 08:30N 45°52' W 122°48'21654.3
2017-Jun-19 08:28N 46°10' W 123°03'14948.0
2017-Jun-19 08:27N 46°12' W 123°23'14392.6
2017-Jun-19 08:25N 46°10' W 123°03'1433.7
2017-Jun-19 08:00N 46°12' W 123°23'14386.5
2017-Jun-19 07:58N 46°10' W 123°03'0 0.1
2017-Jun-19 07:55N 46°10' W 123°03'211297.6
2017-Jun-19 07:54N 45°52' W 122°48'19218.1
2017-Jun-19 07:49N 45°33' W 122°42'40116.2
2017-Jun-19 07:28N 46°10' W 123°03'14948.0
2017-Jun-19 07:27N 46°12' W 123°23'3214407.5
2017-Jun-19 07:27N 45°52' W 122°48'21256.9
2017-Jun-19 07:22N 46°10' W 123°03'40257.9
2017-Jun-19 07:13N 45°33' W 122°42'1991.3
2017-Jun-19 07:00N 45°52' W 122°48'21632.5
2017-Jun-19 06:58N 46°10' W 123°03'141004.9
2017-Jun-19 06:57N 46°12' W 123°23'14392.6
2017-Jun-19 06:55N 46°10' W 123°03'40194.5
2017-Jun-19 06:43N 45°33' W 122°42'1991.4
2017-Jun-19 06:30N 45°52' W 122°48'21659.8
2017-Jun-19 06:28N 46°10' W 123°03'0 0.1
2017-Jun-19 06:25N 46°10' W 123°03'14217.5
2017-Jun-19 06:21N 46°12' W 123°23'1432.1
2017-Jun-19 05:55N 46°10' W 123°03'010.8
2017-Jun-19 05:55N 46°10' W 123°03'211297.6
2017-Jun-19 05:54N 45°52' W 122°48'32129.4
2017-Jun-19 05:39N 46°12' W 123°23'32209.5
2017-Jun-19 05:30N 45°52' W 122°48'21648.6
2017-Jun-19 05:28N 46°10' W 123°03'0 0.1
2017-Jun-19 05:25N 46°10' W 123°03'408007.7
2017-Jun-19 05:25N 45°33' W 122°42'49304.5
2017-Jun-19 05:15N 46°12' W 123°23'1448.8
2017-Jun-19 04:58N 46°10' W 123°03'141004.9
2017-Jun-19 04:57N 46°12' W 123°23'14401.9
2017-Jun-19 04:55N 46°10' W 123°03'21313.8
2017-Jun-19 04:51N 45°52' W 122°48'0 0.0
2017-Jun-19 04:30N 45°52' W 122°48'21654.3
2017-Jun-19 04:28N 46°10' W 123°03'14948.0
2017-Jun-19 04:27N 46°12' W 123°23'1448.8
2017-Jun-19 04:10N 46°10' W 123°03'40728.0
2017-Jun-19 04:07N 45°33' W 122°42'19174.0
2017-Jun-19 04:00N 45°52' W 122°48'21627.4
2017-Jun-19 03:58N 46°10' W 123°03'141069.1
2017-Jun-19 03:57N 46°12' W 123°23'14103.0
2017-Jun-19 03:49N 46°10' W 123°03'2166.9
2017-Jun-19 03:30N 45°52' W 122°48'21671.5
2017-Jun-19 03:28N 46°10' W 123°03'14897.2
2017-Jun-19 03:27N 46°12' W 123°23'14389.5
2017-Jun-19 03:25N 46°10' W 123°03'0 0.0
2017-Jun-19 02:58N 46°10' W 123°03'0 7.2
2017-Jun-19 02:58N 46°10' W 123°03'14985.2
2017-Jun-19 02:57N 46°12' W 123°23'32158.1
2017-Jun-19 02:45N 45°52' W 122°48'2175.1
2017-Jun-19 02:28N 46°10' W 123°03'21316.2
2017-Jun-19 02:24N 45°52' W 122°48'21671.4
2017-Jun-19 02:22N 46°10' W 123°03'1444.2
2017-Jun-19 02:03N 46°12' W 123°23'14103.8
2017-Jun-19 01:55N 46°10' W 123°03'0 7.2
2017-Jun-19 01:55N 46°10' W 123°03'14221.4
2017-Jun-19 01:51N 46°12' W 123°23'32594.1
2017-Jun-19 01:48N 45°52' W 122°48'0 0.0
2017-Jun-19 01:30N 45°52' W 122°48'21665.7
2017-Jun-19 01:28N 46°10' W 123°03'14913.5
2017-Jun-19 01:27N 46°12' W 123°23'14389.5
2017-Jun-19 01:25N 46°10' W 123°03'2151.0
2017-Jun-19 01:00N 45°52' W 122°48'21890.2
2017-Jun-19 00:59N 46°10' W 123°03'0 0.7
2017-Jun-19 00:58N 46°10' W 123°03'141004.9
2017-Jun-19 00:57N 46°12' W 123°23'0 0.0
2017-Jun-19 00:30N 46°12' W 123°23'3211526.0
2017-Jun-19 00:30N 45°52' W 122°48'21880.0
2017-Jun-19 00:29N 46°10' W 123°03'0 0.6
2017-Jun-19 00:28N 46°10' W 123°03'2145.6
2017-Jun-19 00:00N 45°52' W 122°48'21870.0
2017-Jun-18 23:59N 46°10' W 123°03'0 0.0
2017-Jun-18 23:49N 46°10' W 123°03'0 0.0
2017-Jun-18 23:29N 46°10' W 123°03'0 0.6
2017-Jun-18 23:28N 46°10' W 123°03'211319.6
2017-Jun-18 23:27N 45°52' W 122°48'32327.4
2017-Jun-18 23:21N 46°12' W 123°23'3290.7
2017-Jun-18 23:00N 45°52' W 122°48'21671.4
2017-Jun-18 22:58N 46°10' W 123°03'0 5.4
2017-Jun-18 22:58N 46°10' W 123°03'1465.3
2017-Jun-18 22:45N 46°12' W 123°23'32126.2
2017-Jun-18 22:30N 45°52' W 122°48'21671.4
2017-Jun-18 22:28N 46°10' W 123°03'0 5.4
2017-Jun-18 22:28N 46°10' W 123°03'14985.2
2017-Jun-18 22:27N 46°12' W 123°23'3270.7
2017-Jun-18 22:00N 45°52' W 122°48'21161.4
2017-Jun-18 21:52N 46°10' W 123°03'0 0.1
2017-Jun-18 21:49N 46°10' W 123°03'2167.0
2017-Jun-18 21:30N 45°52' W 122°48'21648.6
2017-Jun-18 21:28N 46°10' W 123°03'0 0.1
2017-Jun-18 21:25N 46°10' W 123°03'14211.1
2017-Jun-18 21:21N 46°12' W 123°23'0 0.0
2017-Jun-18 21:00N 46°12' W 123°23'3212806.6
2017-Jun-18 21:00N 45°52' W 122°48'21260.4
2017-Jun-18 20:55N 46°10' W 123°03'010.8
2017-Jun-18 20:55N 46°10' W 123°03'2150.9
2017-Jun-18 20:30N 45°52' W 122°48'21689.7
2017-Jun-18 20:28N 46°10' W 123°03'14851.6
2017-Jun-18 20:27N 46°12' W 123°23'14392.6
2017-Jun-18 20:25N 46°10' W 123°03'1433.7
2017-Jun-18 20:00N 46°12' W 123°23'14534.5
2017-Jun-18 19:59N 46°10' W 123°03'0 0.6
2017-Jun-18 19:58N 46°10' W 123°03'211234.5
2017-Jun-18 19:57N 45°52' W 122°48'0 0.0
2017-Jun-18 19:30N 45°52' W 122°48'21632.4
2017-Jun-18 19:28N 46°10' W 123°03'0 0.1
2017-Jun-18 19:25N 46°10' W 123°03'14211.1
2017-Jun-18 19:21N 46°12' W 123°23'1436.4
2017-Jun-18 18:58N 46°10' W 123°03'0 2.7
2017-Jun-18 18:58N 46°10' W 123°03'141004.9
2017-Jun-18 18:57N 46°12' W 123°23'3211526.0
2017-Jun-18 18:57N 45°52' W 122°48'0 0.0
2017-Jun-18 18:30N 45°52' W 122°48'32678.0
2017-Jun-18 18:27N 46°12' W 123°23'14392.6
2017-Jun-18 18:25N 46°10' W 123°03'0 0.0
2017-Jun-18 18:16N 46°10' W 123°03'1452.6
2017-Jun-18 18:00N 46°12' W 123°23'328232.8
2017-Jun-18 18:00N 45°52' W 122°48'21262.2
2017-Jun-18 17:55N 46°10' W 123°03'0 5.4
2017-Jun-18 17:55N 46°10' W 123°03'2151.0
2017-Jun-18 17:30N 45°52' W 122°48'32690.2
2017-Jun-18 17:27N 46°12' W 123°23'14383.6
2017-Jun-18 17:25N 46°10' W 123°03'0 0.1
2017-Jun-18 17:22N 46°10' W 123°03'2157.6
2017-Jun-18 17:00N 45°52' W 122°48'21671.5
2017-Jun-18 16:58N 46°10' W 123°03'0 0.1
2017-Jun-18 16:55N 46°10' W 123°03'14219.4
2017-Jun-18 16:51N 46°12' W 123°23'3291.0
2017-Jun-18 16:30N 45°52' W 122°48'21665.7
2017-Jun-18 16:28N 46°10' W 123°03'0 3.1
2017-Jun-18 16:28N 46°10' W 123°03'14985.2
2017-Jun-18 16:27N 46°12' W 123°23'3270.7
2017-Jun-18 16:00N 45°52' W 122°48'21648.6
2017-Jun-18 15:58N 46°10' W 123°03'14966.3
2017-Jun-18 15:57N 46°12' W 123°23'14422.2
2017-Jun-18 15:55N 46°10' W 123°03'0 0.0
2017-Jun-18 15:28N 46°10' W 123°03'211093.7
2017-Jun-18 15:27N 45°52' W 122°48'21632.5
2017-Jun-18 15:25N 46°10' W 123°03'14966.3
2017-Jun-18 15:24N 46°12' W 123°23'0 0.0
2017-Jun-18 15:00N 46°12' W 123°23'14386.5
2017-Jun-18 14:58N 46°10' W 123°03'0 0.1
2017-Jun-18 14:55N 46°10' W 123°03'21125.7
2017-Jun-18 14:45N 45°52' W 122°48'3242.8
2017-Jun-18 14:00N 46°12' W 123°23'3211526.0
2017-Jun-18 14:00N 45°52' W 122°48'21702.3
2017-Jun-18 13:58N 46°10' W 123°03'0 2.0
2017-Jun-18 13:58N 46°10' W 123°03'1430.1
2017-Jun-18 13:30N 46°12' W 123°23'3212806.6
2017-Jun-18 13:30N 45°52' W 122°48'21265.8
2017-Jun-18 13:25N 46°10' W 123°03'0 0.1
2017-Jun-18 13:22N 46°10' W 123°03'1438.2
2017-Jun-18 13:00N 46°12' W 123°23'3212806.6
2017-Jun-18 13:00N 45°52' W 122°48'21689.7
2017-Jun-18 12:58N 46°10' W 123°03'0 0.1
2017-Jun-18 12:55N 46°10' W 123°03'0 0.0
2017-Jun-18 12:28N 46°10' W 123°03'0 0.1
2017-Jun-18 12:25N 46°10' W 123°03'141116.6
2017-Jun-18 12:24N 46°12' W 123°23'32594.1
2017-Jun-18 12:21N 45°52' W 122°48'3292.1
2017-Jun-18 12:00N 46°12' W 123°23'14425.8
2017-Jun-18 11:58N 46°10' W 123°03'021.6
2017-Jun-18 11:58N 46°10' W 123°03'21304.9
2017-Jun-18 11:54N 45°52' W 122°48'2149.5
2017-Jun-18 11:28N 46°10' W 123°03'0 0.1
2017-Jun-18 11:25N 46°10' W 123°03'1465.4
2017-Jun-18 11:12N 46°12' W 123°23'32594.1
2017-Jun-18 11:09N 45°52' W 122°48'32218.3
2017-Jun-18 11:00N 46°12' W 123°23'3212806.6
2017-Jun-18 11:00N 45°52' W 122°48'21708.9
2017-Jun-18 10:58N 46°10' W 123°03'0 1.7
2017-Jun-18 10:58N 46°10' W 123°03'1430.1
2017-Jun-18 10:30N 46°12' W 123°23'3210479.4
2017-Jun-18 10:30N 45°52' W 122°48'21643.2
2017-Jun-18 10:28N 46°10' W 123°03'0 0.0
2017-Jun-18 10:16N 46°10' W 123°03'1452.2
2017-Jun-18 10:00N 46°12' W 123°23'3210476.9
2017-Jun-18 10:00N 45°52' W 122°48'21648.5
2017-Jun-18 09:58N 46°10' W 123°03'0 0.1
2017-Jun-18 09:55N 46°10' W 123°03'2150.7
2017-Jun-18 09:30N 45°52' W 122°48'21266.7
2017-Jun-18 09:25N 46°10' W 123°03'0 2.2
2017-Jun-18 09:25N 46°10' W 123°03'1438.3
2017-Jun-18 09:03N 46°12' W 123°23'32609.8
2017-Jun-18 09:00N 45°52' W 122°48'32670.1
2017-Jun-18 08:57N 46°12' W 123°23'14429.4
2017-Jun-18 08:55N 46°10' W 123°03'0 1.8
2017-Jun-18 08:55N 46°10' W 123°03'0 0.0
2017-Jun-18 08:28N 46°10' W 123°03'14761.3
2017-Jun-18 08:27N 46°12' W 123°23'32609.8
2017-Jun-18 08:24N 45°52' W 122°48'21134.3
2017-Jun-18 08:15N 46°10' W 123°03'1458.5
2017-Jun-18 08:00N 46°12' W 123°23'329603.8
2017-Jun-18 08:00N 45°52' W 122°48'212834.0
2017-Jun-18 08:00N 46°10' W 123°03'0 0.3
2017-Jun-18 07:58N 46°10' W 123°03'2145.2
2017-Jun-18 07:30N 45°52' W 122°48'212638.6
2017-Jun-18 07:30N 46°10' W 123°03'0 0.3
2017-Jun-18 07:28N 46°10' W 123°03'14749.9
2017-Jun-18 07:27N 46°12' W 123°23'3270.8
2017-Jun-18 07:00N 45°52' W 122°48'212551.2
2017-Jun-18 07:00N 46°10' W 123°03'0 0.3
2017-Jun-18 06:58N 46°10' W 123°03'1452.1
2017-Jun-18 06:42N 46°12' W 123°23'0 0.0
2017-Jun-18 06:30N 46°12' W 123°23'3214405.7
2017-Jun-18 06:30N 45°52' W 122°48'212732.8
2017-Jun-18 06:30N 46°10' W 123°03'0 0.0
2017-Jun-18 06:16N 46°10' W 123°03'0 0.0
2017-Jun-18 05:58N 46°10' W 123°03'211034.5
2017-Jun-18 05:57N 45°52' W 122°48'32678.0
2017-Jun-18 05:54N 46°12' W 123°23'141322.3
2017-Jun-18 05:54N 46°10' W 123°03'2154.2
2017-Jun-18 05:30N 45°52' W 122°48'212551.2
2017-Jun-18 05:30N 46°10' W 123°03'0 0.3
2017-Jun-18 05:28N 46°10' W 123°03'14797.5
2017-Jun-18 05:27N 46°12' W 123°23'1429.0
2017-Jun-18 04:58N 46°10' W 123°03'14761.3
2017-Jun-18 04:57N 46°12' W 123°23'3212806.6
2017-Jun-18 04:57N 45°52' W 122°48'21364.5
2017-Jun-18 04:54N 46°10' W 123°03'0 0.0
2017-Jun-18 04:30N 46°10' W 123°03'0 0.3
2017-Jun-18 04:28N 46°10' W 123°03'21295.6
2017-Jun-18 04:24N 45°52' W 122°48'32108.0
2017-Jun-18 04:06N 46°12' W 123°23'14125.3
2017-Jun-18 04:00N 46°10' W 123°03'0 0.3
2017-Jun-18 03:58N 46°10' W 123°03'21994.2
2017-Jun-18 03:57N 45°52' W 122°48'32108.0
2017-Jun-18 03:39N 46°12' W 123°23'1453.5
2017-Jun-18 03:24N 46°10' W 123°03'0 0.0
2017-Jun-18 03:16N 46°10' W 123°03'0 0.0
2017-Jun-18 03:00N 46°10' W 123°03'0 0.3
2017-Jun-18 02:58N 46°10' W 123°03'14118.2
2017-Jun-18 02:51N 46°12' W 123°23'3290.6
2017-Jun-18 02:30N 45°52' W 122°48'212551.2
2017-Jun-18 02:30N 46°10' W 123°03'0 0.1
2017-Jun-18 02:25N 46°10' W 123°03'14202.6
2017-Jun-18 02:21N 46°12' W 123°23'1436.7
2017-Jun-18 01:58N 46°10' W 123°03'14707.7
2017-Jun-18 01:57N 46°12' W 123°23'3216465.7
2017-Jun-18 01:57N 45°52' W 122°48'212391.8
2017-Jun-18 01:57N 46°10' W 123°03'0 0.0
2017-Jun-18 01:30N 46°10' W 123°03'0 0.3
2017-Jun-18 01:28N 46°10' W 123°03'14749.9
2017-Jun-18 01:27N 46°12' W 123°23'3210478.2
2017-Jun-18 01:27N 45°52' W 122°48'3271.5
2017-Jun-18 01:00N 46°12' W 123°23'3214407.5
2017-Jun-18 01:00N 45°52' W 122°48'21743.3
2017-Jun-18 00:58N 46°10' W 123°03'0 0.0
2017-Jun-18 00:51N 46°10' W 123°03'2154.2
2017-Jun-18 00:27N 45°52' W 122°48'212733.5
2017-Jun-18 00:27N 46°10' W 123°03'0 0.3
2017-Jun-18 00:25N 46°10' W 123°03'1482.5
2017-Jun-18 00:15N 46°12' W 123°23'1449.7
2017-Jun-17 23:58N 46°10' W 123°03'14749.9
2017-Jun-17 23:57N 46°12' W 123°23'3211526.0
2017-Jun-17 23:57N 45°52' W 122°48'21366.2
2017-Jun-17 23:54N 46°10' W 123°03'2154.2
2017-Jun-17 23:30N 45°52' W 122°48'212639.2
2017-Jun-17 23:30N 46°10' W 123°03'0 0.3
2017-Jun-17 23:28N 46°10' W 123°03'14204.2
2017-Jun-17 23:24N 46°12' W 123°23'0 0.0
2017-Jun-17 23:00N 46°12' W 123°23'326780.0
2017-Jun-17 23:00N 45°52' W 122°48'21366.2
2017-Jun-17 22:57N 46°10' W 123°03'0 0.3
2017-Jun-17 22:55N 46°10' W 123°03'2150.5
2017-Jun-17 22:30N 45°52' W 122°48'21765.6
2017-Jun-17 22:28N 46°10' W 123°03'14697.9
2017-Jun-17 22:27N 46°12' W 123°23'141288.5
2017-Jun-17 22:27N 46°10' W 123°03'0 0.0
2017-Jun-17 22:00N 46°10' W 123°03'0 2.1
2017-Jun-17 21:58N 46°10' W 123°03'21293.0
2017-Jun-17 21:54N 45°52' W 122°48'32674.0
2017-Jun-17 21:51N 46°12' W 123°23'3290.9
2017-Jun-17 21:30N 45°52' W 122°48'212639.2
2017-Jun-17 21:30N 46°10' W 123°03'0 0.1
2017-Jun-17 21:23N 46°10' W 123°03'2155.9
2017-Jun-17 21:00N 45°52' W 122°48'212639.2
2017-Jun-17 21:00N 46°10' W 123°03'0 0.1
2017-Jun-17 20:53N 46°10' W 123°03'14108.5
2017-Jun-17 20:45N 46°12' W 123°23'32126.8
2017-Jun-17 20:30N 45°52' W 122°48'212551.2
2017-Jun-17 20:30N 46°10' W 123°03'0 0.5
2017-Jun-17 20:29N 46°10' W 123°03'14507.5
2017-Jun-17 20:27N 46°12' W 123°23'1430.3
2017-Jun-17 20:00N 46°10' W 123°03'14356.4
2017-Jun-17 19:57N 46°12' W 123°23'329606.1
2017-Jun-17 19:57N 45°52' W 122°48'21125.5
2017-Jun-17 19:47N 46°10' W 123°03'2175.9
2017-Jun-17 19:30N 45°52' W 122°48'211093.7
2017-Jun-17 19:29N 46°10' W 123°03'0 0.0
2017-Jun-17 19:21N 46°10' W 123°03'14154.6
2017-Jun-17 19:15N 46°12' W 123°23'1453.7
2017-Jun-17 19:00N 46°10' W 123°03'0 0.6
2017-Jun-17 18:59N 46°10' W 123°03'21677.5
2017-Jun-17 18:57N 45°52' W 122°48'32328.4
2017-Jun-17 18:51N 46°12' W 123°23'1438.7
2017-Jun-17 18:30N 46°10' W 123°03'14348.9
2017-Jun-17 18:27N 46°12' W 123°23'3219207.6
2017-Jun-17 18:27N 45°52' W 122°48'21814.2
2017-Jun-17 18:26N 46°10' W 123°03'2150.1
2017-Jun-17 18:00N 45°52' W 122°48'21797.5
2017-Jun-17 17:58N 46°10' W 123°03'0 0.1
2017-Jun-17 17:54N 46°10' W 123°03'2154.2
2017-Jun-17 17:30N 45°52' W 122°48'212834.7
2017-Jun-17 17:30N 46°10' W 123°03'0 0.3
2017-Jun-17 17:28N 46°10' W 123°03'1463.6
2017-Jun-17 17:15N 46°12' W 123°23'32126.7
2017-Jun-17 17:00N 45°52' W 122°48'21758.0
2017-Jun-17 16:58N 46°10' W 123°03'14717.8
2017-Jun-17 16:57N 46°12' W 123°23'141256.2
2017-Jun-17 16:57N 46°10' W 123°03'0 0.0
2017-Jun-17 16:30N 46°10' W 123°03'21520.7
2017-Jun-17 16:27N 45°52' W 122°48'21273.4
2017-Jun-17 16:22N 46°10' W 123°03'14116.0
2017-Jun-17 16:15N 46°12' W 123°23'1449.9
2017-Jun-17 15:58N 46°10' W 123°03'145582.6
2017-Jun-17 15:58N 46°12' W 123°23'14478.5
2017-Jun-17 15:57N 46°10' W 123°03'21524.2
2017-Jun-17 15:54N 45°52' W 122°48'0 0.0
2017-Jun-17 15:30N 45°52' W 122°48'212943.7
2017-Jun-17 15:30N 46°10' W 123°03'14256.4
2017-Jun-17 15:26N 46°12' W 123°23'14121.4
2017-Jun-17 15:19N 46°10' W 123°03'2165.9
2017-Jun-17 15:00N 45°52' W 122°48'212639.2
2017-Jun-17 15:00N 46°10' W 123°03'0 0.3
2017-Jun-17 14:59N 46°10' W 123°03'14401.9
2017-Jun-17 14:56N 46°12' W 123°23'3273.0
2017-Jun-17 14:30N 45°52' W 122°48'212639.2
2017-Jun-17 14:30N 46°10' W 123°03'1427.7
2017-Jun-17 13:59N 46°12' W 123°23'14120.8
2017-Jun-17 13:52N 46°10' W 123°03'1436.2
2017-Jun-17 13:29N 46°12' W 123°23'14930.4
2017-Jun-17 13:28N 46°10' W 123°03'0 0.2
2017-Jun-17 13:27N 46°10' W 123°03'2188.2
2017-Jun-17 13:12N 45°52' W 122°48'0 0.0
2017-Jun-17 13:00N 45°52' W 122°48'21797.5
2017-Jun-17 12:58N 46°10' W 123°03'0 0.1
2017-Jun-17 12:54N 46°10' W 123°03'14257.7
2017-Jun-17 12:50N 46°12' W 123°23'0 0.0
2017-Jun-17 12:29N 46°12' W 123°23'32841.3
2017-Jun-17 12:27N 45°52' W 122°48'21789.2
2017-Jun-17 12:25N 46°10' W 123°03'0 0.2
2017-Jun-17 12:24N 46°10' W 123°03'0 0.0
2017-Jun-17 11:59N 46°10' W 123°03'0 0.2
2017-Jun-17 11:57N 46°10' W 123°03'21149.2
2017-Jun-17 11:48N 45°52' W 122°48'32512.3
2017-Jun-17 11:44N 46°12' W 123°23'32134.8
2017-Jun-17 11:30N 45°52' W 122°48'212733.5
2017-Jun-17 11:30N 46°10' W 123°03'142791.5
2017-Jun-17 11:29N 46°12' W 123°23'14123.1
2017-Jun-17 11:23N 46°10' W 123°03'2156.9
2017-Jun-17 11:00N 45°52' W 122°48'21368.0
2017-Jun-17 10:57N 46°10' W 123°03'14259.0
2017-Jun-17 10:53N 46°12' W 123°23'14966.3
2017-Jun-17 10:53N 46°10' W 123°03'0 0.0
2017-Jun-17 10:30N 46°10' W 123°03'0 0.3
2017-Jun-17 10:29N 46°10' W 123°03'21911.4
2017-Jun-17 10:27N 45°52' W 122°48'322619.5
2017-Jun-17 10:26N 46°12' W 123°23'3273.2
2017-Jun-17 10:00N 45°52' W 122°48'322401.2
2017-Jun-17 09:59N 46°12' W 123°23'14123.1
2017-Jun-17 09:53N 46°10' W 123°03'0 0.2
2017-Jun-17 09:51N 46°10' W 123°03'0 0.0
2017-Jun-17 09:30N 46°10' W 123°03'142791.5
2017-Jun-17 09:29N 46°12' W 123°23'141025.4
2017-Jun-17 09:29N 46°10' W 123°03'21290.0
2017-Jun-17 09:24N 45°52' W 122°48'0 0.0
2017-Jun-17 09:00N 45°52' W 122°48'21797.5
2017-Jun-17 08:59N 46°10' W 123°03'0 0.0
2017-Jun-17 08:51N 46°10' W 123°03'1454.9
2017-Jun-17 08:35N 46°12' W 123°23'14121.9
2017-Jun-17 08:29N 46°10' W 123°03'21900.7
2017-Jun-17 08:27N 45°52' W 122°48'32510.1
2017-Jun-17 08:23N 46°12' W 123°23'14312.1
2017-Jun-17 08:21N 46°10' W 123°03'2162.0
2017-Jun-17 08:00N 45°52' W 122°48'212639.2
2017-Jun-17 08:00N 46°10' W 123°03'0 0.3
2017-Jun-17 07:59N 46°10' W 123°03'14380.6
2017-Jun-17 07:56N 46°12' W 123°23'0 0.0
2017-Jun-17 07:29N 46°12' W 123°23'32835.1
2017-Jun-17 07:27N 45°52' W 122°48'21831.9
2017-Jun-17 07:26N 46°10' W 123°03'0 0.1
2017-Jun-17 07:21N 46°10' W 123°03'1439.5
2017-Jun-17 06:59N 46°12' W 123°23'32847.5
2017-Jun-17 06:57N 45°52' W 122°48'212551.2
2017-Jun-17 06:57N 46°10' W 123°03'0 0.1
2017-Jun-17 06:53N 46°10' W 123°03'2156.8
2017-Jun-17 06:30N 45°52' W 122°48'322619.2
2017-Jun-17 06:29N 46°12' W 123°23'141025.4
2017-Jun-17 06:29N 46°10' W 123°03'0 0.1
2017-Jun-17 06:24N 46°10' W 123°03'2154.1
2017-Jun-17 06:00N 45°52' W 122°48'212834.7
2017-Jun-17 06:00N 46°10' W 123°03'142791.5
2017-Jun-17 05:59N 46°12' W 123°23'141168.4
2017-Jun-17 05:59N 46°10' W 123°03'0 0.0
2017-Jun-17 05:30N 46°10' W 123°03'0 0.3
2017-Jun-17 05:29N 46°10' W 123°03'21170.9
2017-Jun-17 05:21N 45°52' W 122°48'32516.9
2017-Jun-17 05:17N 46°12' W 123°23'1447.3
2017-Jun-17 05:00N 46°10' W 123°03'142644.6
2017-Jun-17 04:59N 46°12' W 123°23'32860.1
2017-Jun-17 04:57N 45°52' W 122°48'21832.1
2017-Jun-17 04:56N 46°10' W 123°03'0 0.0
2017-Jun-17 04:30N 46°10' W 123°03'0 0.3
2017-Jun-17 04:29N 46°10' W 123°03'21121.9
2017-Jun-17 04:18N 45°52' W 122°48'322452.3
2017-Jun-17 04:17N 46°12' W 123°23'1447.4
2017-Jun-17 04:00N 46°10' W 123°03'142955.7
2017-Jun-17 03:59N 46°12' W 123°23'141069.0
2017-Jun-17 03:59N 46°10' W 123°03'21286.7
2017-Jun-17 03:54N 45°52' W 122°48'0 0.0
2017-Jun-17 03:30N 45°52' W 122°48'212733.5
2017-Jun-17 03:30N 46°10' W 123°03'0 0.3
2017-Jun-17 03:29N 46°10' W 123°03'1474.9
2017-Jun-17 03:17N 46°12' W 123°23'1444.6
2017-Jun-17 02:59N 46°10' W 123°03'0 0.2
2017-Jun-17 02:57N 46°10' W 123°03'21503.4
2017-Jun-17 02:54N 45°52' W 122°48'32283.9
2017-Jun-17 02:47N 46°12' W 123°23'32111.3
2017-Jun-17 02:30N 45°52' W 122°48'212733.5
2017-Jun-17 02:30N 46°10' W 123°03'143589.0
2017-Jun-17 02:29N 46°12' W 123°23'141092.2
2017-Jun-17 02:29N 46°10' W 123°03'2144.7
2017-Jun-17 02:00N 45°52' W 122°48'212551.2
2017-Jun-17 02:00N 46°10' W 123°03'143865.1
2017-Jun-17 01:59N 46°12' W 123°23'141069.0
2017-Jun-17 01:59N 46°10' W 123°03'1428.7
2017-Jun-17 01:29N 46°12' W 123°23'141004.9
2017-Jun-17 01:29N 46°10' W 123°03'0 0.1
2017-Jun-17 01:24N 46°10' W 123°03'0 0.0
2017-Jun-17 01:00N 46°10' W 123°03'0 0.1
2017-Jun-17 00:56N 46°10' W 123°03'2194.2
2017-Jun-17 00:42N 45°52' W 122°48'322744.3
2017-Jun-17 00:41N 46°12' W 123°23'32170.5
2017-Jun-17 00:30N 45°52' W 122°48'322561.3
2017-Jun-17 00:29N 46°12' W 123°23'141119.8
2017-Jun-17 00:29N 46°10' W 123°03'0 0.5
2017-Jun-17 00:24N 46°10' W 123°03'2154.2
2017-Jun-17 00:00N 45°52' W 122°48'322561.3
2017-Jun-16 23:59N 46°12' W 123°23'141196.3
2017-Jun-16 23:59N 46°10' W 123°03'0 0.1
2017-Jun-16 23:54N 46°10' W 123°03'2154.2
2017-Jun-16 23:30N 45°52' W 122°48'212639.2
2017-Jun-16 23:30N 46°10' W 123°03'142955.7
2017-Jun-16 23:29N 46°12' W 123°23'141141.9
2017-Jun-16 23:29N 46°10' W 123°03'2144.8
2017-Jun-16 23:00N 45°52' W 122°48'21170.1
2017-Jun-16 22:53N 46°10' W 123°03'14369.4
2017-Jun-16 22:50N 46°12' W 123°23'14308.3
2017-Jun-16 22:48N 46°10' W 123°03'0 0.0
2017-Jun-16 22:30N 46°10' W 123°03'142955.7
2017-Jun-16 22:29N 46°12' W 123°23'1486.2
2017-Jun-16 22:20N 46°10' W 123°03'21832.1
2017-Jun-16 22:18N 45°52' W 122°48'2169.0
2017-Jun-16 22:00N 46°10' W 123°03'143865.1
2017-Jun-16 21:59N 46°12' W 123°23'14222.3
2017-Jun-16 21:56N 46°10' W 123°03'21284.6
2017-Jun-16 21:51N 45°52' W 122°48'0 0.0
2017-Jun-16 21:30N 45°52' W 122°48'212943.7
2017-Jun-16 21:30N 46°10' W 123°03'142512.3
2017-Jun-16 21:29N 46°12' W 123°23'141256.1
2017-Jun-16 21:29N 46°10' W 123°03'1428.6
2017-Jun-16 20:59N 46°12' W 123°23'14304.5
2017-Jun-16 20:57N 46°10' W 123°03'0 0.4
2017-Jun-16 20:56N 46°10' W 123°03'21169.0
2017-Jun-16 20:48N 45°52' W 122°48'0 0.0
2017-Jun-16 20:30N 45°52' W 122°48'212733.5
2017-Jun-16 20:30N 46°10' W 123°03'143140.4
2017-Jun-16 20:29N 46°12' W 123°23'141196.3
2017-Jun-16 20:29N 46°10' W 123°03'40109.9
2017-Jun-16 20:07N 45°33' W 122°42'19174.9
2017-Jun-16 20:00N 45°52' W 122°48'322505.6
2017-Jun-16 19:59N 46°12' W 123°23'141168.4
2017-Jun-16 19:59N 46°10' W 123°03'0 0.2
2017-Jun-16 19:57N 46°10' W 123°03'401322.4
2017-Jun-16 19:55N 45°33' W 122°42'4095.4
2017-Jun-16 19:30N 46°10' W 123°03'143349.8
2017-Jun-16 19:29N 46°12' W 123°23'1465.9
2017-Jun-16 19:17N 46°10' W 123°03'0 0.0
2017-Jun-16 18:59N 46°10' W 123°03'14377.8
2017-Jun-16 18:56N 46°12' W 123°23'14304.5
2017-Jun-16 18:54N 46°10' W 123°03'2172.6
2017-Jun-16 18:36N 45°52' W 122°48'0 0.0
2017-Jun-16 18:30N 45°52' W 122°48'212551.2
2017-Jun-16 18:30N 46°10' W 123°03'14257.7
2017-Jun-16 18:26N 46°12' W 123°23'14224.3
2017-Jun-16 18:23N 46°10' W 123°03'40244.8
2017-Jun-16 18:13N 45°33' W 122°42'49221.7
2017-Jun-16 18:00N 46°12' W 123°23'14279.1
2017-Jun-16 17:57N 46°10' W 123°03'21110.4
2017-Jun-16 17:45N 45°52' W 122°48'19500.6
2017-Jun-16 17:43N 45°33' W 122°42'40477.3
2017-Jun-16 17:38N 46°10' W 123°03'21167.2
2017-Jun-16 17:30N 45°52' W 122°48'19218.8
2017-Jun-16 17:25N 45°33' W 122°42'402058.8
2017-Jun-16 17:24N 46°10' W 123°03'143140.4
2017-Jun-16 17:23N 46°12' W 123°23'141196.3
2017-Jun-16 17:23N 46°10' W 123°03'2156.5
2017-Jun-16 17:00N 45°52' W 122°48'21890.2
2017-Jun-16 16:59N 46°10' W 123°03'0 0.2
2017-Jun-16 16:57N 46°10' W 123°03'401334.4
2017-Jun-16 16:55N 45°33' W 122°42'492035.9
2017-Jun-16 16:53N 46°12' W 123°23'3282.7
2017-Jun-16 16:30N 45°52' W 122°48'212391.8
2017-Jun-16 16:30N 46°10' W 123°03'143865.1
2017-Jun-16 16:29N 46°12' W 123°23'14225.3
2017-Jun-16 16:26N 46°10' W 123°03'40349.9
2017-Jun-16 16:19N 45°33' W 122°42'40125.4
2017-Jun-16 16:00N 46°10' W 123°03'142955.7
2017-Jun-16 15:59N 46°12' W 123°23'32367.1
2017-Jun-16 15:54N 45°52' W 122°48'21900.7
2017-Jun-16 15:53N 46°10' W 123°03'40616.1
2017-Jun-16 15:49N 45°33' W 122°42'1962.0
2017-Jun-16 15:30N 45°52' W 122°48'213060.7
2017-Jun-16 15:30N 46°10' W 123°03'14253.8
2017-Jun-16 15:26N 46°12' W 123°23'49385.7
2017-Jun-16 15:19N 45°33' W 122°42'40468.0
2017-Jun-16 15:14N 46°10' W 123°03'2193.9
2017-Jun-16 15:00N 45°52' W 122°48'212834.7
2017-Jun-16 15:00N 46°10' W 123°03'142644.6
2017-Jun-16 14:59N 46°12' W 123°23'141395.6
2017-Jun-16 14:59N 46°10' W 123°03'40151.1
2017-Jun-16 14:43N 45°33' W 122°42'40181.7
2017-Jun-16 14:30N 46°10' W 123°03'0 0.1
2017-Jun-16 14:26N 46°10' W 123°03'21279.4
2017-Jun-16 14:21N 45°52' W 122°48'3269.3
2017-Jun-16 13:53N 46°12' W 123°23'49636.8
2017-Jun-16 13:49N 45°33' W 122°42'1962.0
2017-Jun-16 13:30N 45°52' W 122°48'212733.5
2017-Jun-16 13:30N 46°10' W 123°03'40497.0
2017-Jun-16 13:25N 45°33' W 122°42'492012.7
2017-Jun-16 13:23N 46°12' W 123°23'141395.6
2017-Jun-16 13:23N 46°10' W 123°03'2156.3
2017-Jun-16 13:00N 45°52' W 122°48'212834.7
2017-Jun-16 13:00N 46°10' W 123°03'142644.6
2017-Jun-16 12:59N 46°12' W 123°23'141322.2
2017-Jun-16 12:59N 46°10' W 123°03'40242.7
2017-Jun-16 12:49N 45°33' W 122°42'1962.1
2017-Jun-16 12:30N 45°52' W 122°48'212551.2
2017-Jun-16 12:30N 46°10' W 123°03'142955.7
2017-Jun-16 12:29N 46°12' W 123°23'14230.5
2017-Jun-16 12:26N 46°10' W 123°03'40347.3
2017-Jun-16 12:19N 45°33' W 122°42'1962.1
2017-Jun-16 12:00N 45°52' W 122°48'21900.7
2017-Jun-16 11:59N 46°10' W 123°03'0 0.2
2017-Jun-16 11:57N 46°10' W 123°03'143349.8
2017-Jun-16 11:56N 46°12' W 123°23'491843.1
2017-Jun-16 11:55N 45°33' W 122°42'1947.0
2017-Jun-16 11:30N 45°52' W 122°48'212834.7
2017-Jun-16 11:30N 46°10' W 123°03'0 0.4
2017-Jun-16 11:29N 46°10' W 123°03'1458.3
2017-Jun-16 11:14N 46°12' W 123°23'491862.7
2017-Jun-16 11:13N 45°33' W 122°42'40182.2
2017-Jun-16 11:00N 46°10' W 123°03'142955.7
2017-Jun-16 10:59N 46°12' W 123°23'32866.5
2017-Jun-16 10:57N 45°52' W 122°48'21922.1
2017-Jun-16 10:56N 46°10' W 123°03'402772.3
2017-Jun-16 10:55N 45°33' W 122°42'1946.9
2017-Jun-16 10:30N 45°52' W 122°48'212468.9
2017-Jun-16 10:30N 46°10' W 123°03'0 0.4
2017-Jun-16 10:29N 46°10' W 123°03'40610.8
2017-Jun-16 10:25N 45°33' W 122°42'492012.7
2017-Jun-16 10:23N 46°12' W 123°23'0 0.0
2017-Jun-16 09:59N 46°12' W 123°23'141477.7
2017-Jun-16 09:59N 46°10' W 123°03'21765.6
2017-Jun-16 09:57N 45°52' W 122°48'212834.7
2017-Jun-16 09:57N 46°10' W 123°03'40120.9
2017-Jun-16 09:37N 45°33' W 122°42'19173.6
2017-Jun-16 09:30N 45°52' W 122°48'21945.1
2017-Jun-16 09:29N 46°10' W 123°03'0 0.2
2017-Jun-16 09:27N 46°10' W 123°03'401310.2
2017-Jun-16 09:25N 45°33' W 122°42'492012.5
2017-Jun-16 09:23N 46°12' W 123°23'1435.3
2017-Jun-16 09:00N 46°10' W 123°03'142955.7
2017-Jun-16 08:59N 46°12' W 123°23'32866.6
2017-Jun-16 08:57N 45°52' W 122°48'21292.2
2017-Jun-16 08:53N 46°10' W 123°03'40241.9
2017-Jun-16 08:43N 45°33' W 122°42'1991.1
2017-Jun-16 08:30N 45°52' W 122°48'212551.2
2017-Jun-16 08:30N 46°10' W 123°03'14257.7
2017-Jun-16 08:26N 46°12' W 123°23'141395.7
2017-Jun-16 08:26N 46°10' W 123°03'402573.9
2017-Jun-16 08:25N 45°33' W 122°42'1947.0
2017-Jun-16 08:00N 45°52' W 122°48'21981.5
2017-Jun-16 07:59N 46°10' W 123°03'0 0.2
2017-Jun-16 07:57N 46°10' W 123°03'401287.0
2017-Jun-16 07:55N 45°33' W 122°42'492084.6
2017-Jun-16 07:53N 46°12' W 123°23'3282.4
2017-Jun-16 07:30N 45°52' W 122°48'212834.7
2017-Jun-16 07:30N 46°10' W 123°03'0 0.4
2017-Jun-16 07:29N 46°10' W 123°03'40608.3
2017-Jun-16 07:25N 45°33' W 122°42'49216.7
2017-Jun-16 07:11N 46°12' W 123°23'32171.0
2017-Jun-16 07:00N 45°52' W 122°48'322680.5
2017-Jun-16 06:59N 46°12' W 123°23'141357.9
2017-Jun-16 06:59N 46°10' W 123°03'0 0.2
2017-Jun-16 06:57N 46°10' W 123°03'40121.4
2017-Jun-16 06:37N 45°33' W 122°42'19172.3
2017-Jun-16 06:30N 45°52' W 122°48'212943.7
2017-Jun-16 06:30N 46°10' W 123°03'142644.6
2017-Jun-16 06:29N 46°12' W 123°23'141477.7
2017-Jun-16 06:29N 46°10' W 123°03'40603.1
2017-Jun-16 06:25N 45°33' W 122°42'1947.0
2017-Jun-16 06:00N 45°52' W 122°48'212733.5
2017-Jun-16 06:00N 46°10' W 123°03'0 0.4
2017-Jun-16 05:59N 46°10' W 123°03'14154.1
2017-Jun-16 05:53N 46°12' W 123°23'49641.4
2017-Jun-16 05:49N 45°33' W 122°42'40125.3
2017-Jun-16 05:30N 46°10' W 123°03'0 0.4
2017-Jun-16 05:29N 46°10' W 123°03'21743.3
2017-Jun-16 05:27N 45°52' W 122°48'322881.5
2017-Jun-16 05:26N 46°12' W 123°23'49383.2
2017-Jun-16 05:19N 45°33' W 122°42'40108.5
2017-Jun-16 04:57N 46°10' W 123°03'0 1.0
2017-Jun-16 04:56N 46°10' W 123°03'401583.9
2017-Jun-16 04:55N 45°33' W 122°42'491989.7
2017-Jun-16 04:53N 46°12' W 123°23'32369.4
2017-Jun-16 04:48N 45°52' W 122°48'0 0.0
2017-Jun-16 04:30N 45°52' W 122°48'212391.8
2017-Jun-16 04:30N 46°10' W 123°03'0 1.1
2017-Jun-16 04:29N 46°10' W 123°03'14292.1
2017-Jun-16 04:26N 46°12' W 123°23'491824.0
2017-Jun-16 04:25N 45°33' W 122°42'4094.1
2017-Jun-16 03:59N 46°10' W 123°03'0 0.1
2017-Jun-16 03:57N 46°10' W 123°03'21510.1
2017-Jun-16 03:54N 45°52' W 122°48'32503.3
2017-Jun-16 03:50N 46°12' W 123°23'1440.5
2017-Jun-16 03:30N 46°10' W 123°03'142512.3
2017-Jun-16 03:29N 46°12' W 123°23'1416747.7
2017-Jun-16 03:29N 46°10' W 123°03'21593.5
2017-Jun-16 03:27N 45°52' W 122°48'1957.0
2017-Jun-16 03:07N 45°33' W 122°42'19173.5
2017-Jun-16 03:00N 45°52' W 122°48'212639.2
2017-Jun-16 03:00N 46°10' W 123°03'0 1.1
2017-Jun-16 02:59N 46°10' W 123°03'40531.9
2017-Jun-16 02:55N 45°33' W 122°42'492035.9
2017-Jun-16 02:53N 46°12' W 123°23'1434.9
2017-Jun-16 02:29N 46°10' W 123°03'21558.7
2017-Jun-16 02:27N 45°52' W 122°48'212732.8
2017-Jun-16 02:27N 46°10' W 123°03'144187.2
2017-Jun-16 02:26N 46°12' W 123°23'491843.1
2017-Jun-16 02:25N 45°33' W 122°42'1946.9
2017-Jun-16 02:00N 45°52' W 122°48'212639.2
2017-Jun-16 02:00N 46°10' W 123°03'0 0.1
2017-Jun-16 01:56N 46°10' W 123°03'401566.7
2017-Jun-16 01:55N 45°33' W 122°42'49280.1
2017-Jun-16 01:44N 46°12' W 123°23'32135.0
2017-Jun-16 01:30N 45°52' W 122°48'212551.2
2017-Jun-16 01:30N 46°10' W 123°03'142791.5
2017-Jun-16 01:29N 46°12' W 123°23'14138.8
2017-Jun-16 01:23N 46°10' W 123°03'40532.0
2017-Jun-16 01:19N 45°33' W 122°42'1962.1
2017-Jun-16 01:00N 45°52' W 122°48'211531.1
2017-Jun-16 00:59N 46°10' W 123°03'0 0.1
2017-Jun-16 00:57N 46°10' W 123°03'401322.4
2017-Jun-16 00:55N 45°33' W 122°42'492135.5
2017-Jun-16 00:53N 46°12' W 123°23'1431.2
2017-Jun-16 00:27N 46°10' W 123°03'144187.2
2017-Jun-16 00:26N 46°12' W 123°23'148373.9
2017-Jun-16 00:26N 46°10' W 123°03'401619.5
2017-Jun-16 00:25N 45°33' W 122°42'19172.7
2017-Jun-16 00:18N 45°52' W 122°48'0 0.0
2017-Jun-16 00:00N 45°52' W 122°48'322619.5
2017-Jun-15 23:59N 46°12' W 123°23'14312.1
2017-Jun-15 23:57N 46°10' W 123°03'401287.0
2017-Jun-15 23:55N 45°33' W 122°42'401619.8
2017-Jun-15 23:53N 46°10' W 123°03'2155.0
2017-Jun-15 23:30N 45°52' W 122°48'212733.5
2017-Jun-15 23:30N 46°10' W 123°03'14256.4
2017-Jun-15 23:26N 46°12' W 123°23'1425121.6
2017-Jun-15 23:26N 46°10' W 123°03'40317.5
2017-Jun-15 23:19N 45°33' W 122°42'1962.1
2017-Jun-15 23:00N 45°52' W 122°48'322452.0
2017-Jun-15 22:59N 46°12' W 123°23'14279.1
2017-Jun-15 22:56N 46°10' W 123°03'401584.2
2017-Jun-15 22:55N 45°33' W 122°42'40567.5
2017-Jun-15 22:51N 46°10' W 123°03'2162.3
2017-Jun-15 22:30N 45°52' W 122°48'211664.3
2017-Jun-15 22:29N 46°10' W 123°03'14282.3
2017-Jun-15 22:26N 46°12' W 123°23'14302.7
2017-Jun-15 22:24N 46°10' W 123°03'40497.0
2017-Jun-15 22:19N 45°33' W 122°42'1962.0
2017-Jun-15 22:00N 45°52' W 122°48'212834.7
2017-Jun-15 22:00N 46°10' W 123°03'143349.8
2017-Jun-15 21:59N 46°12' W 123°23'1416747.7
2017-Jun-15 21:59N 46°10' W 123°03'40228.1
2017-Jun-15 21:49N 45°33' W 122°42'1962.0
2017-Jun-15 21:30N 45°52' W 122°48'19218.9
2017-Jun-15 21:25N 45°33' W 122°42'402059.1
2017-Jun-15 21:24N 46°10' W 123°03'143589.0
2017-Jun-15 21:23N 46°12' W 123°23'14276.1
2017-Jun-15 21:20N 46°10' W 123°03'2163.0
2017-Jun-15 21:00N 45°52' W 122°48'212943.7
2017-Jun-15 21:00N 46°10' W 123°03'0 0.1
2017-Jun-15 20:56N 46°10' W 123°03'14279.1
2017-Jun-15 20:53N 46°12' W 123°23'0 0.0
2017-Jun-15 20:29N 46°12' W 123°23'1412561.6
2017-Jun-15 20:29N 46°10' W 123°03'21243.0
2017-Jun-15 20:24N 45°52' W 122°48'21368.0
2017-Jun-15 20:21N 46°10' W 123°03'0 0.0
2017-Jun-15 20:00N 46°10' W 123°03'142955.7
2017-Jun-15 19:59N 46°12' W 123°23'32853.8
2017-Jun-15 19:57N 45°52' W 122°48'21343.3
2017-Jun-15 19:53N 46°10' W 123°03'40106.4
2017-Jun-15 19:31N 45°33' W 122°42'476300.0
2017-Jun-15 19:30N 46°11' W 123°22'317882.4
2017-Jun-15 19:30N 45°52' W 122°48'212468.9
2017-Jun-15 19:30N 46°10' W 123°03'0 1.4
2017-Jun-15 19:29N 46°10' W 123°03'40145.2
2017-Jun-15 19:13N 45°33' W 122°42'1991.5
2017-Jun-15 19:00N 45°52' W 122°48'212733.5
2017-Jun-15 19:00N 46°10' W 123°03'9444.0
2017-Jun-15 18:58N 46°09' W 123°16'9250.2
2017-Jun-15 18:56N 46°10' W 123°03'40317.5
2017-Jun-15 18:49N 45°33' W 122°42'45147.4
2017-Jun-15 18:30N 46°09' W 123°22'295216.5
2017-Jun-15 18:30N 45°52' W 122°48'212551.2
2017-Jun-15 18:30N 46°10' W 123°03'0 0.1
2017-Jun-15 18:26N 46°10' W 123°03'40176.9
2017-Jun-15 18:13N 45°33' W 122°42'51237.7
2017-Jun-15 18:00N 46°14' W 123°26'163617.2
2017-Jun-15 18:00N 46°10' W 123°03'0 1.1
2017-Jun-15 17:59N 46°10' W 123°03'21154.3
2017-Jun-15 17:51N 45°52' W 122°48'19141.2
2017-Jun-15 17:43N 45°33' W 122°42'40181.1
2017-Jun-15 17:30N 46°10' W 123°03'0 0.5
2017-Jun-15 17:29N 46°10' W 123°03'191303.6
2017-Jun-15 17:28N 46°16' W 123°29'372404.1
2017-Jun-15 17:27N 45°52' W 122°48'0 0.0
2017-Jun-15 17:00N 45°52' W 122°48'212834.7
2017-Jun-15 17:00N 46°10' W 123°03'181870.1
2017-Jun-15 16:59N 46°16' W 123°27'18172.8
2017-Jun-15 16:53N 46°10' W 123°03'2155.9
2017-Jun-15 16:30N 45°52' W 122°48'377065.1
2017-Jun-15 16:30N 46°15' W 123°29'191255.5
2017-Jun-15 16:29N 46°10' W 123°03'0 0.1
2017-Jun-15 16:24N 46°10' W 123°03'0 0.0
2017-Jun-15 16:00N 46°10' W 123°03'21510.2
2017-Jun-15 15:57N 45°52' W 122°48'321440.7
2017-Jun-15 15:56N 46°12' W 123°23'14288.8
2017-Jun-15 15:53N 46°10' W 123°03'2156.0
2017-Jun-15 15:30N 45°52' W 122°48'212638.6
2017-Jun-15 15:30N 46°10' W 123°03'0 0.5
2017-Jun-15 15:29N 46°10' W 123°03'14265.8
2017-Jun-15 15:26N 46°12' W 123°23'3274.9
2017-Jun-15 15:00N 45°52' W 122°48'212733.5
2017-Jun-15 15:00N 46°10' W 123°03'0 0.5
2017-Jun-15 14:59N 46°10' W 123°03'148373.9
2017-Jun-15 14:59N 46°12' W 123°23'3267.0
2017-Jun-15 14:30N 45°52' W 122°48'21368.0
2017-Jun-15 14:27N 46°10' W 123°03'0 0.5
2017-Jun-15 14:26N 46°10' W 123°03'1430.8
2017-Jun-15 13:59N 46°12' W 123°23'1428.7
2017-Jun-15 13:30N 46°10' W 123°03'0 0.5
2017-Jun-15 13:29N 46°10' W 123°03'145582.6
2017-Jun-15 13:29N 46°12' W 123°23'321152.6
2017-Jun-15 13:27N 45°52' W 122°48'2146.5
2017-Jun-15 13:00N 46°10' W 123°03'21503.5
2017-Jun-15 12:57N 45°52' W 122°48'21308.7
2017-Jun-15 12:53N 46°10' W 123°03'144186.9
2017-Jun-15 12:53N 46°12' W 123°23'3284.8
2017-Jun-15 12:30N 45°52' W 122°48'212391.8
2017-Jun-15 12:30N 46°10' W 123°03'0 0.1
2017-Jun-15 12:26N 46°10' W 123°03'14137.3
2017-Jun-15 12:20N 46°12' W 123°23'3297.3
2017-Jun-15 12:00N 45°52' W 122°48'212733.5
2017-Jun-15 12:00N 46°10' W 123°03'0 0.5
2017-Jun-15 11:59N 46°10' W 123°03'14135.4
2017-Jun-15 11:53N 46°12' W 123°23'3285.1
2017-Jun-15 11:30N 45°52' W 122°48'212550.6
2017-Jun-15 11:30N 46°10' W 123°03'0 0.1
2017-Jun-15 11:26N 46°10' W 123°03'1410048.6
2017-Jun-15 11:26N 46°12' W 123°23'3274.5
2017-Jun-15 11:00N 45°52' W 122°48'212733.5
2017-Jun-15 11:00N 46°10' W 123°03'0 0.6
2017-Jun-15 10:59N 46°10' W 123°03'144186.9
2017-Jun-15 10:59N 46°12' W 123°23'3266.9
2017-Jun-15 10:30N 45°52' W 122°48'212834.7
2017-Jun-15 10:30N 46°10' W 123°03'0 0.5
2017-Jun-15 10:29N 46°10' W 123°03'14263.1
2017-Jun-15 10:26N 46°12' W 123°23'3274.9
2017-Jun-15 10:00N 45°52' W 122°48'213061.5
2017-Jun-15 10:00N 46°10' W 123°03'14213.8
2017-Jun-15 09:56N 46°12' W 123°23'14144.4
2017-Jun-15 09:50N 46°10' W 123°03'2164.2
2017-Jun-15 09:30N 45°52' W 122°48'211159.9
2017-Jun-15 09:29N 46°10' W 123°03'143864.9
2017-Jun-15 09:29N 46°12' W 123°23'14386.5
2017-Jun-15 09:27N 46°10' W 123°03'2148.1
2017-Jun-15 09:00N 45°52' W 122°48'213061.5
2017-Jun-15 09:00N 46°10' W 123°03'0 0.1
2017-Jun-15 08:56N 46°10' W 123°03'143588.8
2017-Jun-15 08:56N 46°12' W 123°23'3274.9
2017-Jun-15 08:30N 45°52' W 122°48'211159.7
2017-Jun-15 08:29N 46°10' W 123°03'144187.5
2017-Jun-15 08:29N 46°12' W 123°23'14162.6
2017-Jun-15 08:24N 46°10' W 123°03'2154.2
2017-Jun-15 08:00N 45°52' W 122°48'212733.5
2017-Jun-15 08:00N 46°10' W 123°03'0 0.5
2017-Jun-15 07:59N 46°10' W 123°03'145582.6
2017-Jun-15 07:59N 46°12' W 123°23'1428.7
2017-Jun-15 07:30N 46°10' W 123°03'0 0.5
2017-Jun-15 07:29N 46°10' W 123°03'21689.5
2017-Jun-15 07:27N 45°52' W 122°48'321477.5
2017-Jun-15 07:26N 46°12' W 123°23'3274.7
2017-Jun-15 07:00N 45°52' W 122°48'212834.7
2017-Jun-15 07:00N 46°10' W 123°03'0 0.6
2017-Jun-15 06:59N 46°10' W 123°03'1468.6
2017-Jun-15 06:47N 46°12' W 123°23'1447.0
2017-Jun-15 06:29N 46°10' W 123°03'145024.3
2017-Jun-15 06:29N 46°12' W 123°23'321108.3
2017-Jun-15 06:27N 45°52' W 122°48'212551.2
2017-Jun-15 06:27N 46°10' W 123°03'2148.2
2017-Jun-15 06:00N 45°52' W 122°48'212391.8
2017-Jun-15 06:00N 46°10' W 123°03'0 0.6
2017-Jun-15 05:59N 46°10' W 123°03'14261.7
2017-Jun-15 05:56N 46°12' W 123°23'3274.7
2017-Jun-15 05:30N 45°52' W 122°48'212834.7
2017-Jun-15 05:30N 46°10' W 123°03'0 0.3
2017-Jun-15 05:29N 46°10' W 123°03'14146.9
2017-Jun-15 05:23N 46°12' W 123°23'1434.4
2017-Jun-15 04:58N 46°10' W 123°03'0 0.2
2017-Jun-15 04:57N 46°10' W 123°03'21513.7
2017-Jun-15 04:54N 45°52' W 122°48'2146.5
2017-Jun-15 04:27N 46°10' W 123°03'0 0.3
2017-Jun-15 04:26N 46°10' W 123°03'21287.8
2017-Jun-15 04:21N 45°52' W 122°48'32144.8
2017-Jun-15 04:08N 46°12' W 123°23'14103.2
2017-Jun-15 04:00N 46°10' W 123°03'21487.5
2017-Jun-15 03:57N 45°52' W 122°48'21789.2
2017-Jun-15 03:55N 46°10' W 123°03'1496.3
2017-Jun-15 03:47N 46°12' W 123°23'1448.9
2017-Jun-15 03:30N 46°10' W 123°03'14913.6
2017-Jun-15 03:29N 46°12' W 123°23'143349.5
2017-Jun-15 03:28N 46°10' W 123°03'2165.8
2017-Jun-15 03:09N 45°52' W 122°48'0 0.0
2017-Jun-15 02:57N 45°52' W 122°48'212733.5
2017-Jun-15 02:57N 46°10' W 123°03'14120.8
2017-Jun-15 02:50N 46°12' W 123°23'1490.9
2017-Jun-15 02:41N 46°10' W 123°03'21122.5
2017-Jun-15 02:30N 45°52' W 122°48'21805.9
2017-Jun-15 02:29N 46°10' W 123°03'0 0.2
2017-Jun-15 02:27N 46°10' W 123°03'1444.4
2017-Jun-15 02:08N 46°12' W 123°23'32250.0
2017-Jun-15 02:00N 45°52' W 122°48'212834.0
2017-Jun-15 02:00N 46°10' W 123°03'0 0.3
2017-Jun-15 01:59N 46°10' W 123°03'14144.8
2017-Jun-15 01:53N 46°12' W 123°23'1436.1
2017-Jun-15 01:30N 46°10' W 123°03'0 0.3
2017-Jun-15 01:29N 46°10' W 123°03'21890.2
2017-Jun-15 01:27N 45°52' W 122°48'32443.3
2017-Jun-15 01:23N 46°12' W 123°23'1436.2
2017-Jun-15 01:00N 46°10' W 123°03'0 0.0
2017-Jun-15 00:41N 46°10' W 123°03'21283.5
2017-Jun-15 00:36N 45°52' W 122°48'21168.3
2017-Jun-15 00:29N 46°10' W 123°03'21900.7
2017-Jun-15 00:27N 45°52' W 122°48'212639.2
2017-Jun-15 00:27N 46°10' W 123°03'14930.5
2017-Jun-15 00:26N 46°12' W 123°23'3274.9
2017-Jun-15 00:00N 45°52' W 122°48'21279.4
2017-Jun-14 23:56N 46°10' W 123°03'0 0.1
2017-Jun-14 23:51N 46°10' W 123°03'14218.5
2017-Jun-14 23:47N 46°12' W 123°23'1448.9
2017-Jun-14 23:30N 46°10' W 123°03'14948.0
2017-Jun-14 23:29N 46°12' W 123°23'143588.8
2017-Jun-14 23:29N 46°10' W 123°03'21890.2
2017-Jun-14 23:27N 45°52' W 122°48'0 0.0
2017-Jun-14 23:00N 45°52' W 122°48'321477.7
2017-Jun-14 22:59N 46°12' W 123°23'143140.2
2017-Jun-14 22:59N 46°10' W 123°03'0 0.2
2017-Jun-14 22:57N 46°10' W 123°03'2148.1
2017-Jun-14 22:30N 45°52' W 122°48'32436.6
2017-Jun-14 22:26N 46°12' W 123°23'145024.3
2017-Jun-14 22:26N 46°10' W 123°03'0 0.2
2017-Jun-14 22:24N 46°10' W 123°03'2154.3
2017-Jun-14 22:00N 45°52' W 122°48'321405.6
2017-Jun-14 21:59N 46°12' W 123°23'14389.5
2017-Jun-14 21:57N 46°10' W 123°03'0 0.3
2017-Jun-14 21:56N 46°10' W 123°03'2150.1
2017-Jun-14 21:30N 45°52' W 122°48'213061.5
2017-Jun-14 21:30N 46°10' W 123°03'14897.3
2017-Jun-14 21:29N 46°12' W 123°23'14261.7
2017-Jun-14 21:26N 46°10' W 123°03'2150.1
2017-Jun-14 21:00N 45°52' W 122°48'212834.7
2017-Jun-14 21:00N 46°10' W 123°03'14966.3
2017-Jun-14 20:59N 46°12' W 123°23'145024.6
2017-Jun-14 20:59N 46°10' W 123°03'0 0.0
2017-Jun-14 20:30N 46°10' W 123°03'141116.6
2017-Jun-14 20:29N 46°12' W 123°23'14257.7
2017-Jun-14 20:26N 46°10' W 123°03'21860.2
2017-Jun-14 20:24N 45°52' W 122°48'0 0.0
2017-Jun-14 20:00N 45°52' W 122°48'21860.2
2017-Jun-14 19:59N 46°10' W 123°03'0 0.2
2017-Jun-14 19:57N 46°10' W 123°03'14966.3
2017-Jun-14 19:56N 46°12' W 123°23'1428.7
2017-Jun-14 19:27N 46°10' W 123°03'14966.3
2017-Jun-14 19:26N 46°12' W 123°23'145024.3
2017-Jun-14 19:26N 46°10' W 123°03'21284.6
2017-Jun-14 19:21N 45°52' W 122°48'0 0.0
2017-Jun-14 19:00N 45°52' W 122°48'212639.2
2017-Jun-14 19:00N 46°10' W 123°03'14966.3
2017-Jun-14 18:59N 46°12' W 123°23'14134.7
2017-Jun-14 18:53N 46°10' W 123°03'2150.1
2017-Jun-14 18:27N 45°52' W 122°48'21880.0
2017-Jun-14 18:26N 46°10' W 123°03'14290.4
2017-Jun-14 18:23N 46°12' W 123°23'14383.6
2017-Jun-14 18:21N 46°10' W 123°03'2162.3
2017-Jun-14 18:00N 45°52' W 122°48'321440.7
2017-Jun-14 17:59N 46°12' W 123°23'144567.6
2017-Jun-14 17:59N 46°10' W 123°03'0 0.1
2017-Jun-14 17:55N 46°10' W 123°03'2150.9
2017-Jun-14 17:30N 45°52' W 122°48'321496.9
2017-Jun-14 17:29N 46°12' W 123°23'14261.7
2017-Jun-14 17:26N 46°10' W 123°03'0 0.7
2017-Jun-14 17:25N 46°10' W 123°03'2151.0
2017-Jun-14 17:00N 45°52' W 122°48'21870.0
2017-Jun-14 16:59N 46°10' W 123°03'0 0.7
2017-Jun-14 16:58N 46°10' W 123°03'14100.1
2017-Jun-14 16:50N 46°12' W 123°23'3297.8
2017-Jun-14 16:30N 45°52' W 122°48'32441.6
2017-Jun-14 16:26N 46°12' W 123°23'141288.4
2017-Jun-14 16:25N 46°10' W 123°03'0 0.1
2017-Jun-14 16:23N 46°10' W 123°03'2156.6
2017-Jun-14 16:00N 45°52' W 122°48'21627.4
2017-Jun-14 15:58N 46°10' W 123°03'14353.8
2017-Jun-14 15:56N 46°12' W 123°23'14271.6
2017-Jun-14 15:53N 46°10' W 123°03'1435.1
2017-Jun-14 15:29N 46°12' W 123°23'147177.6
2017-Jun-14 15:29N 46°10' W 123°03'0 0.7
2017-Jun-14 15:28N 46°10' W 123°03'211275.6
2017-Jun-14 15:27N 45°52' W 122°48'0 0.0
2017-Jun-14 15:00N 45°52' W 122°48'321423.0
2017-Jun-14 14:59N 46°12' W 123°23'14264.4
2017-Jun-14 14:56N 46°10' W 123°03'0 0.1
2017-Jun-14 14:52N 46°10' W 123°03'1415.7
2017-Jun-14 13:59N 46°12' W 123°23'141395.7
2017-Jun-14 13:58N 46°10' W 123°03'21318.9
2017-Jun-14 13:54N 45°52' W 122°48'21172.4
2017-Jun-14 13:47N 46°10' W 123°03'2176.7
2017-Jun-14 13:30N 45°52' W 122°48'21900.7
2017-Jun-14 13:29N 46°10' W 123°03'0 0.7
2017-Jun-14 13:28N 46°10' W 123°03'1473.7
2017-Jun-14 13:17N 46°12' W 123°23'32115.1
2017-Jun-14 13:00N 45°52' W 122°48'21900.7
2017-Jun-14 12:59N 46°10' W 123°03'0 0.6
2017-Jun-14 12:58N 46°10' W 123°03'14369.5
2017-Jun-14 12:56N 46°12' W 123°23'3274.7
2017-Jun-14 12:30N 45°52' W 122°48'321477.7
2017-Jun-14 12:29N 46°12' W 123°23'147177.6
2017-Jun-14 12:29N 46°10' W 123°03'0 0.1
2017-Jun-14 12:22N 46°10' W 123°03'2158.0
2017-Jun-14 12:00N 45°52' W 122°48'21860.2
2017-Jun-14 11:59N 46°10' W 123°03'14308.2
2017-Jun-14 11:56N 46°12' W 123°23'141025.4
2017-Jun-14 11:55N 46°10' W 123°03'2145.5
2017-Jun-14 11:27N 45°52' W 122°48'321496.7
2017-Jun-14 11:26N 46°12' W 123°23'141196.3
2017-Jun-14 11:25N 46°10' W 123°03'0 0.0
2017-Jun-14 11:17N 46°10' W 123°03'0 0.0
2017-Jun-14 10:59N 46°10' W 123°03'0 0.7
2017-Jun-14 10:58N 46°10' W 123°03'14348.9
2017-Jun-14 10:56N 46°12' W 123°23'32414.6
2017-Jun-14 10:51N 45°52' W 122°48'3285.8
2017-Jun-14 10:29N 46°12' W 123°23'321176.0
2017-Jun-14 10:27N 45°52' W 122°48'21879.7
2017-Jun-14 10:26N 46°10' W 123°03'0 0.7
2017-Jun-14 10:25N 46°10' W 123°03'0 0.0
2017-Jun-14 09:56N 46°10' W 123°03'0 0.8
2017-Jun-14 09:55N 46°10' W 123°03'211234.5
2017-Jun-14 09:54N 45°52' W 122°48'32273.2
2017-Jun-14 09:47N 46°12' W 123°23'3296.2
2017-Jun-14 09:27N 45°52' W 122°48'321440.7
2017-Jun-14 09:26N 46°12' W 123°23'145582.6
2017-Jun-14 09:26N 46°10' W 123°03'0 0.6
2017-Jun-14 09:25N 46°10' W 123°03'2151.0
2017-Jun-14 09:00N 45°52' W 122°48'21911.2
2017-Jun-14 08:59N 46°10' W 123°03'0 0.1
2017-Jun-14 08:52N 46°10' W 123°03'14353.8
2017-Jun-14 08:50N 46°12' W 123°23'1439.9
2017-Jun-14 08:29N 46°10' W 123°03'0 0.1
2017-Jun-14 08:22N 46°10' W 123°03'211297.2
2017-Jun-14 08:21N 45°52' W 122°48'32443.3
2017-Jun-14 08:17N 46°12' W 123°23'1444.8
2017-Jun-14 07:58N 46°10' W 123°03'0 0.2
2017-Jun-14 07:56N 46°10' W 123°03'21832.1
2017-Jun-14 07:54N 45°52' W 122°48'32260.2
2017-Jun-14 07:47N 46°12' W 123°23'32115.4
2017-Jun-14 07:30N 45°52' W 122°48'213327.7
2017-Jun-14 07:30N 46°10' W 123°03'0 0.4
2017-Jun-14 07:29N 46°10' W 123°03'14139.6
2017-Jun-14 07:23N 46°12' W 123°23'1436.1
2017-Jun-14 07:00N 46°10' W 123°03'141046.8
2017-Jun-14 06:59N 46°12' W 123°23'321152.6
2017-Jun-14 06:57N 45°52' W 122°48'21880.0
2017-Jun-14 06:56N 46°10' W 123°03'2150.0
2017-Jun-14 06:30N 45°52' W 122°48'212733.5
2017-Jun-14 06:30N 46°10' W 123°03'14930.5
2017-Jun-14 06:29N 46°12' W 123°23'1450243.2
2017-Jun-14 06:29N 46°10' W 123°03'2144.6
2017-Jun-14 06:00N 45°52' W 122°48'21364.5
2017-Jun-14 05:57N 46°10' W 123°03'14948.0
2017-Jun-14 05:56N 46°12' W 123°23'14279.1
2017-Jun-14 05:53N 46°10' W 123°03'0 0.0
2017-Jun-14 05:30N 46°10' W 123°03'0 3.9
2017-Jun-14 05:29N 46°10' W 123°03'1425195.5
2017-Jun-14 05:29N 46°12' W 123°23'32393.4
2017-Jun-14 05:24N 45°52' W 122°48'2152.0
2017-Jun-14 05:00N 46°10' W 123°03'0 0.4
2017-Jun-14 04:59N 46°10' W 123°03'21773.3
2017-Jun-14 04:57N 45°52' W 122°48'321477.7
2017-Jun-14 04:56N 46°12' W 123°23'1431.0
2017-Jun-14 04:29N 46°10' W 123°03'14276.1
2017-Jun-14 04:26N 46°12' W 123°23'321188.2
2017-Jun-14 04:24N 45°52' W 122°48'212551.2
2017-Jun-14 04:24N 46°10' W 123°03'1433.7
2017-Jun-14 03:59N 46°12' W 123°23'14277.6
2017-Jun-14 03:56N 46°10' W 123°03'21781.2
2017-Jun-14 03:54N 45°52' W 122°48'21369.7
2017-Jun-14 03:51N 46°10' W 123°03'0 0.0
2017-Jun-14 03:30N 46°10' W 123°03'0 0.5
2017-Jun-14 03:29N 46°10' W 123°03'21781.2
2017-Jun-14 03:27N 45°52' W 122°48'321440.7
2017-Jun-14 03:26N 46°12' W 123°23'3274.9
2017-Jun-14 03:00N 45°52' W 122°48'21357.7
2017-Jun-14 02:57N 46°10' W 123°03'0 0.4
2017-Jun-14 02:56N 46°10' W 123°03'0 0.0
2017-Jun-14 02:30N 46°10' W 123°03'0 0.5
2017-Jun-14 02:29N 46°10' W 123°03'21750.5
2017-Jun-14 02:27N 45°52' W 122°48'2146.5
2017-Jun-14 02:00N 46°10' W 123°03'0 0.4
2017-Jun-14 01:59N 46°10' W 123°03'14280.7
2017-Jun-14 01:56N 46°12' W 123°23'321188.2
2017-Jun-14 01:54N 45°52' W 122°48'2152.0
2017-Jun-14 01:30N 46°10' W 123°03'0 0.4
2017-Jun-14 01:29N 46°10' W 123°03'21781.2
2017-Jun-14 01:27N 45°52' W 122°48'3285.8
2017-Jun-14 01:05N 46°12' W 123°23'32413.1
2017-Jun-14 01:00N 45°52' W 122°48'21945.1
2017-Jun-14 00:59N 46°10' W 123°03'0 0.2
2017-Jun-14 00:57N 46°10' W 123°03'14985.2
2017-Jun-14 00:56N 46°12' W 123°23'0 0.0
2017-Jun-14 00:26N 46°12' W 123°23'14383.6
2017-Jun-14 00:24N 46°10' W 123°03'0 0.1
2017-Jun-14 00:20N 46°10' W 123°03'21120.0
2017-Jun-14 00:09N 45°52' W 122°48'0 0.0
2017-Jun-14 00:00N 45°52' W 122°48'321536.8
2017-Jun-13 23:59N 46°12' W 123°23'1412560.8
2017-Jun-13 23:59N 46°10' W 123°03'0 0.2
2017-Jun-13 23:57N 46°10' W 123°03'2148.2
2017-Jun-13 23:30N 45°52' W 122°48'21956.9
2017-Jun-13 23:29N 46°10' W 123°03'0 0.2
2017-Jun-13 23:27N 46°10' W 123°03'14121.7
2017-Jun-13 23:20N 46°12' W 123°23'3297.8
2017-Jun-13 23:00N 45°52' W 122°48'21956.9
2017-Jun-13 22:59N 46°10' W 123°03'0 0.2
2017-Jun-13 22:57N 46°10' W 123°03'141046.8
2017-Jun-13 22:56N 46°12' W 123°23'1431.9
2017-Jun-13 22:30N 46°10' W 123°03'0 0.4
2017-Jun-13 22:29N 46°10' W 123°03'14277.6
2017-Jun-13 22:26N 46°12' W 123°23'32411.6
2017-Jun-13 22:21N 45°52' W 122°48'2159.4
2017-Jun-13 22:00N 46°10' W 123°03'14985.2
2017-Jun-13 21:59N 46°12' W 123°23'32250.6
2017-Jun-13 21:51N 45°52' W 122°48'21293.3
2017-Jun-13 21:47N 46°10' W 123°03'2176.6
2017-Jun-13 21:30N 45°52' W 122°48'21994.2
2017-Jun-13 21:29N 46°10' W 123°03'14273.1
2017-Jun-13 21:26N 46°12' W 123°23'14389.5
2017-Jun-13 21:24N 46°10' W 123°03'0 0.0
2017-Jun-13 21:00N 46°10' W 123°03'141004.9
2017-Jun-13 20:59N 46°12' W 123°23'321152.6
2017-Jun-13 20:57N 45°52' W 122°48'21173.6
2017-Jun-13 20:50N 46°10' W 123°03'2164.9
2017-Jun-13 20:30N 45°52' W 122°48'212551.2
2017-Jun-13 20:30N 46°10' W 123°03'0 0.5
2017-Jun-13 20:29N 46°10' W 123°03'145582.6
2017-Jun-13 20:29N 46°12' W 123°23'0 0.0
2017-Jun-13 19:59N 46°12' W 123°23'321164.2
2017-Jun-13 19:57N 45°52' W 122°48'212468.9
2017-Jun-13 19:57N 46°10' W 123°03'0 0.1
2017-Jun-13 19:53N 46°10' W 123°03'0 0.0
2017-Jun-13 19:30N 46°10' W 123°03'141092.3
2017-Jun-13 19:29N 46°12' W 123°23'1425121.6
2017-Jun-13 19:29N 46°10' W 123°03'21765.6
2017-Jun-13 19:27N 45°52' W 122°48'0 0.0
2017-Jun-13 18:57N 45°52' W 122°48'212468.9
2017-Jun-13 18:57N 46°10' W 123°03'0 0.5
2017-Jun-13 18:56N 46°10' W 123°03'1410048.6
2017-Jun-13 18:56N 46°12' W 123°23'3274.9
2017-Jun-13 18:30N 45°52' W 122°48'21981.5
2017-Jun-13 18:29N 46°10' W 123°03'1425121.6
2017-Jun-13 18:29N 46°12' W 123°23'141196.3
2017-Jun-13 18:28N 46°10' W 123°03'2145.6
2017-Jun-13 18:00N 45°52' W 122°48'21617.2
2017-Jun-13 17:58N 46°10' W 123°03'0 0.2
2017-Jun-13 17:56N 46°10' W 123°03'147177.6
2017-Jun-13 17:56N 46°12' W 123°23'3274.9
2017-Jun-13 17:30N 45°52' W 122°48'321440.7
2017-Jun-13 17:29N 46°12' W 123°23'141168.5
2017-Jun-13 17:28N 46°10' W 123°03'0 0.0
2017-Jun-13 17:20N 46°10' W 123°03'2164.5
2017-Jun-13 17:00N 45°52' W 122°48'211007.3
2017-Jun-13 16:59N 46°10' W 123°03'1416747.7
2017-Jun-13 16:59N 46°12' W 123°23'141225.5
2017-Jun-13 16:58N 46°10' W 123°03'0 0.0
2017-Jun-13 16:29N 46°10' W 123°03'0 1.3
2017-Jun-13 16:29N 46°10' W 123°03'21743.3
2017-Jun-13 16:27N 45°52' W 122°48'3299.4
2017-Jun-13 16:08N 46°12' W 123°23'32251.1
2017-Jun-13 16:00N 45°52' W 122°48'212391.8
2017-Jun-13 16:00N 46°10' W 123°03'0 0.5
2017-Jun-13 15:59N 46°10' W 123°03'14137.7
2017-Jun-13 15:53N 46°12' W 123°23'1435.0
2017-Jun-13 15:29N 46°10' W 123°03'21617.4
2017-Jun-13 15:27N 45°52' W 122°48'215887.5
2017-Jun-13 15:27N 46°10' W 123°03'1444.5
2017-Jun-13 15:08N 46°12' W 123°23'14102.1
2017-Jun-13 15:00N 46°10' W 123°03'0 0.5
2017-Jun-13 14:59N 46°10' W 123°03'14267.3
2017-Jun-13 14:56N 46°12' W 123°23'321002.3
2017-Jun-13 14:54N 45°52' W 122°48'3268.4
2017-Jun-13 14:26N 46°12' W 123°23'14287.1
2017-Jun-13 14:23N 46°10' W 123°03'2155.4
2017-Jun-13 14:00N 45°52' W 122°48'21203.0
2017-Jun-13 13:54N 46°10' W 123°03'  
Track history (hours):
 
Tides and Currents Weather Stations Pressure Air Temp Water Temp Dewpoint Dewpoint Depression Visibility Wind Speed Wind Dir Waves Ship Positions

Zarling

Owner: Clean Rivers Co-op, Portland, OR. More information available from US FCC via Universal Licensing System.

Last reported at 2017-Jun-23 13:30 UTC. Time now 2017-Jun-23 13:50 UTC.
Position N 45°33' W 122°42'.

Length 12 m.

Type: Pollution control. MMSI: 3699126.

Date/timePositionNaut miles runAvg speedWind from/ knotsBaromVisibWave heightAir tempDewpointWater temp
2017-Jun-23 13:30N 45°33' W 122°42'4020591.2
2017-Jun-23 13:30N 46°10' W 123°03'71859.1
2017-Jun-23 13:29N 46°05' W 122°56'143256.5
2017-Jun-23 13:29N 45°52' W 122°48'3211526.0
2017-Jun-23 13:29N 46°12' W 123°23'0 0.0
2017-Jun-23 12:59N 46°12' W 123°23'14785.0
2017-Jun-23 12:58N 46°10' W 123°03'041.5
2017-Jun-23 12:57N 46°10' W 123°03'21551.1
2017-Jun-23 12:55N 45°52' W 122°48'19366.3
2017-Jun-23 12:52N 45°33' W 122°42'49126.8
2017-Jun-23 12:29N 46°12' W 123°23'492824.3
2017-Jun-23 12:28N 45°33' W 122°42'4048052.8
2017-Jun-23 12:28N 46°10' W 123°03'211913.9
2017-Jun-23 12:27N 45°52' W 122°48'211822.3
2017-Jun-23 12:26N 46°10' W 123°03'2147.9
2017-Jun-23 12:00N 45°52' W 122°48'213826.9
2017-Jun-23 11:59N 46°10' W 123°03'141477.9
2017-Jun-23 11:59N 46°12' W 123°23'492216.6
2017-Jun-23 11:58N 45°33' W 122°42'4016015.4
2017-Jun-23 11:57N 46°10' W 123°03'1429.4
2017-Jun-23 11:29N 46°12' W 123°23'492824.3
2017-Jun-23 11:28N 45°33' W 122°42'4020594.1
2017-Jun-23 11:28N 46°10' W 123°03'0 1.4
2017-Jun-23 11:28N 46°10' W 123°03'213644.6
2017-Jun-23 11:27N 45°52' W 122°48'2147.4
2017-Jun-23 11:00N 46°10' W 123°03'2112756.2
2017-Jun-23 11:00N 45°52' W 122°48'328866.1
2017-Jun-23 11:00N 46°12' W 123°23'14401.9
2017-Jun-23 10:58N 46°10' W 123°03'40209.8
2017-Jun-23 10:46N 45°33' W 122°42'1971.5
2017-Jun-23 10:30N 45°52' W 122°48'21344.7
2017-Jun-23 10:26N 46°10' W 123°03'141395.7
2017-Jun-23 10:26N 46°12' W 123°23'14318.0
2017-Jun-23 10:23N 46°10' W 123°03'40556.6
2017-Jun-23 10:19N 45°33' W 122°42'49145.8
2017-Jun-23 09:59N 46°12' W 123°23'141395.6
2017-Jun-23 09:58N 46°10' W 123°03'405544.6
2017-Jun-23 09:58N 45°33' W 122°42'191698.1
2017-Jun-23 09:57N 45°52' W 122°48'21344.7
2017-Jun-23 09:53N 46°10' W 123°03'2154.7
2017-Jun-23 09:30N 45°52' W 122°48'211779.9
2017-Jun-23 09:29N 46°10' W 123°03'141522.6
2017-Jun-23 09:29N 46°12' W 123°23'146280.4
2017-Jun-23 09:29N 46°10' W 123°03'402719.6
2017-Jun-23 09:28N 45°33' W 122°42'1942.3
2017-Jun-23 09:00N 45°52' W 122°48'211159.7
2017-Jun-23 08:59N 46°10' W 123°03'142955.7
2017-Jun-23 08:59N 46°12' W 123°23'492694.0
2017-Jun-23 08:58N 45°33' W 122°42'4011089.1
2017-Jun-23 08:58N 46°10' W 123°03'0 0.0
2017-Jun-23 08:29N 46°10' W 123°03'141570.2
2017-Jun-23 08:29N 46°12' W 123°23'3238419.9
2017-Jun-23 08:29N 45°52' W 122°48'21349.6
2017-Jun-23 08:25N 46°10' W 123°03'40720.8
2017-Jun-23 08:22N 45°33' W 122°42'40107.2
2017-Jun-23 07:59N 46°10' W 123°03'141522.6
2017-Jun-23 07:59N 46°12' W 123°23'492779.5
2017-Jun-23 07:58N 45°33' W 122°42'40792.1
2017-Jun-23 07:55N 46°10' W 123°03'21359.4
2017-Jun-23 07:51N 45°52' W 122°48'2161.4
2017-Jun-23 07:30N 46°10' W 123°03'214784.7
2017-Jun-23 07:30N 45°52' W 122°48'211628.5
2017-Jun-23 07:29N 46°10' W 123°03'141477.8
2017-Jun-23 07:29N 46°12' W 123°23'494489.9
2017-Jun-23 07:28N 45°33' W 122°42'4085.0
2017-Jun-23 07:00N 46°10' W 123°03'0 0.7
2017-Jun-23 06:59N 46°10' W 123°03'401092.0
2017-Jun-23 06:57N 45°33' W 122°42'1913920.3
2017-Jun-23 06:57N 45°52' W 122°48'32922.1
2017-Jun-23 06:55N 46°12' W 123°23'1432.7
2017-Jun-23 06:29N 46°10' W 123°03'141358.0
2017-Jun-23 06:29N 46°12' W 123°23'492870.6
2017-Jun-23 06:28N 45°33' W 122°42'4072079.3
2017-Jun-23 06:28N 46°10' W 123°03'21205.8
2017-Jun-23 06:22N 45°52' W 122°48'0 0.0
2017-Jun-23 06:00N 45°52' W 122°48'191512.6
2017-Jun-23 05:59N 45°33' W 122°42'495002.6
2017-Jun-23 05:59N 46°12' W 123°23'14728.2
2017-Jun-23 05:58N 46°10' W 123°03'4086.8
2017-Jun-23 05:30N 45°33' W 122°42'404367.2
2017-Jun-23 05:29N 46°10' W 123°03'141358.0
2017-Jun-23 05:29N 46°12' W 123°23'14837.4
2017-Jun-23 05:28N 46°10' W 123°03'211822.8
2017-Jun-23 05:27N 45°52' W 122°48'2146.9
2017-Jun-23 05:00N 46°10' W 123°03'401172.0
2017-Jun-23 04:58N 45°33' W 122°42'401601.5
2017-Jun-23 04:56N 46°10' W 123°03'141674.9
2017-Jun-23 04:56N 46°12' W 123°23'321130.0
2017-Jun-23 04:54N 45°52' W 122°48'2151.6
2017-Jun-23 04:30N 46°10' W 123°03'141322.3
2017-Jun-23 04:29N 46°12' W 123°23'14810.4
2017-Jun-23 04:28N 46°10' W 123°03'211963.0
2017-Jun-23 04:27N 45°52' W 122°48'19219.6
2017-Jun-23 04:22N 45°33' W 122°42'1953.4
2017-Jun-23 04:00N 45°52' W 122°48'211779.9
2017-Jun-23 03:59N 46°10' W 123°03'141435.6
2017-Jun-23 03:59N 46°12' W 123°23'492870.3
2017-Jun-23 03:58N 45°33' W 122°42'4072069.2
2017-Jun-23 03:58N 46°10' W 123°03'0 0.0
2017-Jun-23 03:29N 46°10' W 123°03'141477.8
2017-Jun-23 03:29N 46°12' W 123°23'14785.0
2017-Jun-23 03:28N 46°10' W 123°03'211913.9
2017-Jun-23 03:27N 45°52' W 122°48'19217.5
2017-Jun-23 03:22N 45°33' W 122°42'1953.7
2017-Jun-23 03:00N 45°52' W 122°48'192676.2
2017-Jun-23 03:00N 45°33' W 122°42'4072069.2
2017-Jun-23 03:00N 46°10' W 123°03'0 1.2
2017-Jun-23 02:59N 46°10' W 123°03'141674.9
2017-Jun-23 02:59N 46°12' W 123°23'3266.8
2017-Jun-23 02:30N 45°52' W 122°48'211530.4
2017-Jun-23 02:29N 46°10' W 123°03'141794.5
2017-Jun-23 02:29N 46°12' W 123°23'14201.0
2017-Jun-23 02:25N 46°10' W 123°03'40449.1
2017-Jun-23 02:19N 45°33' W 122°42'49152.3
2017-Jun-23 02:00N 46°12' W 123°23'3257629.9
2017-Jun-23 02:00N 45°52' W 122°48'211913.4
2017-Jun-23 01:59N 46°10' W 123°03'0 2.0
2017-Jun-23 01:59N 46°10' W 123°03'401695.7
2017-Jun-23 01:58N 45°33' W 122°42'1941.7
2017-Jun-23 01:30N 45°52' W 122°48'3212806.6
2017-Jun-23 01:30N 46°12' W 123°23'492109.7
2017-Jun-23 01:29N 45°33' W 122°42'40144158.5
2017-Jun-23 01:29N 46°10' W 123°03'0 0.2
2017-Jun-23 01:27N 46°10' W 123°03'0 0.0
2017-Jun-23 00:59N 46°10' W 123°03'401549.9
2017-Jun-23 00:58N 45°33' W 122°42'491447.2
2017-Jun-23 00:56N 46°12' W 123°23'14207.6
2017-Jun-23 00:52N 46°10' W 123°03'21263.1
2017-Jun-23 00:47N 45°52' W 122°48'1966.6
2017-Jun-23 00:30N 45°33' W 122°42'4016013.1
2017-Jun-23 00:29N 46°10' W 123°03'141395.7
2017-Jun-23 00:29N 46°12' W 123°23'32512.3
2017-Jun-23 00:25N 45°52' W 122°48'215103.7
2017-Jun-23 00:25N 46°10' W 123°03'2151.6
2017-Jun-23 00:00N 45°52' W 122°48'211664.3
2017-Jun-22 23:59N 46°10' W 123°03'40144158.5
2017-Jun-22 23:59N 45°33' W 122°42'495648.6
2017-Jun-22 23:59N 46°12' W 123°23'141674.9
2017-Jun-22 23:58N 46°10' W 123°03'1428.5
2017-Jun-22 23:29N 46°12' W 123°23'14823.7
2017-Jun-22 23:28N 46°10' W 123°03'4036034.6
2017-Jun-22 23:28N 45°33' W 122°42'191697.1
2017-Jun-22 23:27N 45°52' W 122°48'212014.1
2017-Jun-22 23:27N 46°10' W 123°03'1432.0
2017-Jun-22 23:00N 46°12' W 123°23'14913.6
2017-Jun-22 22:59N 46°10' W 123°03'0 0.2
2017-Jun-22 22:58N 46°10' W 123°03'4036039.6
2017-Jun-22 22:58N 45°33' W 122°42'19316.4
2017-Jun-22 22:54N 45°52' W 122°48'3281.1
2017-Jun-22 22:31N 46°12' W 123°23'325488.6
2017-Jun-22 22:30N 45°52' W 122°48'21567.1
2017-Jun-22 22:28N 46°10' W 123°03'4036039.6
2017-Jun-22 22:28N 45°33' W 122°42'401676.0
2017-Jun-22 22:26N 46°10' W 123°03'1430.4
2017-Jun-22 21:59N 46°12' W 123°23'141256.2
2017-Jun-22 21:58N 46°10' W 123°03'407205.9
2017-Jun-22 21:58N 45°33' W 122°42'403203.1
2017-Jun-22 21:57N 46°10' W 123°03'212251.6
2017-Jun-22 21:57N 45°52' W 122°48'0 0.0
2017-Jun-22 21:30N 45°52' W 122°48'211628.5
2017-Jun-22 21:29N 46°10' W 123°03'141570.2
2017-Jun-22 21:29N 46°12' W 123°23'492870.6
2017-Jun-22 21:28N 45°33' W 122°42'40848.0
2017-Jun-22 21:25N 46°10' W 123°03'0 0.0
2017-Jun-22 20:59N 46°10' W 123°03'0 0.9
2017-Jun-22 20:59N 46°10' W 123°03'14401.9
2017-Jun-22 20:57N 46°12' W 123°23'492736.1
2017-Jun-22 20:56N 45°33' W 122°42'19669.2
2017-Jun-22 20:54N 45°52' W 122°48'0 0.0
2017-Jun-22 20:30N 45°52' W 122°48'211779.9
2017-Jun-22 20:29N 46°10' W 123°03'141732.6
2017-Jun-22 20:29N 46°12' W 123°23'14207.6
2017-Jun-22 20:25N 46°10' W 123°03'4036034.6
2017-Jun-22 20:25N 45°33' W 122°42'4096.0
2017-Jun-22 20:00N 46°10' W 123°03'0 0.9
2017-Jun-22 19:59N 46°10' W 123°03'216957.9
2017-Jun-22 19:59N 45°52' W 122°48'325239.1
2017-Jun-22 19:59N 46°12' W 123°23'492824.3
2017-Jun-22 19:58N 45°33' W 122°42'4082.0
2017-Jun-22 19:29N 46°10' W 123°03'141395.7
2017-Jun-22 19:28N 46°12' W 123°23'1450243.2
2017-Jun-22 19:28N 46°10' W 123°03'211701.2
2017-Jun-22 19:27N 45°52' W 122°48'193480.1
2017-Jun-22 19:27N 45°33' W 122°42'1943.5
2017-Jun-22 19:00N 45°52' W 122°48'321405.6
2017-Jun-22 18:59N 46°12' W 123°23'14930.4
2017-Jun-22 18:58N 46°10' W 123°03'4024026.4
2017-Jun-22 18:58N 45°33' W 122°42'401736.6
2017-Jun-22 18:56N 46°10' W 123°03'0 0.0
2017-Jun-22 18:29N 46°10' W 123°03'141732.6
2017-Jun-22 18:29N 46°12' W 123°23'14797.5
2017-Jun-22 18:28N 46°10' W 123°03'4048059.5
2017-Jun-22 18:28N 45°33' W 122°42'191657.2
2017-Jun-22 18:27N 45°52' W 122°48'0 0.0
2017-Jun-22 18:00N 45°52' W 122°48'3216465.7
2017-Jun-22 18:00N 46°12' W 123°23'493501.8
2017-Jun-22 17:59N 45°33' W 122°42'401801.7
2017-Jun-22 17:58N 46°10' W 123°03'0 0.2
2017-Jun-22 17:56N 46°10' W 123°03'0 0.0
2017-Jun-22 17:29N 46°10' W 123°03'141477.8
2017-Jun-22 17:29N 46°12' W 123°23'14930.4
2017-Jun-22 17:28N 46°10' W 123°03'211562.4
2017-Jun-22 17:27N 45°52' W 122°48'192577.0
2017-Jun-22 17:27N 45°33' W 122°42'4083.6
2017-Jun-22 16:58N 46°10' W 123°03'211701.2
2017-Jun-22 16:57N 45°52' W 122°48'211663.9
2017-Jun-22 16:56N 46°10' W 123°03'141861.0
2017-Jun-22 16:56N 46°12' W 123°23'492652.9
2017-Jun-22 16:55N 45°33' W 122°42'1947.2
2017-Jun-22 16:30N 45°52' W 122°48'213061.5
2017-Jun-22 16:30N 46°10' W 123°03'141732.6
2017-Jun-22 16:29N 46°12' W 123°23'141225.4
2017-Jun-22 16:29N 46°10' W 123°03'404970.3
2017-Jun-22 16:28N 45°33' W 122°42'4086.4
2017-Jun-22 16:00N 46°10' W 123°03'214501.1
2017-Jun-22 16:00N 45°52' W 122°48'325762.3
2017-Jun-22 16:00N 46°12' W 123°23'492967.6
2017-Jun-22 15:59N 45°33' W 122°42'40929.9
2017-Jun-22 15:56N 46°10' W 123°03'0 0.0
2017-Jun-22 15:30N 46°10' W 123°03'214028.3
2017-Jun-22 15:30N 45°52' W 122°48'323842.0
2017-Jun-22 15:30N 46°12' W 123°23'14540.2
2017-Jun-22 15:28N 46°10' W 123°03'4011089.1
2017-Jun-22 15:28N 45°33' W 122°42'4087.0
2017-Jun-22 15:00N 46°10' W 123°03'219569.5
2017-Jun-22 15:00N 45°52' W 122°48'211822.3
2017-Jun-22 14:59N 46°10' W 123°03'141435.6
2017-Jun-22 14:59N 46°12' W 123°23'492918.2
2017-Jun-22 14:58N 45°33' W 122°42'1940.5
2017-Jun-22 14:29N 45°52' W 122°48'322174.7
2017-Jun-22 14:28N 46°12' W 123°23'141004.9
2017-Jun-22 14:28N 46°10' W 123°03'40239.4
2017-Jun-22 14:17N 45°33' W 122°42'4088.9
2017-Jun-22 13:50N 46°10' W 123°03'2162.8
2017-Jun-22 13:30N 45°52' W 122°48'211739.5
2017-Jun-22 13:29N 46°10' W 123°03'141358.0
2017-Jun-22 13:29N 46°12' W 123°23'141004.9
2017-Jun-22 13:28N 46°10' W 123°03'402030.4
2017-Jun-22 13:27N 45°33' W 122°42'4087.9
2017-Jun-22 12:59N 46°10' W 123°03'0 0.4
2017-Jun-22 12:59N 46°10' W 123°03'403203.5
2017-Jun-22 12:58N 45°33' W 122°42'491423.6
2017-Jun-22 12:56N 46°12' W 123°23'321188.2
2017-Jun-22 12:54N 45°52' W 122°48'3280.4
2017-Jun-22 12:30N 46°12' W 123°23'142644.4
2017-Jun-22 12:30N 46°10' W 123°03'0 0.7
2017-Jun-22 12:29N 46°10' W 123°03'401486.0
2017-Jun-22 12:28N 45°33' W 122°42'19312.1
2017-Jun-22 12:24N 45°52' W 122°48'0 0.0
2017-Jun-22 12:00N 45°52' W 122°48'212391.8
2017-Jun-22 12:00N 46°10' W 123°03'141092.4
2017-Jun-22 11:59N 46°12' W 123°23'142184.6
2017-Jun-22 11:58N 46°10' W 123°03'402402.6
2017-Jun-22 11:57N 45°33' W 122°42'1942.4
2017-Jun-22 11:30N 45°52' W 122°48'211391.6
2017-Jun-22 11:29N 46°10' W 123°03'142644.6
2017-Jun-22 11:29N 46°12' W 123°23'142009.7
2017-Jun-22 11:28N 46°10' W 123°03'40364.0
2017-Jun-22 11:22N 45°33' W 122°42'1953.5
2017-Jun-22 11:00N 45°52' W 122°48'211594.1
2017-Jun-22 10:59N 46°10' W 123°03'141732.6
2017-Jun-22 10:59N 46°12' W 123°23'14242.7
2017-Jun-22 10:55N 46°10' W 123°03'404118.8
2017-Jun-22 10:55N 45°33' W 122°42'4094.5
2017-Jun-22 10:29N 46°10' W 123°03'141395.7
2017-Jun-22 10:29N 46°12' W 123°23'141025.4
2017-Jun-22 10:28N 46°10' W 123°03'4011089.1
2017-Jun-22 10:28N 45°33' W 122°42'1991.5
2017-Jun-22 10:15N 45°52' W 122°48'2181.5
2017-Jun-22 09:59N 46°10' W 123°03'141395.7
2017-Jun-22 09:59N 46°12' W 123°23'14948.0
2017-Jun-22 09:58N 46°10' W 123°03'4014415.9
2017-Jun-22 09:58N 45°33' W 122°42'191740.6
2017-Jun-22 09:57N 45°52' W 122°48'2146.3
2017-Jun-22 09:30N 46°10' W 123°03'0 2.7
2017-Jun-22 09:29N 46°10' W 123°03'211594.5
2017-Jun-22 09:29N 45°52' W 122°48'191449.6
2017-Jun-22 09:28N 45°33' W 122°42'49703.2
2017-Jun-22 09:24N 46°12' W 123°23'1436.0
2017-Jun-22 09:00N 46°10' W 123°03'142392.7
2017-Jun-22 09:00N 46°12' W 123°23'141168.5
2017-Jun-22 08:59N 46°10' W 123°03'212551.2
2017-Jun-22 08:59N 45°52' W 122°48'191104.8
2017-Jun-22 08:58N 45°33' W 122°42'49105.8
2017-Jun-22 08:30N 46°12' W 123°23'3223051.9
2017-Jun-22 08:30N 45°52' W 122°48'211867.2
2017-Jun-22 08:30N 46°10' W 123°03'0 7.2
2017-Jun-22 08:29N 46°10' W 123°03'4012009.9
2017-Jun-22 08:29N 45°33' W 122°42'1940.0
2017-Jun-22 08:00N 45°52' W 122°48'215888.9
2017-Jun-22 08:00N 46°10' W 123°03'0 0.7
2017-Jun-22 08:00N 46°10' W 123°03'141395.7
2017-Jun-22 07:59N 46°12' W 123°23'49768.0
2017-Jun-22 07:55N 45°33' W 122°42'4093.8
2017-Jun-22 07:30N 46°10' W 123°03'141322.3
2017-Jun-22 07:29N 46°12' W 123°23'3238415.3
2017-Jun-22 07:29N 45°52' W 122°48'211594.5
2017-Jun-22 07:28N 46°10' W 123°03'40762.7
2017-Jun-22 07:25N 45°33' W 122°42'4094.6
2017-Jun-22 06:59N 46°10' W 123°03'405543.8
2017-Jun-22 06:59N 45°33' W 122°42'4912507.7
2017-Jun-22 06:59N 46°12' W 123°23'141046.7
2017-Jun-22 06:58N 46°10' W 123°03'211472.2
2017-Jun-22 06:57N 45°52' W 122°48'0 0.0
2017-Jun-22 06:30N 45°52' W 122°48'211821.9
2017-Jun-22 06:30N 46°10' W 123°03'141256.2
2017-Jun-22 06:29N 46°12' W 123°23'49416.9
2017-Jun-22 06:22N 45°33' W 122°42'40853.0
2017-Jun-22 06:19N 46°10' W 123°03'1441.6
2017-Jun-22 05:59N 46°12' W 123°23'143588.8
2017-Jun-22 05:59N 46°10' W 123°03'4012011.5
2017-Jun-22 05:58N 45°33' W 122°42'191242.5
2017-Jun-22 05:58N 45°52' W 122°48'211254.7
2017-Jun-22 05:57N 46°10' W 123°03'2148.4
2017-Jun-22 05:30N 45°52' W 122°48'211866.8
2017-Jun-22 05:29N 46°10' W 123°03'4013103.5
2017-Jun-22 05:29N 45°33' W 122°42'496734.2
2017-Jun-22 05:29N 46°12' W 123°23'14153.7
2017-Jun-22 05:23N 46°10' W 123°03'2155.0
2017-Jun-22 05:00N 45°52' W 122°48'216379.7
2017-Jun-22 05:00N 46°10' W 123°03'4012011.5
2017-Jun-22 05:00N 45°33' W 122°42'406550.8
2017-Jun-22 04:59N 46°10' W 123°03'141477.8
2017-Jun-22 04:59N 46°12' W 123°23'3267.0
2017-Jun-22 04:30N 45°52' W 122°48'211663.9
2017-Jun-22 04:29N 46°10' W 123°03'141570.2
2017-Jun-22 04:29N 46°12' W 123°23'49723.5
2017-Jun-22 04:25N 45°33' W 122°42'40858.0
2017-Jun-22 04:22N 46°10' W 123°03'0 0.0
2017-Jun-22 04:00N 46°10' W 123°03'4011089.1
2017-Jun-22 04:00N 45°33' W 122°42'405765.5
2017-Jun-22 03:59N 46°10' W 123°03'213189.1
2017-Jun-22 03:59N 45°52' W 122°48'3219210.0
2017-Jun-22 03:59N 46°12' W 123°23'3266.6
2017-Jun-22 03:30N 45°52' W 122°48'211779.9
2017-Jun-22 03:29N 46°10' W 123°03'141674.9
2017-Jun-22 03:29N 46°12' W 123°23'14215.6
2017-Jun-22 03:25N 46°10' W 123°03'40762.7
2017-Jun-22 03:22N 45°33' W 122°42'40112.2
2017-Jun-22 03:00N 46°10' W 123°03'14507.5
2017-Jun-22 02:59N 46°12' W 123°23'493019.1
2017-Jun-22 02:58N 45°33' W 122°42'19155.4
2017-Jun-22 02:50N 45°52' W 122°48'211417.4
2017-Jun-22 02:49N 46°10' W 123°03'2166.0
2017-Jun-22 02:30N 45°52' W 122°48'211821.9
2017-Jun-22 02:29N 46°10' W 123°03'141395.8
2017-Jun-22 02:29N 46°12' W 123°23'141046.8
2017-Jun-22 02:28N 46°10' W 123°03'4010295.6
2017-Jun-22 02:28N 45°33' W 122°42'1941.9
2017-Jun-22 02:00N 45°52' W 122°48'321477.7
2017-Jun-22 01:59N 46°12' W 123°23'492967.9
2017-Jun-22 01:58N 45°33' W 122°42'40987.2
2017-Jun-22 01:55N 46°10' W 123°03'0 1.0
2017-Jun-22 01:55N 46°10' W 123°03'2151.4
2017-Jun-22 01:30N 45°52' W 122°48'321340.2
2017-Jun-22 01:29N 46°12' W 123°23'141025.4
2017-Jun-22 01:28N 46°10' W 123°03'4016015.4
2017-Jun-22 01:28N 45°33' W 122°42'401286.8
2017-Jun-22 01:26N 46°10' W 123°03'2149.4
2017-Jun-22 01:00N 45°52' W 122°48'321477.7
2017-Jun-22 00:59N 46°12' W 123°23'142955.5
2017-Jun-22 00:59N 46°10' W 123°03'4016017.6
2017-Jun-22 00:58N 45°33' W 122°42'401201.2
2017-Jun-22 00:56N 46°10' W 123°03'2148.5
2017-Jun-22 00:30N 45°52' W 122°48'325239.1
2017-Jun-22 00:30N 46°12' W 123°23'142512.3
2017-Jun-22 00:29N 46°10' W 123°03'0 0.0
2017-Jun-22 00:21N 46°10' W 123°03'40294.2
2017-Jun-22 00:13N 45°33' W 122°42'40190.9
2017-Jun-22 00:00N 46°10' W 123°03'2112759.3
2017-Jun-22 00:00N 45°52' W 122°48'193163.7
2017-Jun-22 00:00N 45°33' W 122°42'493126.9
2017-Jun-21 23:59N 46°12' W 123°23'14353.8
2017-Jun-21 23:56N 46°10' W 123°03'2148.5
2017-Jun-21 23:30N 45°52' W 122°48'211822.3
2017-Jun-21 23:29N 46°10' W 123°03'141477.8
2017-Jun-21 23:29N 46°12' W 123°23'14223.3
2017-Jun-21 23:25N 46°10' W 123°03'40724.4
2017-Jun-21 23:22N 45°33' W 122°42'49127.0
2017-Jun-21 22:59N 46°12' W 123°23'1416748.9
2017-Jun-21 22:59N 46°10' W 123°03'21789.0
2017-Jun-21 22:57N 45°52' W 122°48'192676.2
2017-Jun-21 22:57N 45°33' W 122°42'40514.8
2017-Jun-21 22:52N 46°10' W 123°03'2158.1
2017-Jun-21 22:30N 45°52' W 122°48'211779.9
2017-Jun-21 22:29N 46°10' W 123°03'4010294.2
2017-Jun-21 22:29N 45°33' W 122°42'4910943.1
2017-Jun-21 22:29N 46°12' W 123°23'14221.3
2017-Jun-21 22:25N 46°10' W 123°03'2151.1
2017-Jun-21 22:00N 45°52' W 122°48'32835.2
2017-Jun-21 21:58N 46°12' W 123°23'492501.5
2017-Jun-21 21:57N 45°33' W 122°42'409008.7
2017-Jun-21 21:56N 46°10' W 123°03'0 0.1
2017-Jun-21 21:51N 46°10' W 123°03'2162.0
2017-Jun-21 21:30N 45°52' W 122°48'3219210.0
2017-Jun-21 21:30N 46°12' W 123°23'491471.5
2017-Jun-21 21:28N 45°33' W 122°42'401455.9
2017-Jun-21 21:26N 46°10' W 123°03'0 0.7
2017-Jun-21 21:26N 46°10' W 123°03'0 0.0
2017-Jun-21 21:00N 46°10' W 123°03'409610.6
2017-Jun-21 21:00N 45°33' W 122°42'404367.8
2017-Jun-21 20:59N 46°10' W 123°03'141570.2
2017-Jun-21 20:59N 46°12' W 123°23'321152.6
2017-Jun-21 20:57N 45°52' W 122°48'2146.4
2017-Jun-21 20:30N 46°10' W 123°03'141069.1
2017-Jun-21 20:29N 46°12' W 123°23'141116.5
2017-Jun-21 20:28N 46°10' W 123°03'407586.2
2017-Jun-21 20:28N 45°33' W 122°42'191512.6
2017-Jun-21 20:27N 45°52' W 122°48'2250.0
2017-Jun-21 20:00N 46°10' W 123°06'225328.1
2017-Jun-21 20:00N 45°52' W 122°48'197733.5
2017-Jun-21 20:00N 45°33' W 122°42'49403.5
2017-Jun-21 19:53N 46°12' W 123°23'0 0.0
2017-Jun-21 19:29N 46°12' W 123°23'0 0.0
2017-Jun-21 18:47N 46°12' W 123°23'0 0.0
2017-Jun-21 18:26N 46°12' W 123°23'0 0.0
2017-Jun-21 17:59N 46°12' W 123°23'0 0.0
2017-Jun-21 17:26N 46°12' W 123°23'0 0.0
2017-Jun-21 16:56N 46°12' W 123°23'0 0.0
2017-Jun-21 16:29N 46°12' W 123°23'0 0.0
2017-Jun-21 15:50N 46°12' W 123°23'0 0.0
2017-Jun-21 15:14N 46°12' W 123°23'0 0.0
2017-Jun-21 14:50N 46°12' W 123°23'0 0.0
2017-Jun-21 14:26N 46°12' W 123°23'0 0.0
2017-Jun-21 13:29N 46°12' W 123°23'0 0.0
2017-Jun-21 12:44N 46°12' W 123°23'0 0.0
2017-Jun-21 12:29N 46°12' W 123°23'0 0.0
2017-Jun-21 11:50N 46°12' W 123°23'0 0.0
2017-Jun-21 10:02N 46°12' W 123°23'0 0.0
2017-Jun-21 09:59N 46°12' W 123°23'0 0.0
2017-Jun-21 09:29N 46°12' W 123°23'0 0.0
2017-Jun-21 08:35N 46°12' W 123°23'0 0.0
2017-Jun-21 08:29N 46°12' W 123°23'0 0.0
2017-Jun-21 07:53N 46°12' W 123°23'0 0.0
2017-Jun-21 07:17N 46°12' W 123°23'0 0.0
2017-Jun-21 06:53N 46°12' W 123°23'0 0.0
2017-Jun-21 06:23N 46°12' W 123°23'0 0.0
2017-Jun-21 04:50N 46°12' W 123°23'0 0.0
2017-Jun-21 04:29N 46°12' W 123°23'0 0.0
2017-Jun-21 03:47N 46°12' W 123°23'0 0.0
2017-Jun-21 02:53N 46°12' W 123°23'0 0.0
2017-Jun-21 02:29N 46°12' W 123°23'0 0.0
2017-Jun-21 01:56N 46°12' W 123°23'0 0.0
2017-Jun-21 00:41N 46°12' W 123°23'0 0.0
2017-Jun-21 00:17N 46°12' W 123°23'0 0.0
2017-Jun-20 23:56N 46°12' W 123°23'0 0.0
2017-Jun-20 23:20N 46°12' W 123°23'0 0.0
2017-Jun-20 21:56N 46°12' W 123°23'0 0.0
2017-Jun-20 21:29N 46°12' W 123°23'0 0.0
2017-Jun-20 20:53N 46°12' W 123°23'0 0.0
2017-Jun-20 20:29N 46°12' W 123°23'0 0.0
2017-Jun-20 19:59N 46°12' W 123°23'14239.3
2017-Jun-20 19:55N 46°10' W 123°03'0 0.2
2017-Jun-20 19:54N 46°10' W 123°03'21229.2
2017-Jun-20 19:48N 45°52' W 122°48'2159.4
2017-Jun-20 19:27N 46°10' W 123°03'0 0.3
2017-Jun-20 19:25N 46°10' W 123°03'1441.1
2017-Jun-20 19:05N 46°12' W 123°23'32396.0
2017-Jun-20 19:00N 45°52' W 122°48'212638.6
2017-Jun-20 19:00N 46°10' W 123°03'141046.8
2017-Jun-20 18:59N 46°12' W 123°23'14243.9
2017-Jun-20 18:55N 46°10' W 123°03'2150.5
2017-Jun-20 18:30N 45°52' W 122°48'212639.2
2017-Jun-20 18:30N 46°10' W 123°03'141046.8
2017-Jun-20 18:29N 46°12' W 123°23'1454.0
2017-Jun-20 18:13N 46°10' W 123°03'0 0.0
2017-Jun-20 18:00N 46°10' W 123°03'0 0.3
2017-Jun-20 17:58N 46°10' W 123°03'211034.5
2017-Jun-20 17:57N 45°52' W 122°48'32452.0
2017-Jun-20 17:53N 46°12' W 123°23'3284.4
2017-Jun-20 17:30N 45°52' W 122°48'213061.5
2017-Jun-20 17:30N 46°10' W 123°03'0 0.3
2017-Jun-20 17:28N 46°10' W 123°03'14151.3
2017-Jun-20 17:23N 46°12' W 123°23'1436.2
2017-Jun-20 17:00N 46°10' W 123°03'0 0.3
2017-Jun-20 16:58N 46°10' W 123°03'211020.7
2017-Jun-20 16:57N 45°52' W 122°48'32264.4
2017-Jun-20 16:50N 46°12' W 123°23'0 0.0
2017-Jun-20 16:29N 46°12' W 123°23'141794.4
2017-Jun-20 16:28N 46°10' W 123°03'0 0.2
2017-Jun-20 16:27N 46°10' W 123°03'21500.2
2017-Jun-20 16:24N 45°52' W 122°48'0 0.0
2017-Jun-20 16:00N 45°52' W 122°48'212468.9
2017-Jun-20 16:00N 46°10' W 123°03'141046.8
2017-Jun-20 15:59N 46°12' W 123°23'142009.7
2017-Jun-20 15:58N 46°10' W 123°03'0 0.0
2017-Jun-20 15:30N 46°10' W 123°03'141025.4
2017-Jun-20 15:29N 46°12' W 123°23'141620.7
2017-Jun-20 15:28N 46°10' W 123°03'21176.8
2017-Jun-20 15:21N 45°52' W 122°48'0 0.0
2017-Jun-20 15:00N 45°52' W 122°48'212319.3
2017-Jun-20 15:00N 46°10' W 123°03'0 0.3
2017-Jun-20 14:58N 46°10' W 123°03'14202.6
2017-Jun-20 14:54N 46°12' W 123°23'1432.4
2017-Jun-20 14:28N 46°10' W 123°03'0 0.2
2017-Jun-20 14:27N 46°10' W 123°03'2148.0
2017-Jun-20 14:00N 45°52' W 122°48'32678.0
2017-Jun-20 13:57N 46°12' W 123°23'3270.8
2017-Jun-20 13:30N 45°52' W 122°48'212733.5
2017-Jun-20 13:30N 46°10' W 123°03'14351.4
2017-Jun-20 13:27N 46°12' W 123°23'14465.2
2017-Jun-20 13:25N 46°10' W 123°03'2150.3
2017-Jun-20 13:00N 45°52' W 122°48'32682.0
2017-Jun-20 12:57N 46°12' W 123°23'141358.0
2017-Jun-20 12:57N 46°10' W 123°03'0 0.1
2017-Jun-20 12:52N 46°10' W 123°03'2157.4
2017-Jun-20 12:30N 45°52' W 122°48'212733.5
2017-Jun-20 12:30N 46°10' W 123°03'14351.4
2017-Jun-20 12:27N 46°12' W 123°23'14106.2
2017-Jun-20 12:19N 46°10' W 123°03'2166.3
2017-Jun-20 12:00N 45°52' W 122°48'21722.2
2017-Jun-20 11:58N 46°10' W 123°03'14761.3
2017-Jun-20 11:57N 46°12' W 123°23'14125.9
2017-Jun-20 11:51N 46°10' W 123°03'2162.2
2017-Jun-20 11:30N 45°52' W 122°48'212551.2
2017-Jun-20 11:30N 46°10' W 123°03'0 0.3
2017-Jun-20 11:28N 46°10' W 123°03'14785.0
2017-Jun-20 11:27N 46°12' W 123°23'3270.7
2017-Jun-20 11:00N 45°52' W 122°48'212391.2
2017-Jun-20 11:00N 46°10' W 123°03'0 0.3
2017-Jun-20 10:58N 46°10' W 123°03'14749.9
2017-Jun-20 10:57N 46°12' W 123°23'3270.8
2017-Jun-20 10:30N 45°52' W 122°48'21750.5
2017-Jun-20 10:28N 46°10' W 123°03'14117.1
2017-Jun-20 10:21N 46°12' W 123°23'141522.6
2017-Jun-20 10:21N 46°10' W 123°03'2162.0
2017-Jun-20 10:00N 45°52' W 122°48'21270.4
2017-Jun-20 09:55N 46°10' W 123°03'0 0.1
2017-Jun-20 09:51N 46°10' W 123°03'14155.1
2017-Jun-20 09:45N 46°12' W 123°23'1453.5
2017-Jun-20 09:30N 46°10' W 123°03'14366.8
2017-Jun-20 09:27N 46°12' W 123°23'328232.8
2017-Jun-20 09:27N 45°52' W 122°48'21758.0
2017-Jun-20 09:25N 46°10' W 123°03'2150.4
2017-Jun-20 09:00N 45°52' W 122°48'21750.5
2017-Jun-20 08:58N 46°10' W 123°03'0 0.2
2017-Jun-20 08:57N 46°10' W 123°03'14155.6
2017-Jun-20 08:51N 46°12' W 123°23'3290.8
2017-Jun-20 08:30N 45°52' W 122°48'21369.7
2017-Jun-20 08:27N 46°10' W 123°03'0 0.1
2017-Jun-20 08:19N 46°10' W 123°03'14203.4
2017-Jun-20 08:15N 46°12' W 123°23'32126.7
2017-Jun-20 08:00N 45°52' W 122°48'213644.6
2017-Jun-20 08:00N 46°10' W 123°03'14332.8
2017-Jun-20 07:57N 46°12' W 123°23'14497.5
2017-Jun-20 07:56N 46°10' W 123°03'2150.3
2017-Jun-20 07:30N 45°52' W 122°48'21270.5
2017-Jun-20 07:26N 46°10' W 123°03'14198.6
2017-Jun-20 07:21N 46°12' W 123°23'141288.4
2017-Jun-20 07:21N 46°10' W 123°03'2162.3
2017-Jun-20 07:00N 45°52' W 122°48'32674.0
2017-Jun-20 06:57N 46°12' W 123°23'14452.6
2017-Jun-20 06:55N 46°10' W 123°03'0 0.2
2017-Jun-20 06:54N 46°10' W 123°03'2153.9
2017-Jun-20 06:30N 45°52' W 122°48'21271.4
2017-Jun-20 06:25N 46°10' W 123°03'0 0.1
2017-Jun-20 06:21N 46°10' W 123°03'14156.0
2017-Jun-20 06:15N 46°12' W 123°23'32127.1
2017-Jun-20 06:00N 45°52' W 122°48'212551.2
2017-Jun-20 06:00N 46°10' W 123°03'14356.4
2017-Jun-20 05:57N 46°12' W 123°23'1476.7
2017-Jun-20 05:46N 46°10' W 123°03'0 0.1
2017-Jun-20 05:29N 46°10' W 123°03'21955.8
2017-Jun-20 05:27N 45°52' W 122°48'21360.9
2017-Jun-20 05:24N 46°10' W 123°03'14356.4
2017-Jun-20 05:21N 46°12' W 123°23'1439.0
2017-Jun-20 05:00N 46°10' W 123°03'0 0.2
2017-Jun-20 04:58N 46°10' W 123°03'141256.1
2017-Jun-20 04:57N 46°12' W 123°23'32600.3
2017-Jun-20 04:54N 45°52' W 122°48'0 0.0
2017-Jun-20 04:30N 45°52' W 122°48'21361.0
2017-Jun-20 04:27N 46°10' W 123°03'0 0.2
2017-Jun-20 04:25N 46°10' W 123°03'1466.5
2017-Jun-20 04:12N 46°12' W 123°23'0 0.0
2017-Jun-20 04:00N 46°12' W 123°23'3211526.0
2017-Jun-20 04:00N 45°52' W 122°48'21584.4
2017-Jun-20 03:58N 46°10' W 123°03'0 0.3
2017-Jun-20 03:57N 46°10' W 123°03'2148.1
2017-Jun-20 03:30N 45°52' W 122°48'212551.2
2017-Jun-20 03:30N 46°10' W 123°03'14356.4
2017-Jun-20 03:27N 46°12' W 123°23'14155.6
2017-Jun-20 03:22N 46°10' W 123°03'2158.4
2017-Jun-20 03:00N 45°52' W 122°48'212551.2
2017-Jun-20 03:00N 46°10' W 123°03'0 0.2
2017-Jun-20 02:58N 46°10' W 123°03'141256.1
2017-Jun-20 02:57N 46°12' W 123°23'1426.0
2017-Jun-20 02:25N 46°10' W 123°03'0 0.3
2017-Jun-20 02:24N 46°10' W 123°03'0 0.0
2017-Jun-20 02:00N 46°10' W 123°03'0 0.2
2017-Jun-20 01:58N 46°10' W 123°03'211530.7
2017-Jun-20 01:57N 45°52' W 122°48'32161.0
2017-Jun-20 01:45N 46°12' W 123°23'1448.4
2017-Jun-20 01:28N 46°10' W 123°03'211531.1
2017-Jun-20 01:27N 45°52' W 122°48'21362.7
2017-Jun-20 01:24N 46°10' W 123°03'1458.6
2017-Jun-20 01:09N 46°12' W 123°23'0 0.0
2017-Jun-20 01:00N 46°12' W 123°23'3210478.2
2017-Jun-20 01:00N 45°52' W 122°48'21158.5
2017-Jun-20 00:52N 46°10' W 123°03'0 0.3
2017-Jun-20 00:51N 46°10' W 123°03'0 0.0
2017-Jun-20 00:30N 46°10' W 123°03'0 0.2
2017-Jun-20 00:28N 46°10' W 123°03'2167.3
2017-Jun-20 00:09N 45°52' W 122°48'32336.0
2017-Jun-20 00:03N 46°12' W 123°23'32603.5
2017-Jun-20 00:00N 45°52' W 122°48'21584.4
2017-Jun-19 23:58N 46°10' W 123°03'141225.4
2017-Jun-19 23:57N 46°12' W 123°23'14124.7
2017-Jun-19 23:51N 46°10' W 123°03'2162.3
2017-Jun-19 23:30N 45°52' W 122°48'212551.2
2017-Jun-19 23:30N 46°10' W 123°03'0 0.1
2017-Jun-19 23:25N 46°10' W 123°03'2151.7
2017-Jun-19 23:00N 45°52' W 122°48'212551.2
2017-Jun-19 23:00N 46°10' W 123°03'0 0.2
2017-Jun-19 22:58N 46°10' W 123°03'1433.9
2017-Jun-19 22:33N 46°12' W 123°23'32600.3
2017-Jun-19 22:30N 45°52' W 122°48'212551.2
2017-Jun-19 22:30N 46°10' W 123°03'14356.4
2017-Jun-19 22:27N 46°12' W 123°23'14161.0
2017-Jun-19 22:22N 46°10' W 123°03'0 0.0
2017-Jun-19 22:00N 46°10' W 123°03'21506.9
2017-Jun-19 21:57N 45°52' W 122°48'21584.4
2017-Jun-19 21:55N 46°10' W 123°03'14227.3
2017-Jun-19 21:51N 46°12' W 123°23'3290.8
2017-Jun-19 21:30N 45°52' W 122°48'212551.2
2017-Jun-19 21:30N 46°10' W 123°03'0 0.3
2017-Jun-19 21:29N 46°10' W 123°03'14707.7
2017-Jun-19 21:27N 46°12' W 123°23'3270.7
2017-Jun-19 21:00N 45°52' W 122°48'212468.9
2017-Jun-19 21:00N 46°10' W 123°03'14358.9
2017-Jun-19 20:57N 46°12' W 123°23'14177.5
2017-Jun-19 20:53N 46°10' W 123°03'2156.8
2017-Jun-19 20:30N 45°52' W 122°48'213644.6
2017-Jun-19 20:30N 46°10' W 123°03'0 0.3
2017-Jun-19 20:29N 46°10' W 123°03'2145.0
2017-Jun-19 20:00N 45°52' W 122°48'212551.2
2017-Jun-19 20:00N 46°10' W 123°03'0 0.0
2017-Jun-19 19:50N 46°10' W 123°03'1443.7
2017-Jun-19 19:30N 46°12' W 123°23'141288.4
2017-Jun-19 19:30N 46°10' W 123°03'0 0.2
2017-Jun-19 19:28N 46°10' W 123°03'211275.9
2017-Jun-19 19:27N 45°52' W 122°48'0 0.0
2017-Jun-19 19:00N 45°52' W 122°48'212551.2
2017-Jun-19 19:00N 46°10' W 123°03'0 0.2
2017-Jun-19 18:58N 46°10' W 123°03'1427.2
2017-Jun-19 18:27N 46°12' W 123°23'328866.1
2017-Jun-19 18:27N 45°52' W 122°48'21251.0
2017-Jun-19 18:22N 46°10' W 123°03'0 0.3
2017-Jun-19 18:21N 46°10' W 123°03'0 0.0
2017-Jun-19 18:00N 46°10' W 123°03'21506.9
2017-Jun-19 17:57N 45°52' W 122°48'32332.2
2017-Jun-19 17:51N 46°12' W 123°23'14369.4
2017-Jun-19 17:49N 46°10' W 123°03'2167.6
2017-Jun-19 17:30N 45°52' W 122°48'212319.3
2017-Jun-19 17:30N 46°10' W 123°03'0 0.2
2017-Jun-19 17:28N 46°10' W 123°03'141069.0
2017-Jun-19 17:27N 46°12' W 123°23'0 0.0
2017-Jun-19 17:00N 46°12' W 123°23'3211526.0
2017-Jun-19 17:00N 45°52' W 122°48'21369.7
2017-Jun-19 16:57N 46°10' W 123°03'0 0.1
2017-Jun-19 16:52N 46°10' W 123°03'0 0.0
2017-Jun-19 16:28N 46°10' W 123°03'0 0.1
2017-Jun-19 16:24N 46°10' W 123°03'21149.5
2017-Jun-19 16:15N 45°52' W 122°48'32686.0
2017-Jun-19 16:12N 46°12' W 123°23'0 0.0
2017-Jun-19 15:57N 46°12' W 123°23'141477.8
2017-Jun-19 15:57N 46°10' W 123°03'0 0.2
2017-Jun-19 15:55N 46°10' W 123°03'211319.9
2017-Jun-19 15:54N 45°52' W 122°48'0 0.0
2017-Jun-19 15:30N 45°52' W 122°48'212732.8
2017-Jun-19 15:30N 46°10' W 123°03'0 0.2
2017-Jun-19 15:28N 46°10' W 123°03'1453.2
2017-Jun-19 15:12N 46°12' W 123°23'32157.9
2017-Jun-19 15:00N 45°52' W 122°48'212391.8
2017-Jun-19 15:00N 46°10' W 123°03'14356.4
2017-Jun-19 14:57N 46°12' W 123°23'14161.6
2017-Jun-19 14:52N 46°10' W 123°03'2158.0
2017-Jun-19 14:30N 45°52' W 122°48'32686.1
2017-Jun-19 14:27N 46°12' W 123°23'14161.0
2017-Jun-19 14:22N 46°10' W 123°03'0 0.0
2017-Jun-19 13:57N 46°10' W 123°03'0 0.0
2017-Jun-19 13:30N 46°10' W 123°03'14353.8
2017-Jun-19 13:27N 46°12' W 123°23'3212806.6
2017-Jun-19 13:27N 45°52' W 122°48'21254.3
2017-Jun-19 13:22N 46°10' W 123°03'1438.6
2017-Jun-19 13:00N 46°12' W 123°23'328232.8
2017-Jun-19 13:00N 45°52' W 122°48'212551.2
2017-Jun-19 13:00N 46°10' W 123°03'0 0.0
2017-Jun-19 12:46N 46°10' W 123°03'1453.3
2017-Jun-19 12:30N 46°12' W 123°23'327684.0
2017-Jun-19 12:30N 45°52' W 122°48'212551.2
2017-Jun-19 12:30N 46°10' W 123°03'0 0.2
2017-Jun-19 12:28N 46°10' W 123°03'1430.1
2017-Jun-19 12:00N 46°12' W 123°23'141225.5
2017-Jun-19 12:00N 46°10' W 123°03'0 0.2
2017-Jun-19 11:58N 46°10' W 123°03'211255.0
2017-Jun-19 11:57N 45°52' W 122°48'1981.1
2017-Jun-19 11:43N 45°33' W 122°42'49233.1
2017-Jun-19 11:30N 46°12' W 123°23'3210476.9
2017-Jun-19 11:30N 45°52' W 122°48'212732.8
2017-Jun-19 11:30N 46°10' W 123°03'0 0.2
2017-Jun-19 11:28N 46°10' W 123°03'2145.5
2017-Jun-19 11:00N 45°52' W 122°48'21637.8
2017-Jun-19 10:58N 46°10' W 123°03'0 0.2
2017-Jun-19 10:57N 46°10' W 123°03'1473.8
2017-Jun-19 10:45N 46°12' W 123°23'0 0.0
2017-Jun-19 10:30N 46°12' W 123°23'329605.0
2017-Jun-19 10:30N 45°52' W 122°48'21648.8
2017-Jun-19 10:28N 46°10' W 123°03'0 0.0
2017-Jun-19 10:15N 46°10' W 123°03'2187.7
2017-Jun-19 10:00N 45°52' W 122°48'21643.2
2017-Jun-19 09:58N 46°10' W 123°03'14966.2
2017-Jun-19 09:57N 46°12' W 123°23'14392.6
2017-Jun-19 09:55N 46°10' W 123°03'1433.7
2017-Jun-19 09:30N 46°12' W 123°23'3216467.6
2017-Jun-19 09:30N 45°52' W 122°48'21622.4
2017-Jun-19 09:28N 46°10' W 123°03'021.6
2017-Jun-19 09:28N 46°10' W 123°03'40258.8
2017-Jun-19 09:19N 45°33' W 122°42'1962.0
2017-Jun-19 09:00N 45°52' W 122°48'21654.2
2017-Jun-19 08:58N 46°10' W 123°03'141004.9
2017-Jun-19 08:57N 46°12' W 123°23'14389.5
2017-Jun-19 08:55N 46°10' W 123°03'2150.9
2017-Jun-19 08:30N 45°52' W 122°48'21654.3
2017-Jun-19 08:28N 46°10' W 123°03'14948.0
2017-Jun-19 08:27N 46°12' W 123°23'14392.6
2017-Jun-19 08:25N 46°10' W 123°03'1433.7
2017-Jun-19 08:00N 46°12' W 123°23'14386.5
2017-Jun-19 07:58N 46°10' W 123°03'0 0.1
2017-Jun-19 07:55N 46°10' W 123°03'211297.6
2017-Jun-19 07:54N 45°52' W 122°48'19218.1
2017-Jun-19 07:49N 45°33' W 122°42'40116.2
2017-Jun-19 07:28N 46°10' W 123°03'14948.0
2017-Jun-19 07:27N 46°12' W 123°23'3214407.5
2017-Jun-19 07:27N 45°52' W 122°48'21256.9
2017-Jun-19 07:22N 46°10' W 123°03'40257.9
2017-Jun-19 07:13N 45°33' W 122°42'1991.3
2017-Jun-19 07:00N 45°52' W 122°48'21632.5
2017-Jun-19 06:58N 46°10' W 123°03'141004.9
2017-Jun-19 06:57N 46°12' W 123°23'14392.6
2017-Jun-19 06:55N 46°10' W 123°03'40194.5
2017-Jun-19 06:43N 45°33' W 122°42'1991.4
2017-Jun-19 06:30N 45°52' W 122°48'21659.8
2017-Jun-19 06:28N 46°10' W 123°03'0 0.1
2017-Jun-19 06:25N 46°10' W 123°03'14217.5
2017-Jun-19 06:21N 46°12' W 123°23'1432.1
2017-Jun-19 05:55N 46°10' W 123°03'010.8
2017-Jun-19 05:55N 46°10' W 123°03'211297.6
2017-Jun-19 05:54N 45°52' W 122°48'32129.4
2017-Jun-19 05:39N 46°12' W 123°23'32209.5
2017-Jun-19 05:30N 45°52' W 122°48'21648.6
2017-Jun-19 05:28N 46°10' W 123°03'0 0.1
2017-Jun-19 05:25N 46°10' W 123°03'408007.7
2017-Jun-19 05:25N 45°33' W 122°42'49304.5
2017-Jun-19 05:15N 46°12' W 123°23'1448.8
2017-Jun-19 04:58N 46°10' W 123°03'141004.9
2017-Jun-19 04:57N 46°12' W 123°23'14401.9
2017-Jun-19 04:55N 46°10' W 123°03'21313.8
2017-Jun-19 04:51N 45°52' W 122°48'0 0.0
2017-Jun-19 04:30N 45°52' W 122°48'21654.3
2017-Jun-19 04:28N 46°10' W 123°03'14948.0
2017-Jun-19 04:27N 46°12' W 123°23'1448.8
2017-Jun-19 04:10N 46°10' W 123°03'40728.0
2017-Jun-19 04:07N 45°33' W 122°42'19174.0
2017-Jun-19 04:00N 45°52' W 122°48'21627.4
2017-Jun-19 03:58N 46°10' W 123°03'141069.1
2017-Jun-19 03:57N 46°12' W 123°23'14103.0
2017-Jun-19 03:49N 46°10' W 123°03'2166.9
2017-Jun-19 03:30N 45°52' W 122°48'21671.5
2017-Jun-19 03:28N 46°10' W 123°03'14897.2
2017-Jun-19 03:27N 46°12' W 123°23'14389.5
2017-Jun-19 03:25N 46°10' W 123°03'0 0.0
2017-Jun-19 02:58N 46°10' W 123°03'0 7.2
2017-Jun-19 02:58N 46°10' W 123°03'14985.2
2017-Jun-19 02:57N 46°12' W 123°23'32158.1
2017-Jun-19 02:45N 45°52' W 122°48'2175.1
2017-Jun-19 02:28N 46°10' W 123°03'21316.2
2017-Jun-19 02:24N 45°52' W 122°48'21671.4
2017-Jun-19 02:22N 46°10' W 123°03'1444.2
2017-Jun-19 02:03N 46°12' W 123°23'14103.8
2017-Jun-19 01:55N 46°10' W 123°03'0 7.2
2017-Jun-19 01:55N 46°10' W 123°03'14221.4
2017-Jun-19 01:51N 46°12' W 123°23'32594.1
2017-Jun-19 01:48N 45°52' W 122°48'0 0.0
2017-Jun-19 01:30N 45°52' W 122°48'21665.7
2017-Jun-19 01:28N 46°10' W 123°03'14913.5
2017-Jun-19 01:27N 46°12' W 123°23'14389.5
2017-Jun-19 01:25N 46°10' W 123°03'2151.0
2017-Jun-19 01:00N 45°52' W 122°48'21890.2
2017-Jun-19 00:59N 46°10' W 123°03'0 0.7
2017-Jun-19 00:58N 46°10' W 123°03'141004.9
2017-Jun-19 00:57N 46°12' W 123°23'0 0.0
2017-Jun-19 00:30N 46°12' W 123°23'3211526.0
2017-Jun-19 00:30N 45°52' W 122°48'21880.0
2017-Jun-19 00:29N 46°10' W 123°03'0 0.6
2017-Jun-19 00:28N 46°10' W 123°03'2145.6
2017-Jun-19 00:00N 45°52' W 122°48'21870.0
2017-Jun-18 23:59N 46°10' W 123°03'0 0.0
2017-Jun-18 23:49N 46°10' W 123°03'0 0.0
2017-Jun-18 23:29N 46°10' W 123°03'0 0.6
2017-Jun-18 23:28N 46°10' W 123°03'211319.6
2017-Jun-18 23:27N 45°52' W 122°48'32327.4
2017-Jun-18 23:21N 46°12' W 123°23'3290.7
2017-Jun-18 23:00N 45°52' W 122°48'21671.4
2017-Jun-18 22:58N 46°10' W 123°03'0 5.4
2017-Jun-18 22:58N 46°10' W 123°03'1465.3
2017-Jun-18 22:45N 46°12' W 123°23'32126.2
2017-Jun-18 22:30N 45°52' W 122°48'21671.4
2017-Jun-18 22:28N 46°10' W 123°03'0 5.4
2017-Jun-18 22:28N 46°10' W 123°03'14985.2
2017-Jun-18 22:27N 46°12' W 123°23'3270.7
2017-Jun-18 22:00N 45°52' W 122°48'21161.4
2017-Jun-18 21:52N 46°10' W 123°03'0 0.1
2017-Jun-18 21:49N 46°10' W 123°03'2167.0
2017-Jun-18 21:30N 45°52' W 122°48'21648.6
2017-Jun-18 21:28N 46°10' W 123°03'0 0.1
2017-Jun-18 21:25N 46°10' W 123°03'14211.1
2017-Jun-18 21:21N 46°12' W 123°23'0 0.0
2017-Jun-18 21:00N 46°12' W 123°23'3212806.6
2017-Jun-18 21:00N 45°52' W 122°48'21260.4
2017-Jun-18 20:55N 46°10' W 123°03'010.8
2017-Jun-18 20:55N 46°10' W 123°03'2150.9
2017-Jun-18 20:30N 45°52' W 122°48'21689.7
2017-Jun-18 20:28N 46°10' W 123°03'14851.6
2017-Jun-18 20:27N 46°12' W 123°23'14392.6
2017-Jun-18 20:25N 46°10' W 123°03'1433.7
2017-Jun-18 20:00N 46°12' W 123°23'14534.5
2017-Jun-18 19:59N 46°10' W 123°03'0 0.6
2017-Jun-18 19:58N 46°10' W 123°03'211234.5
2017-Jun-18 19:57N 45°52' W 122°48'0 0.0
2017-Jun-18 19:30N 45°52' W 122°48'21632.4
2017-Jun-18 19:28N 46°10' W 123°03'0 0.1
2017-Jun-18 19:25N 46°10' W 123°03'14211.1
2017-Jun-18 19:21N 46°12' W 123°23'1436.4
2017-Jun-18 18:58N 46°10' W 123°03'0 2.7
2017-Jun-18 18:58N 46°10' W 123°03'141004.9
2017-Jun-18 18:57N 46°12' W 123°23'3211526.0
2017-Jun-18 18:57N 45°52' W 122°48'0 0.0
2017-Jun-18 18:30N 45°52' W 122°48'32678.0
2017-Jun-18 18:27N 46°12' W 123°23'14392.6
2017-Jun-18 18:25N 46°10' W 123°03'0 0.0
2017-Jun-18 18:16N 46°10' W 123°03'1452.6
2017-Jun-18 18:00N 46°12' W 123°23'328232.8
2017-Jun-18 18:00N 45°52' W 122°48'21262.2
2017-Jun-18 17:55N 46°10' W 123°03'0 5.4
2017-Jun-18 17:55N 46°10' W 123°03'2151.0
2017-Jun-18 17:30N 45°52' W 122°48'32690.2
2017-Jun-18 17:27N 46°12' W 123°23'14383.6
2017-Jun-18 17:25N 46°10' W 123°03'0 0.1
2017-Jun-18 17:22N 46°10' W 123°03'2157.6
2017-Jun-18 17:00N 45°52' W 122°48'21671.5
2017-Jun-18 16:58N 46°10' W 123°03'0 0.1
2017-Jun-18 16:55N 46°10' W 123°03'14219.4
2017-Jun-18 16:51N 46°12' W 123°23'3291.0
2017-Jun-18 16:30N 45°52' W 122°48'21665.7
2017-Jun-18 16:28N 46°10' W 123°03'0 3.1
2017-Jun-18 16:28N 46°10' W 123°03'14985.2
2017-Jun-18 16:27N 46°12' W 123°23'3270.7
2017-Jun-18 16:00N 45°52' W 122°48'21648.6
2017-Jun-18 15:58N 46°10' W 123°03'14966.3
2017-Jun-18 15:57N 46°12' W 123°23'14422.2
2017-Jun-18 15:55N 46°10' W 123°03'0 0.0
2017-Jun-18 15:28N 46°10' W 123°03'211093.7
2017-Jun-18 15:27N 45°52' W 122°48'21632.5
2017-Jun-18 15:25N 46°10' W 123°03'14966.3
2017-Jun-18 15:24N 46°12' W 123°23'0 0.0
2017-Jun-18 15:00N 46°12' W 123°23'14386.5
2017-Jun-18 14:58N 46°10' W 123°03'0 0.1
2017-Jun-18 14:55N 46°10' W 123°03'21125.7
2017-Jun-18 14:45N 45°52' W 122°48'3242.8
2017-Jun-18 14:00N 46°12' W 123°23'3211526.0
2017-Jun-18 14:00N 45°52' W 122°48'21702.3
2017-Jun-18 13:58N 46°10' W 123°03'0 2.0
2017-Jun-18 13:58N 46°10' W 123°03'1430.1
2017-Jun-18 13:30N 46°12' W 123°23'3212806.6
2017-Jun-18 13:30N 45°52' W 122°48'21265.8
2017-Jun-18 13:25N 46°10' W 123°03'0 0.1
2017-Jun-18 13:22N 46°10' W 123°03'1438.2
2017-Jun-18 13:00N 46°12' W 123°23'3212806.6
2017-Jun-18 13:00N 45°52' W 122°48'21689.7
2017-Jun-18 12:58N 46°10' W 123°03'0 0.1
2017-Jun-18 12:55N 46°10' W 123°03'0 0.0
2017-Jun-18 12:28N 46°10' W 123°03'0 0.1
2017-Jun-18 12:25N 46°10' W 123°03'141116.6
2017-Jun-18 12:24N 46°12' W 123°23'32594.1
2017-Jun-18 12:21N 45°52' W 122°48'3292.1
2017-Jun-18 12:00N 46°12' W 123°23'14425.8
2017-Jun-18 11:58N 46°10' W 123°03'021.6
2017-Jun-18 11:58N 46°10' W 123°03'21304.9
2017-Jun-18 11:54N 45°52' W 122°48'2149.5
2017-Jun-18 11:28N 46°10' W 123°03'0 0.1
2017-Jun-18 11:25N 46°10' W 123°03'1465.4
2017-Jun-18 11:12N 46°12' W 123°23'32594.1
2017-Jun-18 11:09N 45°52' W 122°48'32218.3
2017-Jun-18 11:00N 46°12' W 123°23'3212806.6
2017-Jun-18 11:00N 45°52' W 122°48'21708.9
2017-Jun-18 10:58N 46°10' W 123°03'0 1.7
2017-Jun-18 10:58N 46°10' W 123°03'1430.1
2017-Jun-18 10:30N 46°12' W 123°23'3210479.4
2017-Jun-18 10:30N 45°52' W 122°48'21643.2
2017-Jun-18 10:28N 46°10' W 123°03'0 0.0
2017-Jun-18 10:16N 46°10' W 123°03'1452.2
2017-Jun-18 10:00N 46°12' W 123°23'3210476.9
2017-Jun-18 10:00N 45°52' W 122°48'21648.5
2017-Jun-18 09:58N 46°10' W 123°03'0 0.1
2017-Jun-18 09:55N 46°10' W 123°03'2150.7
2017-Jun-18 09:30N 45°52' W 122°48'21266.7
2017-Jun-18 09:25N 46°10' W 123°03'0 2.2
2017-Jun-18 09:25N 46°10' W 123°03'1438.3
2017-Jun-18 09:03N 46°12' W 123°23'32609.8
2017-Jun-18 09:00N 45°52' W 122°48'32670.1
2017-Jun-18 08:57N 46°12' W 123°23'14429.4
2017-Jun-18 08:55N 46°10' W 123°03'0 1.8
2017-Jun-18 08:55N 46°10' W 123°03'0 0.0
2017-Jun-18 08:28N 46°10' W 123°03'14761.3
2017-Jun-18 08:27N 46°12' W 123°23'32609.8
2017-Jun-18 08:24N 45°52' W 122°48'21134.3
2017-Jun-18 08:15N 46°10' W 123°03'1458.5
2017-Jun-18 08:00N 46°12' W 123°23'329603.8
2017-Jun-18 08:00N 45°52' W 122°48'212834.0
2017-Jun-18 08:00N 46°10' W 123°03'0 0.3
2017-Jun-18 07:58N 46°10' W 123°03'2145.2
2017-Jun-18 07:30N 45°52' W 122°48'212638.6
2017-Jun-18 07:30N 46°10' W 123°03'0 0.3
2017-Jun-18 07:28N 46°10' W 123°03'14749.9
2017-Jun-18 07:27N 46°12' W 123°23'3270.8
2017-Jun-18 07:00N 45°52' W 122°48'212551.2
2017-Jun-18 07:00N 46°10' W 123°03'0 0.3
2017-Jun-18 06:58N 46°10' W 123°03'1452.1
2017-Jun-18 06:42N 46°12' W 123°23'0 0.0
2017-Jun-18 06:30N 46°12' W 123°23'3214405.7
2017-Jun-18 06:30N 45°52' W 122°48'212732.8
2017-Jun-18 06:30N 46°10' W 123°03'0 0.0
2017-Jun-18 06:16N 46°10' W 123°03'0 0.0
2017-Jun-18 05:58N 46°10' W 123°03'211034.5
2017-Jun-18 05:57N 45°52' W 122°48'32678.0
2017-Jun-18 05:54N 46°12' W 123°23'141322.3
2017-Jun-18 05:54N 46°10' W 123°03'2154.2
2017-Jun-18 05:30N 45°52' W 122°48'212551.2
2017-Jun-18 05:30N 46°10' W 123°03'0 0.3
2017-Jun-18 05:28N 46°10' W 123°03'14797.5
2017-Jun-18 05:27N 46°12' W 123°23'1429.0
2017-Jun-18 04:58N 46°10' W 123°03'14761.3
2017-Jun-18 04:57N 46°12' W 123°23'3212806.6
2017-Jun-18 04:57N 45°52' W 122°48'21364.5
2017-Jun-18 04:54N 46°10' W 123°03'0 0.0
2017-Jun-18 04:30N 46°10' W 123°03'0 0.3
2017-Jun-18 04:28N 46°10' W 123°03'21295.6
2017-Jun-18 04:24N 45°52' W 122°48'32108.0
2017-Jun-18 04:06N 46°12' W 123°23'14125.3
2017-Jun-18 04:00N 46°10' W 123°03'0 0.3
2017-Jun-18 03:58N 46°10' W 123°03'21994.2
2017-Jun-18 03:57N 45°52' W 122°48'32108.0
2017-Jun-18 03:39N 46°12' W 123°23'1453.5
2017-Jun-18 03:24N 46°10' W 123°03'0 0.0
2017-Jun-18 03:16N 46°10' W 123°03'0 0.0
2017-Jun-18 03:00N 46°10' W 123°03'0 0.3
2017-Jun-18 02:58N 46°10' W 123°03'14118.2
2017-Jun-18 02:51N 46°12' W 123°23'3290.6
2017-Jun-18 02:30N 45°52' W 122°48'212551.2
2017-Jun-18 02:30N 46°10' W 123°03'0 0.1
2017-Jun-18 02:25N 46°10' W 123°03'14202.6
2017-Jun-18 02:21N 46°12' W 123°23'1436.7
2017-Jun-18 01:58N 46°10' W 123°03'14707.7
2017-Jun-18 01:57N 46°12' W 123°23'3216465.7
2017-Jun-18 01:57N 45°52' W 122°48'212391.8
2017-Jun-18 01:57N 46°10' W 123°03'0 0.0
2017-Jun-18 01:30N 46°10' W 123°03'0 0.3
2017-Jun-18 01:28N 46°10' W 123°03'14749.9
2017-Jun-18 01:27N 46°12' W 123°23'3210478.2
2017-Jun-18 01:27N 45°52' W 122°48'3271.5
2017-Jun-18 01:00N 46°12' W 123°23'3214407.5
2017-Jun-18 01:00N 45°52' W 122°48'21743.3
2017-Jun-18 00:58N 46°10' W 123°03'0 0.0
2017-Jun-18 00:51N 46°10' W 123°03'2154.2
2017-Jun-18 00:27N 45°52' W 122°48'212733.5
2017-Jun-18 00:27N 46°10' W 123°03'0 0.3
2017-Jun-18 00:25N 46°10' W 123°03'1482.5
2017-Jun-18 00:15N 46°12' W 123°23'1449.7
2017-Jun-17 23:58N 46°10' W 123°03'14749.9
2017-Jun-17 23:57N 46°12' W 123°23'3211526.0
2017-Jun-17 23:57N 45°52' W 122°48'21366.2
2017-Jun-17 23:54N 46°10' W 123°03'2154.2
2017-Jun-17 23:30N 45°52' W 122°48'212639.2
2017-Jun-17 23:30N 46°10' W 123°03'0 0.3
2017-Jun-17 23:28N 46°10' W 123°03'14204.2
2017-Jun-17 23:24N 46°12' W 123°23'0 0.0
2017-Jun-17 23:00N 46°12' W 123°23'326780.0
2017-Jun-17 23:00N 45°52' W 122°48'21366.2
2017-Jun-17 22:57N 46°10' W 123°03'0 0.3
2017-Jun-17 22:55N 46°10' W 123°03'2150.5
2017-Jun-17 22:30N 45°52' W 122°48'21765.6
2017-Jun-17 22:28N 46°10' W 123°03'14697.9
2017-Jun-17 22:27N 46°12' W 123°23'141288.5
2017-Jun-17 22:27N 46°10' W 123°03'0 0.0
2017-Jun-17 22:00N 46°10' W 123°03'0 2.1
2017-Jun-17 21:58N 46°10' W 123°03'21293.0
2017-Jun-17 21:54N 45°52' W 122°48'32674.0
2017-Jun-17 21:51N 46°12' W 123°23'3290.9
2017-Jun-17 21:30N 45°52' W 122°48'212639.2
2017-Jun-17 21:30N 46°10' W 123°03'0 0.1
2017-Jun-17 21:23N 46°10' W 123°03'2155.9
2017-Jun-17 21:00N 45°52' W 122°48'212639.2
2017-Jun-17 21:00N 46°10' W 123°03'0 0.1
2017-Jun-17 20:53N 46°10' W 123°03'14108.5
2017-Jun-17 20:45N 46°12' W 123°23'32126.8
2017-Jun-17 20:30N 45°52' W 122°48'212551.2
2017-Jun-17 20:30N 46°10' W 123°03'0 0.5
2017-Jun-17 20:29N 46°10' W 123°03'14507.5
2017-Jun-17 20:27N 46°12' W 123°23'1430.3
2017-Jun-17 20:00N 46°10' W 123°03'14356.4
2017-Jun-17 19:57N 46°12' W 123°23'329606.1
2017-Jun-17 19:57N 45°52' W 122°48'21125.5
2017-Jun-17 19:47N 46°10' W 123°03'2175.9
2017-Jun-17 19:30N 45°52' W 122°48'211093.7
2017-Jun-17 19:29N 46°10' W 123°03'0 0.0
2017-Jun-17 19:21N 46°10' W 123°03'14154.6
2017-Jun-17 19:15N 46°12' W 123°23'1453.7
2017-Jun-17 19:00N 46°10' W 123°03'0 0.6
2017-Jun-17 18:59N 46°10' W 123°03'21677.5
2017-Jun-17 18:57N 45°52' W 122°48'32328.4
2017-Jun-17 18:51N 46°12' W 123°23'1438.7
2017-Jun-17 18:30N 46°10' W 123°03'14348.9
2017-Jun-17 18:27N 46°12' W 123°23'3219207.6
2017-Jun-17 18:27N 45°52' W 122°48'21814.2
2017-Jun-17 18:26N 46°10' W 123°03'2150.1
2017-Jun-17 18:00N 45°52' W 122°48'21797.5
2017-Jun-17 17:58N 46°10' W 123°03'0 0.1
2017-Jun-17 17:54N 46°10' W 123°03'2154.2
2017-Jun-17 17:30N 45°52' W 122°48'212834.7
2017-Jun-17 17:30N 46°10' W 123°03'0 0.3
2017-Jun-17 17:28N 46°10' W 123°03'1463.6
2017-Jun-17 17:15N 46°12' W 123°23'32126.7
2017-Jun-17 17:00N 45°52' W 122°48'21758.0
2017-Jun-17 16:58N 46°10' W 123°03'14717.8
2017-Jun-17 16:57N 46°12' W 123°23'141256.2
2017-Jun-17 16:57N 46°10' W 123°03'0 0.0
2017-Jun-17 16:30N 46°10' W 123°03'21520.7
2017-Jun-17 16:27N 45°52' W 122°48'21273.4
2017-Jun-17 16:22N 46°10' W 123°03'14116.0
2017-Jun-17 16:15N 46°12' W 123°23'1449.9
2017-Jun-17 15:58N 46°10' W 123°03'145582.6
2017-Jun-17 15:58N 46°12' W 123°23'14478.5
2017-Jun-17 15:57N 46°10' W 123°03'21524.2
2017-Jun-17 15:54N 45°52' W 122°48'0 0.0
2017-Jun-17 15:30N 45°52' W 122°48'212943.7
2017-Jun-17 15:30N 46°10' W 123°03'14256.4
2017-Jun-17 15:26N 46°12' W 123°23'14121.4
2017-Jun-17 15:19N 46°10' W 123°03'2165.9
2017-Jun-17 15:00N 45°52' W 122°48'212639.2
2017-Jun-17 15:00N 46°10' W 123°03'0 0.3
2017-Jun-17 14:59N 46°10' W 123°03'14401.9
2017-Jun-17 14:56N 46°12' W 123°23'3273.0
2017-Jun-17 14:30N 45°52' W 122°48'212639.2
2017-Jun-17 14:30N 46°10' W 123°03'1427.7
2017-Jun-17 13:59N 46°12' W 123°23'14120.8
2017-Jun-17 13:52N 46°10' W 123°03'1436.2
2017-Jun-17 13:29N 46°12' W 123°23'14930.4
2017-Jun-17 13:28N 46°10' W 123°03'0 0.2
2017-Jun-17 13:27N 46°10' W 123°03'2188.2
2017-Jun-17 13:12N 45°52' W 122°48'0 0.0
2017-Jun-17 13:00N 45°52' W 122°48'21797.5
2017-Jun-17 12:58N 46°10' W 123°03'0 0.1
2017-Jun-17 12:54N 46°10' W 123°03'14257.7
2017-Jun-17 12:50N 46°12' W 123°23'0 0.0
2017-Jun-17 12:29N 46°12' W 123°23'32841.3
2017-Jun-17 12:27N 45°52' W 122°48'21789.2
2017-Jun-17 12:25N 46°10' W 123°03'0 0.2
2017-Jun-17 12:24N 46°10' W 123°03'0 0.0
2017-Jun-17 11:59N 46°10' W 123°03'0 0.2
2017-Jun-17 11:57N 46°10' W 123°03'21149.2
2017-Jun-17 11:48N 45°52' W 122°48'32512.3
2017-Jun-17 11:44N 46°12' W 123°23'32134.8
2017-Jun-17 11:30N 45°52' W 122°48'212733.5
2017-Jun-17 11:30N 46°10' W 123°03'142791.5
2017-Jun-17 11:29N 46°12' W 123°23'14123.1
2017-Jun-17 11:23N 46°10' W 123°03'2156.9
2017-Jun-17 11:00N 45°52' W 122°48'21368.0
2017-Jun-17 10:57N 46°10' W 123°03'14259.0
2017-Jun-17 10:53N 46°12' W 123°23'14966.3
2017-Jun-17 10:53N 46°10' W 123°03'0 0.0
2017-Jun-17 10:30N 46°10' W 123°03'0 0.3
2017-Jun-17 10:29N 46°10' W 123°03'21911.4
2017-Jun-17 10:27N 45°52' W 122°48'322619.5
2017-Jun-17 10:26N 46°12' W 123°23'3273.2
2017-Jun-17 10:00N 45°52' W 122°48'322401.2
2017-Jun-17 09:59N 46°12' W 123°23'14123.1
2017-Jun-17 09:53N 46°10' W 123°03'0 0.2
2017-Jun-17 09:51N 46°10' W 123°03'0 0.0
2017-Jun-17 09:30N 46°10' W 123°03'142791.5
2017-Jun-17 09:29N 46°12' W 123°23'141025.4
2017-Jun-17 09:29N 46°10' W 123°03'21290.0
2017-Jun-17 09:24N 45°52' W 122°48'0 0.0
2017-Jun-17 09:00N 45°52' W 122°48'21797.5
2017-Jun-17 08:59N 46°10' W 123°03'0 0.0
2017-Jun-17 08:51N 46°10' W 123°03'1454.9
2017-Jun-17 08:35N 46°12' W 123°23'14121.9
2017-Jun-17 08:29N 46°10' W 123°03'21900.7
2017-Jun-17 08:27N 45°52' W 122°48'32510.1
2017-Jun-17 08:23N 46°12' W 123°23'14312.1
2017-Jun-17 08:21N 46°10' W 123°03'2162.0
2017-Jun-17 08:00N 45°52' W 122°48'212639.2
2017-Jun-17 08:00N 46°10' W 123°03'0 0.3
2017-Jun-17 07:59N 46°10' W 123°03'14380.6
2017-Jun-17 07:56N 46°12' W 123°23'0 0.0
2017-Jun-17 07:29N 46°12' W 123°23'32835.1
2017-Jun-17 07:27N 45°52' W 122°48'21831.9
2017-Jun-17 07:26N 46°10' W 123°03'0 0.1
2017-Jun-17 07:21N 46°10' W 123°03'1439.5
2017-Jun-17 06:59N 46°12' W 123°23'32847.5
2017-Jun-17 06:57N 45°52' W 122°48'212551.2
2017-Jun-17 06:57N 46°10' W 123°03'0 0.1
2017-Jun-17 06:53N 46°10' W 123°03'2156.8
2017-Jun-17 06:30N 45°52' W 122°48'322619.2
2017-Jun-17 06:29N 46°12' W 123°23'141025.4
2017-Jun-17 06:29N 46°10' W 123°03'0 0.1
2017-Jun-17 06:24N 46°10' W 123°03'2154.1
2017-Jun-17 06:00N 45°52' W 122°48'212834.7
2017-Jun-17 06:00N 46°10' W 123°03'142791.5
2017-Jun-17 05:59N 46°12' W 123°23'141168.4
2017-Jun-17 05:59N 46°10' W 123°03'0 0.0
2017-Jun-17 05:30N 46°10' W 123°03'0 0.3
2017-Jun-17 05:29N 46°10' W 123°03'21170.9
2017-Jun-17 05:21N 45°52' W 122°48'32516.9
2017-Jun-17 05:17N 46°12' W 123°23'1447.3
2017-Jun-17 05:00N 46°10' W 123°03'142644.6
2017-Jun-17 04:59N 46°12' W 123°23'32860.1
2017-Jun-17 04:57N 45°52' W 122°48'21832.1
2017-Jun-17 04:56N 46°10' W 123°03'0 0.0
2017-Jun-17 04:30N 46°10' W 123°03'0 0.3
2017-Jun-17 04:29N 46°10' W 123°03'21121.9
2017-Jun-17 04:18N 45°52' W 122°48'322452.3
2017-Jun-17 04:17N 46°12' W 123°23'1447.4
2017-Jun-17 04:00N 46°10' W 123°03'142955.7
2017-Jun-17 03:59N 46°12' W 123°23'141069.0
2017-Jun-17 03:59N 46°10' W 123°03'21286.7
2017-Jun-17 03:54N 45°52' W 122°48'0 0.0
2017-Jun-17 03:30N 45°52' W 122°48'212733.5
2017-Jun-17 03:30N 46°10' W 123°03'0 0.3
2017-Jun-17 03:29N 46°10' W 123°03'1474.9
2017-Jun-17 03:17N 46°12' W 123°23'1444.6
2017-Jun-17 02:59N 46°10' W 123°03'0 0.2
2017-Jun-17 02:57N 46°10' W 123°03'21503.4
2017-Jun-17 02:54N 45°52' W 122°48'32283.9
2017-Jun-17 02:47N 46°12' W 123°23'32111.3
2017-Jun-17 02:30N 45°52' W 122°48'212733.5
2017-Jun-17 02:30N 46°10' W 123°03'143589.0
2017-Jun-17 02:29N 46°12' W 123°23'141092.2
2017-Jun-17 02:29N 46°10' W 123°03'2144.7
2017-Jun-17 02:00N 45°52' W 122°48'212551.2
2017-Jun-17 02:00N 46°10' W 123°03'143865.1
2017-Jun-17 01:59N 46°12' W 123°23'141069.0
2017-Jun-17 01:59N 46°10' W 123°03'1428.7
2017-Jun-17 01:29N 46°12' W 123°23'141004.9
2017-Jun-17 01:29N 46°10' W 123°03'0 0.1
2017-Jun-17 01:24N 46°10' W 123°03'0 0.0
2017-Jun-17 01:00N 46°10' W 123°03'0 0.1
2017-Jun-17 00:56N 46°10' W 123°03'2194.2
2017-Jun-17 00:42N 45°52' W 122°48'322744.3
2017-Jun-17 00:41N 46°12' W 123°23'32170.5
2017-Jun-17 00:30N 45°52' W 122°48'322561.3
2017-Jun-17 00:29N 46°12' W 123°23'141119.8
2017-Jun-17 00:29N 46°10' W 123°03'0 0.5
2017-Jun-17 00:24N 46°10' W 123°03'2154.2
2017-Jun-17 00:00N 45°52' W 122°48'322561.3
2017-Jun-16 23:59N 46°12' W 123°23'141196.3
2017-Jun-16 23:59N 46°10' W 123°03'0 0.1
2017-Jun-16 23:54N 46°10' W 123°03'2154.2
2017-Jun-16 23:30N 45°52' W 122°48'212639.2
2017-Jun-16 23:30N 46°10' W 123°03'142955.7
2017-Jun-16 23:29N 46°12' W 123°23'141141.9
2017-Jun-16 23:29N 46°10' W 123°03'2144.8
2017-Jun-16 23:00N 45°52' W 122°48'21170.1
2017-Jun-16 22:53N 46°10' W 123°03'14369.4
2017-Jun-16 22:50N 46°12' W 123°23'14308.3
2017-Jun-16 22:48N 46°10' W 123°03'0 0.0
2017-Jun-16 22:30N 46°10' W 123°03'142955.7
2017-Jun-16 22:29N 46°12' W 123°23'1486.2
2017-Jun-16 22:20N 46°10' W 123°03'21832.1
2017-Jun-16 22:18N 45°52' W 122°48'2169.0
2017-Jun-16 22:00N 46°10' W 123°03'143865.1
2017-Jun-16 21:59N 46°12' W 123°23'14222.3
2017-Jun-16 21:56N 46°10' W 123°03'21284.6
2017-Jun-16 21:51N 45°52' W 122°48'0 0.0
2017-Jun-16 21:30N 45°52' W 122°48'212943.7
2017-Jun-16 21:30N 46°10' W 123°03'142512.3
2017-Jun-16 21:29N 46°12' W 123°23'141256.1
2017-Jun-16 21:29N 46°10' W 123°03'1428.6
2017-Jun-16 20:59N 46°12' W 123°23'14304.5
2017-Jun-16 20:57N 46°10' W 123°03'0 0.4
2017-Jun-16 20:56N 46°10' W 123°03'21169.0
2017-Jun-16 20:48N 45°52' W 122°48'0 0.0
2017-Jun-16 20:30N 45°52' W 122°48'212733.5
2017-Jun-16 20:30N 46°10' W 123°03'143140.4
2017-Jun-16 20:29N 46°12' W 123°23'141196.3
2017-Jun-16 20:29N 46°10' W 123°03'40109.9
2017-Jun-16 20:07N 45°33' W 122°42'19174.9
2017-Jun-16 20:00N 45°52' W 122°48'322505.6
2017-Jun-16 19:59N 46°12' W 123°23'141168.4
2017-Jun-16 19:59N 46°10' W 123°03'0 0.2
2017-Jun-16 19:57N 46°10' W 123°03'401322.4
2017-Jun-16 19:55N 45°33' W 122°42'4095.4
2017-Jun-16 19:30N 46°10' W 123°03'143349.8
2017-Jun-16 19:29N 46°12' W 123°23'1465.9
2017-Jun-16 19:17N 46°10' W 123°03'0 0.0
2017-Jun-16 18:59N 46°10' W 123°03'14377.8
2017-Jun-16 18:56N 46°12' W 123°23'14304.5
2017-Jun-16 18:54N 46°10' W 123°03'2172.6
2017-Jun-16 18:36N 45°52' W 122°48'0 0.0
2017-Jun-16 18:30N 45°52' W 122°48'212551.2
2017-Jun-16 18:30N 46°10' W 123°03'14257.7
2017-Jun-16 18:26N 46°12' W 123°23'14224.3
2017-Jun-16 18:23N 46°10' W 123°03'40244.8
2017-Jun-16 18:13N 45°33' W 122°42'49221.7
2017-Jun-16 18:00N 46°12' W 123°23'14279.1
2017-Jun-16 17:57N 46°10' W 123°03'21110.4
2017-Jun-16 17:45N 45°52' W 122°48'19500.6
2017-Jun-16 17:43N 45°33' W 122°42'40477.3
2017-Jun-16 17:38N 46°10' W 123°03'21167.2
2017-Jun-16 17:30N 45°52' W 122°48'19218.8
2017-Jun-16 17:25N 45°33' W 122°42'402058.8
2017-Jun-16 17:24N 46°10' W 123°03'143140.4
2017-Jun-16 17:23N 46°12' W 123°23'141196.3
2017-Jun-16 17:23N 46°10' W 123°03'2156.5
2017-Jun-16 17:00N 45°52' W 122°48'21890.2
2017-Jun-16 16:59N 46°10' W 123°03'0 0.2
2017-Jun-16 16:57N 46°10' W 123°03'401334.4
2017-Jun-16 16:55N 45°33' W 122°42'492035.9
2017-Jun-16 16:53N 46°12' W 123°23'3282.7
2017-Jun-16 16:30N 45°52' W 122°48'212391.8
2017-Jun-16 16:30N 46°10' W 123°03'143865.1
2017-Jun-16 16:29N 46°12' W 123°23'14225.3
2017-Jun-16 16:26N 46°10' W 123°03'40349.9
2017-Jun-16 16:19N 45°33' W 122°42'40125.4
2017-Jun-16 16:00N 46°10' W 123°03'142955.7
2017-Jun-16 15:59N 46°12' W 123°23'32367.1
2017-Jun-16 15:54N 45°52' W 122°48'21900.7
2017-Jun-16 15:53N 46°10' W 123°03'40616.1
2017-Jun-16 15:49N 45°33' W 122°42'1962.0
2017-Jun-16 15:30N 45°52' W 122°48'213060.7
2017-Jun-16 15:30N 46°10' W 123°03'14253.8
2017-Jun-16 15:26N 46°12' W 123°23'49385.7
2017-Jun-16 15:19N 45°33' W 122°42'40468.0
2017-Jun-16 15:14N 46°10' W 123°03'2193.9
2017-Jun-16 15:00N 45°52' W 122°48'212834.7
2017-Jun-16 15:00N 46°10' W 123°03'142644.6
2017-Jun-16 14:59N 46°12' W 123°23'141395.6
2017-Jun-16 14:59N 46°10' W 123°03'40151.1
2017-Jun-16 14:43N 45°33' W 122°42'40181.7
2017-Jun-16 14:30N 46°10' W 123°03'0 0.1
2017-Jun-16 14:26N 46°10' W 123°03'21279.4
2017-Jun-16 14:21N 45°52' W 122°48'3269.3
2017-Jun-16 13:53N 46°12' W 123°23'49636.8
2017-Jun-16 13:49N 45°33' W 122°42'1962.0
2017-Jun-16 13:30N 45°52' W 122°48'212733.5
2017-Jun-16 13:30N 46°10' W 123°03'40497.0
2017-Jun-16 13:25N 45°33' W 122°42'492012.7
2017-Jun-16 13:23N 46°12' W 123°23'141395.6
2017-Jun-16 13:23N 46°10' W 123°03'2156.3
2017-Jun-16 13:00N 45°52' W 122°48'212834.7
2017-Jun-16 13:00N 46°10' W 123°03'142644.6
2017-Jun-16 12:59N 46°12' W 123°23'141322.2
2017-Jun-16 12:59N 46°10' W 123°03'40242.7
2017-Jun-16 12:49N 45°33' W 122°42'1962.1
2017-Jun-16 12:30N 45°52' W 122°48'212551.2
2017-Jun-16 12:30N 46°10' W 123°03'142955.7
2017-Jun-16 12:29N 46°12' W 123°23'14230.5
2017-Jun-16 12:26N 46°10' W 123°03'40347.3
2017-Jun-16 12:19N 45°33' W 122°42'1962.1
2017-Jun-16 12:00N 45°52' W 122°48'21900.7
2017-Jun-16 11:59N 46°10' W 123°03'0 0.2
2017-Jun-16 11:57N 46°10' W 123°03'143349.8
2017-Jun-16 11:56N 46°12' W 123°23'491843.1
2017-Jun-16 11:55N 45°33' W 122°42'1947.0
2017-Jun-16 11:30N 45°52' W 122°48'212834.7
2017-Jun-16 11:30N 46°10' W 123°03'0 0.4
2017-Jun-16 11:29N 46°10' W 123°03'1458.3
2017-Jun-16 11:14N 46°12' W 123°23'491862.7
2017-Jun-16 11:13N 45°33' W 122°42'40182.2
2017-Jun-16 11:00N 46°10' W 123°03'142955.7
2017-Jun-16 10:59N 46°12' W 123°23'32866.5
2017-Jun-16 10:57N 45°52' W 122°48'21922.1
2017-Jun-16 10:56N 46°10' W 123°03'402772.3
2017-Jun-16 10:55N 45°33' W 122°42'1946.9
2017-Jun-16 10:30N 45°52' W 122°48'212468.9
2017-Jun-16 10:30N 46°10' W 123°03'0 0.4
2017-Jun-16 10:29N 46°10' W 123°03'40610.8
2017-Jun-16 10:25N 45°33' W 122°42'492012.7
2017-Jun-16 10:23N 46°12' W 123°23'0 0.0
2017-Jun-16 09:59N 46°12' W 123°23'141477.7
2017-Jun-16 09:59N 46°10' W 123°03'21765.6
2017-Jun-16 09:57N 45°52' W 122°48'212834.7
2017-Jun-16 09:57N 46°10' W 123°03'40120.9
2017-Jun-16 09:37N 45°33' W 122°42'19173.6
2017-Jun-16 09:30N 45°52' W 122°48'21945.1
2017-Jun-16 09:29N 46°10' W 123°03'0 0.2
2017-Jun-16 09:27N 46°10' W 123°03'401310.2
2017-Jun-16 09:25N 45°33' W 122°42'492012.5
2017-Jun-16 09:23N 46°12' W 123°23'1435.3
2017-Jun-16 09:00N 46°10' W 123°03'142955.7
2017-Jun-16 08:59N 46°12' W 123°23'32866.6
2017-Jun-16 08:57N 45°52' W 122°48'21292.2
2017-Jun-16 08:53N 46°10' W 123°03'40241.9
2017-Jun-16 08:43N 45°33' W 122°42'1991.1
2017-Jun-16 08:30N 45°52' W 122°48'212551.2
2017-Jun-16 08:30N 46°10' W 123°03'14257.7
2017-Jun-16 08:26N 46°12' W 123°23'141395.7
2017-Jun-16 08:26N 46°10' W 123°03'402573.9
2017-Jun-16 08:25N 45°33' W 122°42'1947.0
2017-Jun-16 08:00N 45°52' W 122°48'21981.5
2017-Jun-16 07:59N 46°10' W 123°03'0 0.2
2017-Jun-16 07:57N 46°10' W 123°03'401287.0
2017-Jun-16 07:55N 45°33' W 122°42'492084.6
2017-Jun-16 07:53N 46°12' W 123°23'3282.4
2017-Jun-16 07:30N 45°52' W 122°48'212834.7
2017-Jun-16 07:30N 46°10' W 123°03'0 0.4
2017-Jun-16 07:29N 46°10' W 123°03'40608.3
2017-Jun-16 07:25N 45°33' W 122°42'49216.7
2017-Jun-16 07:11N 46°12' W 123°23'32171.0
2017-Jun-16 07:00N 45°52' W 122°48'322680.5
2017-Jun-16 06:59N 46°12' W 123°23'141357.9
2017-Jun-16 06:59N 46°10' W 123°03'0 0.2
2017-Jun-16 06:57N 46°10' W 123°03'40121.4
2017-Jun-16 06:37N 45°33' W 122°42'19172.3
2017-Jun-16 06:30N 45°52' W 122°48'212943.7
2017-Jun-16 06:30N 46°10' W 123°03'142644.6
2017-Jun-16 06:29N 46°12' W 123°23'141477.7
2017-Jun-16 06:29N 46°10' W 123°03'40603.1
2017-Jun-16 06:25N 45°33' W 122°42'1947.0
2017-Jun-16 06:00N 45°52' W 122°48'212733.5
2017-Jun-16 06:00N 46°10' W 123°03'0 0.4
2017-Jun-16 05:59N 46°10' W 123°03'14154.1
2017-Jun-16 05:53N 46°12' W 123°23'49641.4
2017-Jun-16 05:49N 45°33' W 122°42'40125.3
2017-Jun-16 05:30N 46°10' W 123°03'0 0.4
2017-Jun-16 05:29N 46°10' W 123°03'21743.3
2017-Jun-16 05:27N 45°52' W 122°48'322881.5
2017-Jun-16 05:26N 46°12' W 123°23'49383.2
2017-Jun-16 05:19N 45°33' W 122°42'40108.5
2017-Jun-16 04:57N 46°10' W 123°03'0 1.0
2017-Jun-16 04:56N 46°10' W 123°03'401583.9
2017-Jun-16 04:55N 45°33' W 122°42'491989.7
2017-Jun-16 04:53N 46°12' W 123°23'32369.4
2017-Jun-16 04:48N 45°52' W 122°48'0 0.0
2017-Jun-16 04:30N 45°52' W 122°48'212391.8
2017-Jun-16 04:30N 46°10' W 123°03'0 1.1
2017-Jun-16 04:29N 46°10' W 123°03'14292.1
2017-Jun-16 04:26N 46°12' W 123°23'491824.0
2017-Jun-16 04:25N 45°33' W 122°42'4094.1
2017-Jun-16 03:59N 46°10' W 123°03'0 0.1
2017-Jun-16 03:57N 46°10' W 123°03'21510.1
2017-Jun-16 03:54N 45°52' W 122°48'32503.3
2017-Jun-16 03:50N 46°12' W 123°23'1440.5
2017-Jun-16 03:30N 46°10' W 123°03'142512.3
2017-Jun-16 03:29N 46°12' W 123°23'1416747.7
2017-Jun-16 03:29N 46°10' W 123°03'21593.5
2017-Jun-16 03:27N 45°52' W 122°48'1957.0
2017-Jun-16 03:07N 45°33' W 122°42'19173.5
2017-Jun-16 03:00N 45°52' W 122°48'212639.2
2017-Jun-16 03:00N 46°10' W 123°03'0 1.1
2017-Jun-16 02:59N 46°10' W 123°03'40531.9
2017-Jun-16 02:55N 45°33' W 122°42'492035.9
2017-Jun-16 02:53N 46°12' W 123°23'1434.9
2017-Jun-16 02:29N 46°10' W 123°03'21558.7
2017-Jun-16 02:27N 45°52' W 122°48'212732.8
2017-Jun-16 02:27N 46°10' W 123°03'144187.2
2017-Jun-16 02:26N 46°12' W 123°23'491843.1
2017-Jun-16 02:25N 45°33' W 122°42'1946.9
2017-Jun-16 02:00N 45°52' W 122°48'212639.2
2017-Jun-16 02:00N 46°10' W 123°03'0 0.1
2017-Jun-16 01:56N 46°10' W 123°03'401566.7
2017-Jun-16 01:55N 45°33' W 122°42'49280.1
2017-Jun-16 01:44N 46°12' W 123°23'32135.0
2017-Jun-16 01:30N 45°52' W 122°48'212551.2
2017-Jun-16 01:30N 46°10' W 123°03'142791.5
2017-Jun-16 01:29N 46°12' W 123°23'14138.8
2017-Jun-16 01:23N 46°10' W 123°03'40532.0
2017-Jun-16 01:19N 45°33' W 122°42'1962.1
2017-Jun-16 01:00N 45°52' W 122°48'211531.1
2017-Jun-16 00:59N 46°10' W 123°03'0 0.1
2017-Jun-16 00:57N 46°10' W 123°03'401322.4
2017-Jun-16 00:55N 45°33' W 122°42'492135.5
2017-Jun-16 00:53N 46°12' W 123°23'1431.2
2017-Jun-16 00:27N 46°10' W 123°03'144187.2
2017-Jun-16 00:26N 46°12' W 123°23'148373.9
2017-Jun-16 00:26N 46°10' W 123°03'401619.5
2017-Jun-16 00:25N 45°33' W 122°42'19172.7
2017-Jun-16 00:18N 45°52' W 122°48'0 0.0
2017-Jun-16 00:00N 45°52' W 122°48'322619.5
2017-Jun-15 23:59N 46°12' W 123°23'14312.1
2017-Jun-15 23:57N 46°10' W 123°03'401287.0
2017-Jun-15 23:55N 45°33' W 122°42'401619.8
2017-Jun-15 23:53N 46°10' W 123°03'2155.0
2017-Jun-15 23:30N 45°52' W 122°48'212733.5
2017-Jun-15 23:30N 46°10' W 123°03'14256.4
2017-Jun-15 23:26N 46°12' W 123°23'1425121.6
2017-Jun-15 23:26N 46°10' W 123°03'40317.5
2017-Jun-15 23:19N 45°33' W 122°42'1962.1
2017-Jun-15 23:00N 45°52' W 122°48'322452.0
2017-Jun-15 22:59N 46°12' W 123°23'14279.1
2017-Jun-15 22:56N 46°10' W 123°03'401584.2
2017-Jun-15 22:55N 45°33' W 122°42'40567.5
2017-Jun-15 22:51N 46°10' W 123°03'2162.3
2017-Jun-15 22:30N 45°52' W 122°48'211664.3
2017-Jun-15 22:29N 46°10' W 123°03'14282.3
2017-Jun-15 22:26N 46°12' W 123°23'14302.7
2017-Jun-15 22:24N 46°10' W 123°03'40497.0
2017-Jun-15 22:19N 45°33' W 122°42'1962.0
2017-Jun-15 22:00N 45°52' W 122°48'212834.7
2017-Jun-15 22:00N 46°10' W 123°03'143349.8
2017-Jun-15 21:59N 46°12' W 123°23'1416747.7
2017-Jun-15 21:59N 46°10' W 123°03'40228.1
2017-Jun-15 21:49N 45°33' W 122°42'1962.0
2017-Jun-15 21:30N 45°52' W 122°48'19218.9
2017-Jun-15 21:25N 45°33' W 122°42'402059.1
2017-Jun-15 21:24N 46°10' W 123°03'143589.0
2017-Jun-15 21:23N 46°12' W 123°23'14276.1
2017-Jun-15 21:20N 46°10' W 123°03'2163.0
2017-Jun-15 21:00N 45°52' W 122°48'212943.7
2017-Jun-15 21:00N 46°10' W 123°03'0 0.1
2017-Jun-15 20:56N 46°10' W 123°03'14279.1
2017-Jun-15 20:53N 46°12' W 123°23'0 0.0
2017-Jun-15 20:29N 46°12' W 123°23'1412561.6
2017-Jun-15 20:29N 46°10' W 123°03'21243.0
2017-Jun-15 20:24N 45°52' W 122°48'21368.0
2017-Jun-15 20:21N 46°10' W 123°03'0 0.0
2017-Jun-15 20:00N 46°10' W 123°03'142955.7
2017-Jun-15 19:59N 46°12' W 123°23'32853.8
2017-Jun-15 19:57N 45°52' W 122°48'21343.3
2017-Jun-15 19:53N 46°10' W 123°03'40106.4
2017-Jun-15 19:31N 45°33' W 122°42'476300.0
2017-Jun-15 19:30N 46°11' W 123°22'317882.4
2017-Jun-15 19:30N 45°52' W 122°48'212468.9
2017-Jun-15 19:30N 46°10' W 123°03'0 1.4
2017-Jun-15 19:29N 46°10' W 123°03'40145.2
2017-Jun-15 19:13N 45°33' W 122°42'1991.5
2017-Jun-15 19:00N 45°52' W 122°48'212733.5
2017-Jun-15 19:00N 46°10' W 123°03'9444.0
2017-Jun-15 18:58N 46°09' W 123°16'9250.2
2017-Jun-15 18:56N 46°10' W 123°03'40317.5
2017-Jun-15 18:49N 45°33' W 122°42'45147.4
2017-Jun-15 18:30N 46°09' W 123°22'295216.5
2017-Jun-15 18:30N 45°52' W 122°48'212551.2
2017-Jun-15 18:30N 46°10' W 123°03'0 0.1
2017-Jun-15 18:26N 46°10' W 123°03'40176.9
2017-Jun-15 18:13N 45°33' W 122°42'51237.7
2017-Jun-15 18:00N 46°14' W 123°26'163617.2
2017-Jun-15 18:00N 46°10' W 123°03'0 1.1
2017-Jun-15 17:59N 46°10' W 123°03'21154.3
2017-Jun-15 17:51N 45°52' W 122°48'19141.2
2017-Jun-15 17:43N 45°33' W 122°42'40181.1
2017-Jun-15 17:30N 46°10' W 123°03'0 0.5
2017-Jun-15 17:29N 46°10' W 123°03'191303.6
2017-Jun-15 17:28N 46°16' W 123°29'372404.1
2017-Jun-15 17:27N 45°52' W 122°48'0 0.0
2017-Jun-15 17:00N 45°52' W 122°48'212834.7
2017-Jun-15 17:00N 46°10' W 123°03'181870.1
2017-Jun-15 16:59N 46°16' W 123°27'18172.8
2017-Jun-15 16:53N 46°10' W 123°03'2155.9
2017-Jun-15 16:30N 45°52' W 122°48'377065.1
2017-Jun-15 16:30N 46°15' W 123°29'191255.5
2017-Jun-15 16:29N 46°10' W 123°03'0 0.1
2017-Jun-15 16:24N 46°10' W 123°03'0 0.0
2017-Jun-15 16:00N 46°10' W 123°03'21510.2
2017-Jun-15 15:57N 45°52' W 122°48'321440.7
2017-Jun-15 15:56N 46°12' W 123°23'14288.8
2017-Jun-15 15:53N 46°10' W 123°03'2156.0
2017-Jun-15 15:30N 45°52' W 122°48'212638.6
2017-Jun-15 15:30N 46°10' W 123°03'0 0.5
2017-Jun-15 15:29N 46°10' W 123°03'14265.8
2017-Jun-15 15:26N 46°12' W 123°23'3274.9
2017-Jun-15 15:00N 45°52' W 122°48'212733.5
2017-Jun-15 15:00N 46°10' W 123°03'0 0.5
2017-Jun-15 14:59N 46°10' W 123°03'148373.9
2017-Jun-15 14:59N 46°12' W 123°23'3267.0
2017-Jun-15 14:30N 45°52' W 122°48'21368.0
2017-Jun-15 14:27N 46°10' W 123°03'0 0.5
2017-Jun-15 14:26N 46°10' W 123°03'1430.8
2017-Jun-15 13:59N 46°12' W 123°23'1428.7
2017-Jun-15 13:30N 46°10' W 123°03'0 0.5
2017-Jun-15 13:29N 46°10' W 123°03'145582.6
2017-Jun-15 13:29N 46°12' W 123°23'321152.6
2017-Jun-15 13:27N 45°52' W 122°48'2146.5
2017-Jun-15 13:00N 46°10' W 123°03'21503.5
2017-Jun-15 12:57N 45°52' W 122°48'21308.7
2017-Jun-15 12:53N 46°10' W 123°03'144186.9
2017-Jun-15 12:53N 46°12' W 123°23'3284.8
2017-Jun-15 12:30N 45°52' W 122°48'212391.8
2017-Jun-15 12:30N 46°10' W 123°03'0 0.1
2017-Jun-15 12:26N 46°10' W 123°03'14137.3
2017-Jun-15 12:20N 46°12' W 123°23'3297.3
2017-Jun-15 12:00N 45°52' W 122°48'212733.5
2017-Jun-15 12:00N 46°10' W 123°03'0 0.5
2017-Jun-15 11:59N 46°10' W 123°03'14135.4
2017-Jun-15 11:53N 46°12' W 123°23'3285.1
2017-Jun-15 11:30N 45°52' W 122°48'212550.6
2017-Jun-15 11:30N 46°10' W 123°03'0 0.1
2017-Jun-15 11:26N 46°10' W 123°03'1410048.6
2017-Jun-15 11:26N 46°12' W 123°23'3274.5
2017-Jun-15 11:00N 45°52' W 122°48'212733.5
2017-Jun-15 11:00N 46°10' W 123°03'0 0.6
2017-Jun-15 10:59N 46°10' W 123°03'144186.9
2017-Jun-15 10:59N 46°12' W 123°23'3266.9
2017-Jun-15 10:30N 45°52' W 122°48'212834.7
2017-Jun-15 10:30N 46°10' W 123°03'0 0.5
2017-Jun-15 10:29N 46°10' W 123°03'14263.1
2017-Jun-15 10:26N 46°12' W 123°23'3274.9
2017-Jun-15 10:00N 45°52' W 122°48'213061.5
2017-Jun-15 10:00N 46°10' W 123°03'14213.8
2017-Jun-15 09:56N 46°12' W 123°23'14144.4
2017-Jun-15 09:50N 46°10' W 123°03'2164.2
2017-Jun-15 09:30N 45°52' W 122°48'211159.9
2017-Jun-15 09:29N 46°10' W 123°03'143864.9
2017-Jun-15 09:29N 46°12' W 123°23'14386.5
2017-Jun-15 09:27N 46°10' W 123°03'2148.1
2017-Jun-15 09:00N 45°52' W 122°48'213061.5
2017-Jun-15 09:00N 46°10' W 123°03'0 0.1
2017-Jun-15 08:56N 46°10' W 123°03'143588.8
2017-Jun-15 08:56N 46°12' W 123°23'3274.9
2017-Jun-15 08:30N 45°52' W 122°48'211159.7
2017-Jun-15 08:29N 46°10' W 123°03'144187.5
2017-Jun-15 08:29N 46°12' W 123°23'14162.6
2017-Jun-15 08:24N 46°10' W 123°03'2154.2
2017-Jun-15 08:00N 45°52' W 122°48'212733.5
2017-Jun-15 08:00N 46°10' W 123°03'0 0.5
2017-Jun-15 07:59N 46°10' W 123°03'145582.6
2017-Jun-15 07:59N 46°12' W 123°23'1428.7
2017-Jun-15 07:30N 46°10' W 123°03'0 0.5
2017-Jun-15 07:29N 46°10' W 123°03'21689.5
2017-Jun-15 07:27N 45°52' W 122°48'321477.5
2017-Jun-15 07:26N 46°12' W 123°23'3274.7
2017-Jun-15 07:00N 45°52' W 122°48'212834.7
2017-Jun-15 07:00N 46°10' W 123°03'0 0.6
2017-Jun-15 06:59N 46°10' W 123°03'1468.6
2017-Jun-15 06:47N 46°12' W 123°23'1447.0
2017-Jun-15 06:29N 46°10' W 123°03'145024.3
2017-Jun-15 06:29N 46°12' W 123°23'321108.3
2017-Jun-15 06:27N 45°52' W 122°48'212551.2
2017-Jun-15 06:27N 46°10' W 123°03'2148.2
2017-Jun-15 06:00N 45°52' W 122°48'212391.8
2017-Jun-15 06:00N 46°10' W 123°03'0 0.6
2017-Jun-15 05:59N 46°10' W 123°03'14261.7
2017-Jun-15 05:56N 46°12' W 123°23'3274.7
2017-Jun-15 05:30N 45°52' W 122°48'212834.7
2017-Jun-15 05:30N 46°10' W 123°03'0 0.3
2017-Jun-15 05:29N 46°10' W 123°03'14146.9
2017-Jun-15 05:23N 46°12' W 123°23'1434.4
2017-Jun-15 04:58N 46°10' W 123°03'0 0.2
2017-Jun-15 04:57N 46°10' W 123°03'21513.7
2017-Jun-15 04:54N 45°52' W 122°48'2146.5
2017-Jun-15 04:27N 46°10' W 123°03'0 0.3
2017-Jun-15 04:26N 46°10' W 123°03'21287.8
2017-Jun-15 04:21N 45°52' W 122°48'32144.8
2017-Jun-15 04:08N 46°12' W 123°23'14103.2
2017-Jun-15 04:00N 46°10' W 123°03'21487.5
2017-Jun-15 03:57N 45°52' W 122°48'21789.2
2017-Jun-15 03:55N 46°10' W 123°03'1496.3
2017-Jun-15 03:47N 46°12' W 123°23'1448.9
2017-Jun-15 03:30N 46°10' W 123°03'14913.6
2017-Jun-15 03:29N 46°12' W 123°23'143349.5
2017-Jun-15 03:28N 46°10' W 123°03'2165.8
2017-Jun-15 03:09N 45°52' W 122°48'0 0.0
2017-Jun-15 02:57N 45°52' W 122°48'212733.5
2017-Jun-15 02:57N 46°10' W 123°03'14120.8
2017-Jun-15 02:50N 46°12' W 123°23'1490.9
2017-Jun-15 02:41N 46°10' W 123°03'21122.5
2017-Jun-15 02:30N 45°52' W 122°48'21805.9
2017-Jun-15 02:29N 46°10' W 123°03'0 0.2
2017-Jun-15 02:27N 46°10' W 123°03'1444.4
2017-Jun-15 02:08N 46°12' W 123°23'32250.0
2017-Jun-15 02:00N 45°52' W 122°48'212834.0
2017-Jun-15 02:00N 46°10' W 123°03'0 0.3
2017-Jun-15 01:59N 46°10' W 123°03'14144.8
2017-Jun-15 01:53N 46°12' W 123°23'1436.1
2017-Jun-15 01:30N 46°10' W 123°03'0 0.3
2017-Jun-15 01:29N 46°10' W 123°03'21890.2
2017-Jun-15 01:27N 45°52' W 122°48'32443.3
2017-Jun-15 01:23N 46°12' W 123°23'1436.2
2017-Jun-15 01:00N 46°10' W 123°03'0 0.0
2017-Jun-15 00:41N 46°10' W 123°03'21283.5
2017-Jun-15 00:36N 45°52' W 122°48'21168.3
2017-Jun-15 00:29N 46°10' W 123°03'21900.7
2017-Jun-15 00:27N 45°52' W 122°48'212639.2
2017-Jun-15 00:27N 46°10' W 123°03'14930.5
2017-Jun-15 00:26N 46°12' W 123°23'3274.9
2017-Jun-15 00:00N 45°52' W 122°48'21279.4
2017-Jun-14 23:56N 46°10' W 123°03'0 0.1
2017-Jun-14 23:51N 46°10' W 123°03'14218.5
2017-Jun-14 23:47N 46°12' W 123°23'1448.9
2017-Jun-14 23:30N 46°10' W 123°03'14948.0
2017-Jun-14 23:29N 46°12' W 123°23'143588.8
2017-Jun-14 23:29N 46°10' W 123°03'21890.2
2017-Jun-14 23:27N 45°52' W 122°48'0 0.0
2017-Jun-14 23:00N 45°52' W 122°48'321477.7
2017-Jun-14 22:59N 46°12' W 123°23'143140.2
2017-Jun-14 22:59N 46°10' W 123°03'0 0.2
2017-Jun-14 22:57N 46°10' W 123°03'2148.1
2017-Jun-14 22:30N 45°52' W 122°48'32436.6
2017-Jun-14 22:26N 46°12' W 123°23'145024.3
2017-Jun-14 22:26N 46°10' W 123°03'0 0.2
2017-Jun-14 22:24N 46°10' W 123°03'2154.3
2017-Jun-14 22:00N 45°52' W 122°48'321405.6
2017-Jun-14 21:59N 46°12' W 123°23'14389.5
2017-Jun-14 21:57N 46°10' W 123°03'0 0.3
2017-Jun-14 21:56N 46°10' W 123°03'2150.1
2017-Jun-14 21:30N 45°52' W 122°48'213061.5
2017-Jun-14 21:30N 46°10' W 123°03'14897.3
2017-Jun-14 21:29N 46°12' W 123°23'14261.7
2017-Jun-14 21:26N 46°10' W 123°03'2150.1
2017-Jun-14 21:00N 45°52' W 122°48'212834.7
2017-Jun-14 21:00N 46°10' W 123°03'14966.3
2017-Jun-14 20:59N 46°12' W 123°23'145024.6
2017-Jun-14 20:59N 46°10' W 123°03'0 0.0
2017-Jun-14 20:30N 46°10' W 123°03'141116.6
2017-Jun-14 20:29N 46°12' W 123°23'14257.7
2017-Jun-14 20:26N 46°10' W 123°03'21860.2
2017-Jun-14 20:24N 45°52' W 122°48'0 0.0
2017-Jun-14 20:00N 45°52' W 122°48'21860.2
2017-Jun-14 19:59N 46°10' W 123°03'0 0.2
2017-Jun-14 19:57N 46°10' W 123°03'14966.3
2017-Jun-14 19:56N 46°12' W 123°23'1428.7
2017-Jun-14 19:27N 46°10' W 123°03'14966.3
2017-Jun-14 19:26N 46°12' W 123°23'145024.3
2017-Jun-14 19:26N 46°10' W 123°03'21284.6
2017-Jun-14 19:21N 45°52' W 122°48'0 0.0
2017-Jun-14 19:00N 45°52' W 122°48'212639.2
2017-Jun-14 19:00N 46°10' W 123°03'14966.3
2017-Jun-14 18:59N 46°12' W 123°23'14134.7
2017-Jun-14 18:53N 46°10' W 123°03'2150.1
2017-Jun-14 18:27N 45°52' W 122°48'21880.0
2017-Jun-14 18:26N 46°10' W 123°03'14290.4
2017-Jun-14 18:23N 46°12' W 123°23'14383.6
2017-Jun-14 18:21N 46°10' W 123°03'2162.3
2017-Jun-14 18:00N 45°52' W 122°48'321440.7
2017-Jun-14 17:59N 46°12' W 123°23'144567.6
2017-Jun-14 17:59N 46°10' W 123°03'0 0.1
2017-Jun-14 17:55N 46°10' W 123°03'2150.9
2017-Jun-14 17:30N 45°52' W 122°48'321496.9
2017-Jun-14 17:29N 46°12' W 123°23'14261.7
2017-Jun-14 17:26N 46°10' W 123°03'0 0.7
2017-Jun-14 17:25N 46°10' W 123°03'2151.0
2017-Jun-14 17:00N 45°52' W 122°48'21870.0
2017-Jun-14 16:59N 46°10' W 123°03'0 0.7
2017-Jun-14 16:58N 46°10' W 123°03'14100.1
2017-Jun-14 16:50N 46°12' W 123°23'3297.8
2017-Jun-14 16:30N 45°52' W 122°48'32441.6
2017-Jun-14 16:26N 46°12' W 123°23'141288.4
2017-Jun-14 16:25N 46°10' W 123°03'0 0.1
2017-Jun-14 16:23N 46°10' W 123°03'2156.6
2017-Jun-14 16:00N 45°52' W 122°48'21627.4
2017-Jun-14 15:58N 46°10' W 123°03'14353.8
2017-Jun-14 15:56N 46°12' W 123°23'14271.6
2017-Jun-14 15:53N 46°10' W 123°03'1435.1
2017-Jun-14 15:29N 46°12' W 123°23'147177.6
2017-Jun-14 15:29N 46°10' W 123°03'0 0.7
2017-Jun-14 15:28N 46°10' W 123°03'211275.6
2017-Jun-14 15:27N 45°52' W 122°48'0 0.0
2017-Jun-14 15:00N 45°52' W 122°48'321423.0
2017-Jun-14 14:59N 46°12' W 123°23'14264.4
2017-Jun-14 14:56N 46°10' W 123°03'0 0.1
2017-Jun-14 14:52N 46°10' W 123°03'1415.7
2017-Jun-14 13:59N 46°12' W 123°23'141395.7
2017-Jun-14 13:58N 46°10' W 123°03'21318.9
2017-Jun-14 13:54N 45°52' W 122°48'21172.4
2017-Jun-14 13:47N 46°10' W 123°03'2176.7
2017-Jun-14 13:30N 45°52' W 122°48'21900.7
2017-Jun-14 13:29N 46°10' W 123°03'0 0.7
2017-Jun-14 13:28N 46°10' W 123°03'1473.7
2017-Jun-14 13:17N 46°12' W 123°23'32115.1
2017-Jun-14 13:00N 45°52' W 122°48'21900.7
2017-Jun-14 12:59N 46°10' W 123°03'0 0.6
2017-Jun-14 12:58N 46°10' W 123°03'14369.5
2017-Jun-14 12:56N 46°12' W 123°23'3274.7
2017-Jun-14 12:30N 45°52' W 122°48'321477.7
2017-Jun-14 12:29N 46°12' W 123°23'147177.6
2017-Jun-14 12:29N 46°10' W 123°03'0 0.1
2017-Jun-14 12:22N 46°10' W 123°03'2158.0
2017-Jun-14 12:00N 45°52' W 122°48'21860.2
2017-Jun-14 11:59N 46°10' W 123°03'14308.2
2017-Jun-14 11:56N 46°12' W 123°23'141025.4
2017-Jun-14 11:55N 46°10' W 123°03'2145.5
2017-Jun-14 11:27N 45°52' W 122°48'321496.7
2017-Jun-14 11:26N 46°12' W 123°23'141196.3
2017-Jun-14 11:25N 46°10' W 123°03'0 0.0
2017-Jun-14 11:17N 46°10' W 123°03'0 0.0
2017-Jun-14 10:59N 46°10' W 123°03'0 0.7
2017-Jun-14 10:58N 46°10' W 123°03'14348.9
2017-Jun-14 10:56N 46°12' W 123°23'32414.6
2017-Jun-14 10:51N 45°52' W 122°48'3285.8
2017-Jun-14 10:29N 46°12' W 123°23'321176.0
2017-Jun-14 10:27N 45°52' W 122°48'21879.7
2017-Jun-14 10:26N 46°10' W 123°03'0 0.7
2017-Jun-14 10:25N 46°10' W 123°03'0 0.0
2017-Jun-14 09:56N 46°10' W 123°03'0 0.8
2017-Jun-14 09:55N 46°10' W 123°03'211234.5
2017-Jun-14 09:54N 45°52' W 122°48'32273.2
2017-Jun-14 09:47N 46°12' W 123°23'3296.2
2017-Jun-14 09:27N 45°52' W 122°48'321440.7
2017-Jun-14 09:26N 46°12' W 123°23'145582.6
2017-Jun-14 09:26N 46°10' W 123°03'0 0.6
2017-Jun-14 09:25N 46°10' W 123°03'2151.0
2017-Jun-14 09:00N 45°52' W 122°48'21911.2
2017-Jun-14 08:59N 46°10' W 123°03'0 0.1
2017-Jun-14 08:52N 46°10' W 123°03'14353.8
2017-Jun-14 08:50N 46°12' W 123°23'1439.9
2017-Jun-14 08:29N 46°10' W 123°03'0 0.1
2017-Jun-14 08:22N 46°10' W 123°03'211297.2
2017-Jun-14 08:21N 45°52' W 122°48'32443.3
2017-Jun-14 08:17N 46°12' W 123°23'1444.8
2017-Jun-14 07:58N 46°10' W 123°03'0 0.2
2017-Jun-14 07:56N 46°10' W 123°03'21832.1
2017-Jun-14 07:54N 45°52' W 122°48'32260.2
2017-Jun-14 07:47N 46°12' W 123°23'32115.4
2017-Jun-14 07:30N 45°52' W 122°48'213327.7
2017-Jun-14 07:30N 46°10' W 123°03'0 0.4
2017-Jun-14 07:29N 46°10' W 123°03'14139.6
2017-Jun-14 07:23N 46°12' W 123°23'1436.1
2017-Jun-14 07:00N 46°10' W 123°03'141046.8
2017-Jun-14 06:59N 46°12' W 123°23'321152.6
2017-Jun-14 06:57N 45°52' W 122°48'21880.0
2017-Jun-14 06:56N 46°10' W 123°03'2150.0
2017-Jun-14 06:30N 45°52' W 122°48'212733.5
2017-Jun-14 06:30N 46°10' W 123°03'14930.5
2017-Jun-14 06:29N 46°12' W 123°23'1450243.2
2017-Jun-14 06:29N 46°10' W 123°03'2144.6
2017-Jun-14 06:00N 45°52' W 122°48'21364.5
2017-Jun-14 05:57N 46°10' W 123°03'14948.0
2017-Jun-14 05:56N 46°12' W 123°23'14279.1
2017-Jun-14 05:53N 46°10' W 123°03'0 0.0
2017-Jun-14 05:30N 46°10' W 123°03'0 3.9
2017-Jun-14 05:29N 46°10' W 123°03'1425195.5
2017-Jun-14 05:29N 46°12' W 123°23'32393.4
2017-Jun-14 05:24N 45°52' W 122°48'2152.0
2017-Jun-14 05:00N 46°10' W 123°03'0 0.4
2017-Jun-14 04:59N 46°10' W 123°03'21773.3
2017-Jun-14 04:57N 45°52' W 122°48'321477.7
2017-Jun-14 04:56N 46°12' W 123°23'1431.0
2017-Jun-14 04:29N 46°10' W 123°03'14276.1
2017-Jun-14 04:26N 46°12' W 123°23'321188.2
2017-Jun-14 04:24N 45°52' W 122°48'212551.2
2017-Jun-14 04:24N 46°10' W 123°03'1433.7
2017-Jun-14 03:59N 46°12' W 123°23'14277.6
2017-Jun-14 03:56N 46°10' W 123°03'21781.2
2017-Jun-14 03:54N 45°52' W 122°48'21369.7
2017-Jun-14 03:51N 46°10' W 123°03'0 0.0
2017-Jun-14 03:30N 46°10' W 123°03'0 0.5
2017-Jun-14 03:29N 46°10' W 123°03'21781.2
2017-Jun-14 03:27N 45°52' W 122°48'321440.7
2017-Jun-14 03:26N 46°12' W 123°23'3274.9
2017-Jun-14 03:00N 45°52' W 122°48'21357.7
2017-Jun-14 02:57N 46°10' W 123°03'0 0.4
2017-Jun-14 02:56N 46°10' W 123°03'0 0.0
2017-Jun-14 02:30N 46°10' W 123°03'0 0.5
2017-Jun-14 02:29N 46°10' W 123°03'21750.5
2017-Jun-14 02:27N 45°52' W 122°48'2146.5
2017-Jun-14 02:00N 46°10' W 123°03'0 0.4
2017-Jun-14 01:59N 46°10' W 123°03'14280.7
2017-Jun-14 01:56N 46°12' W 123°23'321188.2
2017-Jun-14 01:54N 45°52' W 122°48'2152.0
2017-Jun-14 01:30N 46°10' W 123°03'0 0.4
2017-Jun-14 01:29N 46°10' W 123°03'21781.2
2017-Jun-14 01:27N 45°52' W 122°48'3285.8
2017-Jun-14 01:05N 46°12' W 123°23'32413.1
2017-Jun-14 01:00N 45°52' W 122°48'21945.1
2017-Jun-14 00:59N 46°10' W 123°03'0 0.2
2017-Jun-14 00:57N 46°10' W 123°03'14985.2
2017-Jun-14 00:56N 46°12' W 123°23'0 0.0
2017-Jun-14 00:26N 46°12' W 123°23'14383.6
2017-Jun-14 00:24N 46°10' W 123°03'0 0.1
2017-Jun-14 00:20N 46°10' W 123°03'21120.0
2017-Jun-14 00:09N 45°52' W 122°48'0 0.0
2017-Jun-14 00:00N 45°52' W 122°48'321536.8
2017-Jun-13 23:59N 46°12' W 123°23'1412560.8
2017-Jun-13 23:59N 46°10' W 123°03'0 0.2
2017-Jun-13 23:57N 46°10' W 123°03'2148.2
2017-Jun-13 23:30N 45°52' W 122°48'21956.9
2017-Jun-13 23:29N 46°10' W 123°03'0 0.2
2017-Jun-13 23:27N 46°10' W 123°03'14121.7
2017-Jun-13 23:20N 46°12' W 123°23'3297.8
2017-Jun-13 23:00N 45°52' W 122°48'21956.9
2017-Jun-13 22:59N 46°10' W 123°03'0 0.2
2017-Jun-13 22:57N 46°10' W 123°03'141046.8
2017-Jun-13 22:56N 46°12' W 123°23'1431.9
2017-Jun-13 22:30N 46°10' W 123°03'0 0.4
2017-Jun-13 22:29N 46°10' W 123°03'14277.6
2017-Jun-13 22:26N 46°12' W 123°23'32411.6
2017-Jun-13 22:21N 45°52' W 122°48'2159.4
2017-Jun-13 22:00N 46°10' W 123°03'14985.2
2017-Jun-13 21:59N 46°12' W 123°23'32250.6
2017-Jun-13 21:51N 45°52' W 122°48'21293.3
2017-Jun-13 21:47N 46°10' W 123°03'2176.6
2017-Jun-13 21:30N 45°52' W 122°48'21994.2
2017-Jun-13 21:29N 46°10' W 123°03'14273.1
2017-Jun-13 21:26N 46°12' W 123°23'14389.5
2017-Jun-13 21:24N 46°10' W 123°03'0 0.0
2017-Jun-13 21:00N 46°10' W 123°03'141004.9
2017-Jun-13 20:59N 46°12' W 123°23'321152.6
2017-Jun-13 20:57N 45°52' W 122°48'21173.6
2017-Jun-13 20:50N 46°10' W 123°03'2164.9
2017-Jun-13 20:30N 45°52' W 122°48'212551.2
2017-Jun-13 20:30N 46°10' W 123°03'0 0.5
2017-Jun-13 20:29N 46°10' W 123°03'145582.6
2017-Jun-13 20:29N 46°12' W 123°23'0 0.0
2017-Jun-13 19:59N 46°12' W 123°23'321164.2
2017-Jun-13 19:57N 45°52' W 122°48'212468.9
2017-Jun-13 19:57N 46°10' W 123°03'0 0.1
2017-Jun-13 19:53N 46°10' W 123°03'0 0.0
2017-Jun-13 19:30N 46°10' W 123°03'141092.3
2017-Jun-13 19:29N 46°12' W 123°23'1425121.6
2017-Jun-13 19:29N 46°10' W 123°03'21765.6
2017-Jun-13 19:27N 45°52' W 122°48'0 0.0
2017-Jun-13 18:57N 45°52' W 122°48'212468.9
2017-Jun-13 18:57N 46°10' W 123°03'0 0.5
2017-Jun-13 18:56N 46°10' W 123°03'1410048.6
2017-Jun-13 18:56N 46°12' W 123°23'3274.9
2017-Jun-13 18:30N 45°52' W 122°48'21981.5
2017-Jun-13 18:29N 46°10' W 123°03'1425121.6
2017-Jun-13 18:29N 46°12' W 123°23'141196.3
2017-Jun-13 18:28N 46°10' W 123°03'2145.6
2017-Jun-13 18:00N 45°52' W 122°48'21617.2
2017-Jun-13 17:58N 46°10' W 123°03'0 0.2
2017-Jun-13 17:56N 46°10' W 123°03'147177.6
2017-Jun-13 17:56N 46°12' W 123°23'3274.9
2017-Jun-13 17:30N 45°52' W 122°48'321440.7
2017-Jun-13 17:29N 46°12' W 123°23'141168.5
2017-Jun-13 17:28N 46°10' W 123°03'0 0.0
2017-Jun-13 17:20N 46°10' W 123°03'2164.5
2017-Jun-13 17:00N 45°52' W 122°48'211007.3
2017-Jun-13 16:59N 46°10' W 123°03'1416747.7
2017-Jun-13 16:59N 46°12' W 123°23'141225.5
2017-Jun-13 16:58N 46°10' W 123°03'0 0.0
2017-Jun-13 16:29N 46°10' W 123°03'0 1.3
2017-Jun-13 16:29N 46°10' W 123°03'21743.3
2017-Jun-13 16:27N 45°52' W 122°48'3299.4
2017-Jun-13 16:08N 46°12' W 123°23'32251.1
2017-Jun-13 16:00N 45°52' W 122°48'212391.8
2017-Jun-13 16:00N 46°10' W 123°03'0 0.5
2017-Jun-13 15:59N 46°10' W 123°03'14137.7
2017-Jun-13 15:53N 46°12' W 123°23'1435.0
2017-Jun-13 15:29N 46°10' W 123°03'21617.4
2017-Jun-13 15:27N 45°52' W 122°48'215887.5
2017-Jun-13 15:27N 46°10' W 123°03'1444.5
2017-Jun-13 15:08N 46°12' W 123°23'14102.1
2017-Jun-13 15:00N 46°10' W 123°03'0 0.5
2017-Jun-13 14:59N 46°10' W 123°03'14267.3
2017-Jun-13 14:56N 46°12' W 123°23'321002.3
2017-Jun-13 14:54N 45°52' W 122°48'3268.4
2017-Jun-13 14:26N 46°12' W 123°23'14287.1
2017-Jun-13 14:23N 46°10' W 123°03'2155.4
2017-Jun-13 14:00N 45°52' W 122°48'21203.0
2017-Jun-13 13:54N 46°10' W 123°03'  

Dump ship's entire track history